<?xml version="1.0" encoding="UTF-8"?><gpx creator="Topokart for iOS" version="1.1" xmlns:xsi="http://www.w3.org/2001/XMLSchema-instance" xmlns="http://www.topografix.com/GPX/1/1" xsi:schemaLocation="http://www.topografix.com/GPX/1/1 http://www.topografix.com/GPX/1/1/gpx.xsd" xmlns:gpxtpx="http://www.garmin.com/xmlschemas/TrackPointExtension/v1">


	<metadata>
		<link href="http://www.aboveapps.no">
			<text>Topokart (Aboveapps)</text>
		</link>
		<time>2019-07-26T10:21:51Z</time>
	</metadata>

	<trk>
		<name><![CDATA[Nattejuv - 26 Jul 2019 at 12:21]]></name>
		<trkseg>
			<trkpt lat="59.68970461288438" lon="9.034535083928178">
				<ele>185.36085891723633</ele>
				<time>2019-07-26T10:21:55Z</time>
			</trkpt>
			<trkpt lat="59.68970046384231" lon="9.034405918800303">
				<ele>183.90065383911133</ele>
				<time>2019-07-26T10:22:07Z</time>
			</trkpt>
			<trkpt lat="59.68975607776985" lon="9.034578250729512">
				<ele>178.77431106567383</ele>
				<time>2019-07-26T10:22:14Z</time>
			</trkpt>
			<trkpt lat="59.689789312015925" lon="9.034751337030004">
				<ele>175.53078079223633</ele>
				<time>2019-07-26T10:22:17Z</time>
			</trkpt>
			<trkpt lat="59.68983168253646" lon="9.034949149944852">
				<ele>176.92103958129883</ele>
				<time>2019-07-26T10:22:20Z</time>
			</trkpt>
			<trkpt lat="59.68987405305699" lon="9.035140424975227">
				<ele>175.99599075317383</ele>
				<time>2019-07-26T10:22:23Z</time>
			</trkpt>
			<trkpt lat="59.68991772277251" lon="9.03533111327238">
				<ele>175.89149856567383</ele>
				<time>2019-07-26T10:22:26Z</time>
			</trkpt>
			<trkpt lat="59.68993373220757" lon="9.035536721357177">
				<ele>176.28078079223633</ele>
				<time>2019-07-26T10:22:30Z</time>
			</trkpt>
			<trkpt lat="59.68992786487535" lon="9.035716932275365">
				<ele>175.21260452270508</ele>
				<time>2019-07-26T10:22:33Z</time>
			</trkpt>
			<trkpt lat="59.68997048685298" lon="9.035917595037292">
				<ele>177.26601028442383</ele>
				<time>2019-07-26T10:22:36Z</time>
			</trkpt>
			<trkpt lat="59.69002668751374" lon="9.036123370760153">
				<ele>177.05629348754883</ele>
				<time>2019-07-26T10:22:39Z</time>
			</trkpt>
			<trkpt lat="59.69008653430239" lon="9.03635479510672">
				<ele>177.80757522583008</ele>
				<time>2019-07-26T10:22:42Z</time>
			</trkpt>
			<trkpt lat="59.690126935075675" lon="9.036517655485344">
				<ele>178.02209922283998</ele>
				<time>2019-07-26T10:22:44Z</time>
			</trkpt>
			<trkpt lat="59.690169934238945" lon="9.036681940787506">
				<ele>178.36655237384744</ele>
				<time>2019-07-26T10:22:46Z</time>
			</trkpt>
			<trkpt lat="59.69021590897784" lon="9.036844549709034">
				<ele>178.8968745182317</ele>
				<time>2019-07-26T10:22:48Z</time>
			</trkpt>
			<trkpt lat="59.6903024940376" lon="9.036982934930396">
				<ele>179.01295700303874</ele>
				<time>2019-07-26T10:22:50Z</time>
			</trkpt>
			<trkpt lat="59.69036498112575" lon="9.037209916868282">
				<ele>179.02261838344575</ele>
				<time>2019-07-26T10:22:53Z</time>
			</trkpt>
			<trkpt lat="59.69041728420154" lon="9.037445783623529">
				<ele>179.46340751982862</ele>
				<time>2019-07-26T10:22:56Z</time>
			</trkpt>
			<trkpt lat="59.690468916725074" lon="9.037669412800145">
				<ele>179.7948825037385</ele>
				<time>2019-07-26T10:22:59Z</time>
			</trkpt>
			<trkpt lat="59.69051329890237" lon="9.037888012834859">
				<ele>179.95193942509616</ele>
				<time>2019-07-26T10:23:02Z</time>
			</trkpt>
			<trkpt lat="59.690562081578825" lon="9.038094794386101">
				<ele>180.33180083805837</ele>
				<time>2019-07-26T10:23:05Z</time>
			</trkpt>
			<trkpt lat="59.69060503883258" lon="9.0382623486305">
				<ele>180.68748833854085</ele>
				<time>2019-07-26T10:23:08Z</time>
			</trkpt>
			<trkpt lat="59.69071744015411" lon="9.038286572330666">
				<ele>180.58804090786498</ele>
				<time>2019-07-26T10:23:14Z</time>
			</trkpt>
			<trkpt lat="59.69080000190035" lon="9.038150198766065">
				<ele>180.16623283798623</ele>
				<time>2019-07-26T10:23:17Z</time>
			</trkpt>
			<trkpt lat="59.69087325973407" lon="9.03801416047759">
				<ele>180.54628143692617</ele>
				<time>2019-07-26T10:23:20Z</time>
			</trkpt>
			<trkpt lat="59.69094773294375" lon="9.037846438595128">
				<ele>181.20579839434288</ele>
				<time>2019-07-26T10:23:24Z</time>
			</trkpt>
			<trkpt lat="59.69099605461553" lon="9.037681734197808">
				<ele>182.48375511450655</ele>
				<time>2019-07-26T10:23:29Z</time>
			</trkpt>
			<trkpt lat="59.69103926332639" lon="9.037485681482625">
				<ele>182.72454722765218</ele>
				<time>2019-07-26T10:23:35Z</time>
			</trkpt>
			<trkpt lat="59.691083016860944" lon="9.03730119579382">
				<ele>183.29192583708277</ele>
				<time>2019-07-26T10:23:39Z</time>
			</trkpt>
			<trkpt lat="59.69113569712238" lon="9.03715610504992">
				<ele>183.87407690741315</ele>
				<time>2019-07-26T10:23:42Z</time>
			</trkpt>
			<trkpt lat="59.69118879647897" lon="9.037012606867624">
				<ele>184.22154998964248</ele>
				<time>2019-07-26T10:23:45Z</time>
			</trkpt>
			<trkpt lat="59.69125912064658" lon="9.036874389284325">
				<ele>184.29722934507515</ele>
				<time>2019-07-26T10:23:48Z</time>
			</trkpt>
			<trkpt lat="59.69133610842721" lon="9.036760563039255">
				<ele>184.81013649932703</ele>
				<time>2019-07-26T10:23:51Z</time>
			</trkpt>
			<trkpt lat="59.69140152918146" lon="9.036608012401533">
				<ele>186.2947995133751</ele>
				<time>2019-07-26T10:23:55Z</time>
			</trkpt>
			<trkpt lat="59.69146820722119" lon="9.03641346842892">
				<ele>186.65672308742901</ele>
				<time>2019-07-26T10:23:59Z</time>
			</trkpt>
			<trkpt lat="59.69153366988496" lon="9.03623904102392">
				<ele>187.22645011535286</ele>
				<time>2019-07-26T10:24:02Z</time>
			</trkpt>
			<trkpt lat="59.69161258550332" lon="9.036092273899387">
				<ele>186.9593734314767</ele>
				<time>2019-07-26T10:24:05Z</time>
			</trkpt>
			<trkpt lat="59.691701601315" lon="9.035981632777522">
				<ele>187.41583926823063</ele>
				<time>2019-07-26T10:24:08Z</time>
			</trkpt>
			<trkpt lat="59.69179158104555" lon="9.035898400479029">
				<ele>188.1111086086002</ele>
				<time>2019-07-26T10:24:11Z</time>
			</trkpt>
			<trkpt lat="59.69188990076975" lon="9.035776359968851">
				<ele>188.28980215124318</ele>
				<time>2019-07-26T10:24:15Z</time>
			</trkpt>
			<trkpt lat="59.691979922409814" lon="9.035663288095067">
				<ele>187.75919476247395</ele>
				<time>2019-07-26T10:24:18Z</time>
			</trkpt>
			<trkpt lat="59.69207928987191" lon="9.035563627266358">
				<ele>187.31038487340498</ele>
				<time>2019-07-26T10:24:20Z</time>
			</trkpt>
			<trkpt lat="59.69216675503151" lon="9.03547972441561">
				<ele>186.23213500202212</ele>
				<time>2019-07-26T10:24:22Z</time>
			</trkpt>
			<trkpt lat="59.69228452077107" lon="9.035396827393244">
				<ele>185.90288415739354</ele>
				<time>2019-07-26T10:24:25Z</time>
			</trkpt>
			<trkpt lat="59.69240287324385" lon="9.035302447163533">
				<ele>185.5050546741233</ele>
				<time>2019-07-26T10:24:28Z</time>
			</trkpt>
			<trkpt lat="59.69249360734568" lon="9.03527939692981">
				<ele>185.56427620118723</ele>
				<time>2019-07-26T10:24:30Z</time>
			</trkpt>
			<trkpt lat="59.69260336836771" lon="9.035309571781228">
				<ele>185.6614914756305</ele>
				<time>2019-07-26T10:24:33Z</time>
			</trkpt>
			<trkpt lat="59.692722642849844" lon="9.03532088735051">
				<ele>185.42087610337524</ele>
				<time>2019-07-26T10:24:36Z</time>
			</trkpt>
			<trkpt lat="59.69282599171595" lon="9.035308314495753">
				<ele>185.72761085817007</ele>
				<time>2019-07-26T10:24:39Z</time>
			</trkpt>
			<trkpt lat="59.69290775718139" lon="9.0352212265218">
				<ele>185.2298062878371</ele>
				<time>2019-07-26T10:24:42Z</time>
			</trkpt>
			<trkpt lat="59.69302166724549" lon="9.035073872664045">
				<ele>184.49834874800257</ele>
				<time>2019-07-26T10:24:45Z</time>
			</trkpt>
			<trkpt lat="59.69312111852662" lon="9.034998770811628">
				<ele>184.1486250891482</ele>
				<time>2019-07-26T10:24:47Z</time>
			</trkpt>
			<trkpt lat="59.69322903552995" lon="9.03495049104936">
				<ele>184.25379581422908</ele>
				<time>2019-07-26T10:24:49Z</time>
			</trkpt>
			<trkpt lat="59.69336566055165" lon="9.034990891822646">
				<ele>184.04643393899332</ele>
				<time>2019-07-26T10:24:51Z</time>
			</trkpt>
			<trkpt lat="59.69346481846617" lon="9.035058785238336">
				<ele>183.18641630134292</ele>
				<time>2019-07-26T10:24:53Z</time>
			</trkpt>
			<trkpt lat="59.69358296139137" lon="9.035005895429324">
				<ele>182.09106549582012</ele>
				<time>2019-07-26T10:24:55Z</time>
			</trkpt>
			<trkpt lat="59.693706552553635" lon="9.03495736420996">
				<ele>181.29045365910972</ele>
				<time>2019-07-26T10:24:57Z</time>
			</trkpt>
			<trkpt lat="59.69381920533226" lon="9.03486650437958">
				<ele>180.34015525049904</ele>
				<time>2019-07-26T10:24:59Z</time>
			</trkpt>
			<trkpt lat="59.69394941819803" lon="9.034776147463392">
				<ele>179.77656753786366</ele>
				<time>2019-07-26T10:25:01Z</time>
			</trkpt>
			<trkpt lat="59.69399279454694" lon="9.034417402007648">
				<ele>180.25978691581332</ele>
				<time>2019-07-26T10:25:04Z</time>
			</trkpt>
			<trkpt lat="59.694030010197025" lon="9.034139877193638">
				<ele>179.61490102763386</ele>
				<time>2019-07-26T10:25:06Z</time>
			</trkpt>
			<trkpt lat="59.69408390583442" lon="9.033993445345232">
				<ele>179.53562351812062</ele>
				<time>2019-07-26T10:25:08Z</time>
			</trkpt>
			<trkpt lat="59.69417019752757" lon="9.033861514189311">
				<ele>179.37404623775427</ele>
				<time>2019-07-26T10:25:11Z</time>
			</trkpt>
			<trkpt lat="59.694263530019384" lon="9.033710388475129">
				<ele>179.7181942109979</ele>
				<time>2019-07-26T10:25:15Z</time>
			</trkpt>
			<trkpt lat="59.69430736737297" lon="9.033510899179646">
				<ele>177.03162275650936</ele>
				<time>2019-07-26T10:31:01Z</time>
			</trkpt>
			<trkpt lat="59.6943861991723" lon="9.033362455674478">
				<ele>177.15926478696431</ele>
				<time>2019-07-26T10:31:12Z</time>
			</trkpt>
			<trkpt lat="59.69448070513056" lon="9.03322968632824">
				<ele>177.79038881493298</ele>
				<time>2019-07-26T10:31:16Z</time>
			</trkpt>
			<trkpt lat="59.694571103956264" lon="9.033142346897193">
				<ele>178.27025724606497</ele>
				<time>2019-07-26T10:31:20Z</time>
			</trkpt>
			<trkpt lat="59.69467072287546" lon="9.033069591977664">
				<ele>178.18687521899378</ele>
				<time>2019-07-26T10:31:23Z</time>
			</trkpt>
			<trkpt lat="59.69479066790984" lon="9.03301712126381">
				<ele>177.98239776290282</ele>
				<time>2019-07-26T10:31:26Z</time>
			</trkpt>
			<trkpt lat="59.69490554189281" lon="9.032939840116569">
				<ele>177.91324592038083</ele>
				<time>2019-07-26T10:31:29Z</time>
			</trkpt>
			<trkpt lat="59.695012327339214" lon="9.03285392560906">
				<ele>178.05025664334326</ele>
				<time>2019-07-26T10:31:32Z</time>
			</trkpt>
			<trkpt lat="59.695111778620344" lon="9.032772621148297">
				<ele>179.10924317561285</ele>
				<time>2019-07-26T10:31:35Z</time>
			</trkpt>
			<trkpt lat="59.695218312609654" lon="9.032695675277182">
				<ele>179.45779960857772</ele>
				<time>2019-07-26T10:31:38Z</time>
			</trkpt>
			<trkpt lat="59.69531466258661" lon="9.032646054410407">
				<ele>180.7560000578272</ele>
				<time>2019-07-26T10:31:41Z</time>
			</trkpt>
			<trkpt lat="59.69540510332183" lon="9.032595176258154">
				<ele>182.43843166035276</ele>
				<time>2019-07-26T10:31:44Z</time>
			</trkpt>
			<trkpt lat="59.69550526706473" lon="9.032573634767003">
				<ele>184.0335029382968</ele>
				<time>2019-07-26T10:31:48Z</time>
			</trkpt>
			<trkpt lat="59.695618464667064" lon="9.03252803721375">
				<ele>184.726799950259</ele>
				<time>2019-07-26T10:31:52Z</time>
			</trkpt>
			<trkpt lat="59.69572864478425" lon="9.032492749401397">
				<ele>185.46817867372795</ele>
				<time>2019-07-26T10:31:56Z</time>
			</trkpt>
			<trkpt lat="59.695822815466386" lon="9.032428041108913">
				<ele>185.61873286446524</ele>
				<time>2019-07-26T10:31:59Z</time>
			</trkpt>
			<trkpt lat="59.69593190593616" lon="9.032292421915598">
				<ele>185.23451514130443</ele>
				<time>2019-07-26T10:32:02Z</time>
			</trkpt>
			<trkpt lat="59.6960207960193" lon="9.032185804107256">
				<ele>185.02085767744188</ele>
				<time>2019-07-26T10:32:04Z</time>
			</trkpt>
			<trkpt lat="59.69609870580928" lon="9.032091340058512">
				<ele>184.97178635989684</ele>
				<time>2019-07-26T10:32:06Z</time>
			</trkpt>
			<trkpt lat="59.69618407549308" lon="9.031991763048834">
				<ele>184.66603489182404</ele>
				<time>2019-07-26T10:32:08Z</time>
			</trkpt>
			<trkpt lat="59.69629970384733" lon="9.031879361727304">
				<ele>183.8623810801273</ele>
				<time>2019-07-26T10:32:11Z</time>
			</trkpt>
			<trkpt lat="59.69641181180225" lon="9.031818173834152">
				<ele>183.30323789644734</ele>
				<time>2019-07-26T10:32:14Z</time>
			</trkpt>
			<trkpt lat="59.696517088506084" lon="9.031691690915293">
				<ele>183.33733281446462</ele>
				<time>2019-07-26T10:32:17Z</time>
			</trkpt>
			<trkpt lat="59.696624921690386" lon="9.03162455187089">
				<ele>183.2844526152693</ele>
				<time>2019-07-26T10:32:21Z</time>
			</trkpt>
			<trkpt lat="59.69670593278454" lon="9.031526483603782">
				<ele>183.47310702999732</ele>
				<time>2019-07-26T10:32:24Z</time>
			</trkpt>
			<trkpt lat="59.69678308820323" lon="9.031380135574407">
				<ele>183.65089961281592</ele>
				<time>2019-07-26T10:32:27Z</time>
			</trkpt>
			<trkpt lat="59.69686979899154" lon="9.031194811695284">
				<ele>183.50389590598274</ele>
				<time>2019-07-26T10:32:30Z</time>
			</trkpt>
			<trkpt lat="59.69694012315915" lon="9.031078470879264">
				<ele>184.19039444385078</ele>
				<time>2019-07-26T10:32:32Z</time>
			</trkpt>
			<trkpt lat="59.69702251726733" lon="9.030917119243211">
				<ele>184.3563233069146</ele>
				<time>2019-07-26T10:32:35Z</time>
			</trkpt>
			<trkpt lat="59.697110778707724" lon="9.030786780648894">
				<ele>185.15844379130402</ele>
				<time>2019-07-26T10:32:39Z</time>
			</trkpt>
			<trkpt lat="59.697203943561476" lon="9.03066792526192">
				<ele>185.87659273422514</ele>
				<time>2019-07-26T10:32:43Z</time>
			</trkpt>
			<trkpt lat="59.6972914925401" lon="9.030513279148405">
				<ele>186.13154232365946</ele>
				<time>2019-07-26T10:32:48Z</time>
			</trkpt>
			<trkpt lat="59.69736009841756" lon="9.030349496760433">
				<ele>186.46827731467903</ele>
				<time>2019-07-26T10:32:52Z</time>
			</trkpt>
			<trkpt lat="59.6974434564446" lon="9.03021890670902">
				<ele>186.25070555463265</ele>
				<time>2019-07-26T10:32:56Z</time>
			</trkpt>
			<trkpt lat="59.69752392271505" lon="9.03010114096946">
				<ele>186.36170413587325</ele>
				<time>2019-07-26T10:33:00Z</time>
			</trkpt>
			<trkpt lat="59.69759366014944" lon="9.02997356840319">
				<ele>186.40327143495904</ele>
				<time>2019-07-26T10:33:04Z</time>
			</trkpt>
			<trkpt lat="59.69767001928733" lon="9.029850689702695">
				<ele>186.23205157070305</ele>
				<time>2019-07-26T10:33:09Z</time>
			</trkpt>
			<trkpt lat="59.69775844836579" lon="9.029715238147443">
				<ele>186.26964683362968</ele>
				<time>2019-07-26T10:33:13Z</time>
			</trkpt>
			<trkpt lat="59.69783413695143" lon="9.029557490729754">
				<ele>186.31158799743258</ele>
				<time>2019-07-26T10:33:17Z</time>
			</trkpt>
			<trkpt lat="59.69792902009533" lon="9.029427990325754">
				<ele>186.3608289970329</ele>
				<time>2019-07-26T10:33:21Z</time>
			</trkpt>
			<trkpt lat="59.698015353698" lon="9.02926655487067">
				<ele>185.96391676205565</ele>
				<time>2019-07-26T10:33:26Z</time>
			</trkpt>
			<trkpt lat="59.69808203173773" lon="9.029110483833616">
				<ele>186.05130243601855</ele>
				<time>2019-07-26T10:33:29Z</time>
			</trkpt>
			<trkpt lat="59.6981353406419" lon="9.028951982044642">
				<ele>185.96122755225844</ele>
				<time>2019-07-26T10:33:32Z</time>
			</trkpt>
			<trkpt lat="59.698178884628874" lon="9.028794737541142">
				<ele>186.11251672462794</ele>
				<time>2019-07-26T10:33:35Z</time>
			</trkpt>
			<trkpt lat="59.698234708103996" lon="9.028649311521116">
				<ele>186.24158126408287</ele>
				<time>2019-07-26T10:33:38Z</time>
			</trkpt>
			<trkpt lat="59.6982873045464" lon="9.028485948228303">
				<ele>186.6000730510185</ele>
				<time>2019-07-26T10:33:42Z</time>
			</trkpt>
			<trkpt lat="59.69834451103554" lon="9.028346640997592">
				<ele>185.9929797383685</ele>
				<time>2019-07-26T10:33:45Z</time>
			</trkpt>
			<trkpt lat="59.69839652074472" lon="9.028196772568885">
				<ele>186.3359501510281</ele>
				<time>2019-07-26T10:33:48Z</time>
			</trkpt>
			<trkpt lat="59.69848444690899" lon="9.028018740945521">
				<ele>185.65025487300676</ele>
				<time>2019-07-26T10:33:52Z</time>
			</trkpt>
			<trkpt lat="59.69856487126992" lon="9.027915978812638">
				<ele>185.4001857779695</ele>
				<time>2019-07-26T10:33:56Z</time>
			</trkpt>
			<trkpt lat="59.698634524885286" lon="9.027785221123162">
				<ele>184.15748205570065</ele>
				<time>2019-07-26T10:34:02Z</time>
			</trkpt>
			<trkpt lat="59.698705561514664" lon="9.027651110672418">
				<ele>183.53455572990407</ele>
				<time>2019-07-26T10:34:07Z</time>
			</trkpt>
			<trkpt lat="59.69879998365389" lon="9.027531752371255">
				<ele>182.60111189489209</ele>
				<time>2019-07-26T10:34:11Z</time>
			</trkpt>
			<trkpt lat="59.698862680289615" lon="9.027402587243381">
				<ele>183.5153185070581</ele>
				<time>2019-07-26T10:34:14Z</time>
			</trkpt>
			<trkpt lat="59.69891611492233" lon="9.02725640685207">
				<ele>184.30392598469223</ele>
				<time>2019-07-26T10:34:17Z</time>
			</trkpt>
			<trkpt lat="59.69894247600781" lon="9.0270321071232">
				<ele>184.9732845928205</ele>
				<time>2019-07-26T10:34:21Z</time>
			</trkpt>
			<trkpt lat="59.698946457411814" lon="9.026837479331554">
				<ele>185.32915869254015</ele>
				<time>2019-07-26T10:34:24Z</time>
			</trkpt>
			<trkpt lat="59.698935309480596" lon="9.026616197087826">
				<ele>185.49963111660213</ele>
				<time>2019-07-26T10:34:28Z</time>
			</trkpt>
			<trkpt lat="59.698925502653886" lon="9.026419725277485">
				<ele>185.90869469466276</ele>
				<time>2019-07-26T10:34:32Z</time>
			</trkpt>
			<trkpt lat="59.6989506483634" lon="9.026244878777327">
				<ele>185.1478989095803</ele>
				<time>2019-07-26T10:34:36Z</time>
			</trkpt>
			<trkpt lat="59.69897516543018" lon="9.026057459422411">
				<ele>184.42266849514561</ele>
				<time>2019-07-26T10:34:47Z</time>
			</trkpt>
			<trkpt lat="59.699024870115984" lon="9.025906668984355">
				<ele>183.05990587963754</ele>
				<time>2019-07-26T10:34:51Z</time>
			</trkpt>
			<trkpt lat="59.69907076103585" lon="9.025752441965999">
				<ele>183.77655831123246</ele>
				<time>2019-07-26T10:34:54Z</time>
			</trkpt>
			<trkpt lat="59.69899184541749" lon="9.025659486659826">
				<ele>184.2959960984956</ele>
				<time>2019-07-26T10:35:00Z</time>
			</trkpt>
			<trkpt lat="59.699050141554046" lon="9.025518503048481">
				<ele>184.51377662036862</ele>
				<time>2019-07-26T10:38:14Z</time>
			</trkpt>
			<trkpt lat="59.69914309686022" lon="9.025479275741638">
				<ele>185.4396237063894</ele>
				<time>2019-07-26T10:38:25Z</time>
			</trkpt>
			<trkpt lat="59.6992373932709" lon="9.02547935956067">
				<ele>188.29976452256074</ele>
				<time>2019-07-26T10:38:36Z</time>
			</trkpt>
			<trkpt lat="59.6993330726956" lon="9.025476342075528">
				<ele>188.2345740996987</ele>
				<time>2019-07-26T10:38:45Z</time>
			</trkpt>
			<trkpt lat="59.6994237229784" lon="9.02547206730491">
				<ele>188.65976548186745</ele>
				<time>2019-07-26T10:38:52Z</time>
			</trkpt>
			<trkpt lat="59.6995238867213" lon="9.025527555503906">
				<ele>188.4929136801581</ele>
				<time>2019-07-26T10:38:58Z</time>
			</trkpt>
			<trkpt lat="59.69956759834634" lon="9.025701144718589">
				<ele>188.7490509194613</ele>
				<time>2019-07-26T10:39:03Z</time>
			</trkpt>
			<trkpt lat="59.699640311356355" lon="9.025820838295878">
				<ele>187.445745419148</ele>
				<time>2019-07-26T10:39:12Z</time>
			</trkpt>
			<trkpt lat="59.69970036769258" lon="9.02596064844078">
				<ele>187.23332575889435</ele>
				<time>2019-07-26T10:39:20Z</time>
			</trkpt>
			<trkpt lat="59.699758286643494" lon="9.026109259584011">
				<ele>186.441121694166</ele>
				<time>2019-07-26T10:39:26Z</time>
			</trkpt>
			<trkpt lat="59.699813313837815" lon="9.026253260680498">
				<ele>187.1042641644009</ele>
				<time>2019-07-26T10:39:32Z</time>
			</trkpt>
			<trkpt lat="59.699831921662856" lon="9.026432549589337">
				<ele>187.5680932120904</ele>
				<time>2019-07-26T10:39:38Z</time>
			</trkpt>
			<trkpt lat="59.69982207292663" lon="9.026613598697843">
				<ele>187.34439973181873</ele>
				<time>2019-07-26T10:39:44Z</time>
			</trkpt>
			<trkpt lat="59.699864024352" lon="9.026783080779971">
				<ele>187.37689687299576</ele>
				<time>2019-07-26T10:39:50Z</time>
			</trkpt>
			<trkpt lat="59.699944239165355" lon="9.026890285321535">
				<ele>186.7765654897001</ele>
				<time>2019-07-26T10:39:57Z</time>
			</trkpt>
			<trkpt lat="59.70001665880876" lon="9.02700327337629">
				<ele>187.22337500927534</ele>
				<time>2019-07-26T10:40:03Z</time>
			</trkpt>
			<trkpt lat="59.700089916642476" lon="9.027106538423363">
				<ele>187.8170893081146</ele>
				<time>2019-07-26T10:40:10Z</time>
			</trkpt>
			<trkpt lat="59.70015571458237" lon="9.027236457922521">
				<ele>187.91224378788115</ele>
				<time>2019-07-26T10:40:17Z</time>
			</trkpt>
			<trkpt lat="59.70020734710591" lon="9.027385236703816">
				<ele>188.1413468299358</ele>
				<time>2019-07-26T10:40:25Z</time>
			</trkpt>
			<trkpt lat="59.700256465058494" lon="9.027547426530186">
				<ele>188.41984182706273</ele>
				<time>2019-07-26T10:40:34Z</time>
			</trkpt>
			<trkpt lat="59.70032104762243" lon="9.027688913055721">
				<ele>188.59340629637177</ele>
				<time>2019-07-26T10:40:40Z</time>
			</trkpt>
			<trkpt lat="59.70036752527552" lon="9.027847414844695">
				<ele>188.0904292318644</ele>
				<time>2019-07-26T10:40:46Z</time>
			</trkpt>
			<trkpt lat="59.70041739759939" lon="9.028018070393268">
				<ele>188.34952628589883</ele>
				<time>2019-07-26T10:40:53Z</time>
			</trkpt>
			<trkpt lat="59.70047137705581" lon="9.028162742042008">
				<ele>188.38843005818484</ele>
				<time>2019-07-26T10:41:00Z</time>
			</trkpt>
			<trkpt lat="59.70050892798202" lon="9.028348401197258">
				<ele>188.56065343063307</ele>
				<time>2019-07-26T10:41:08Z</time>
			</trkpt>
			<trkpt lat="59.70053968956666" lon="9.028531042867366">
				<ele>188.41283504989838</ele>
				<time>2019-07-26T10:41:15Z</time>
			</trkpt>
			<trkpt lat="59.70056730793761" lon="9.028721982621613">
				<ele>188.24685689565877</ele>
				<time>2019-07-26T10:41:23Z</time>
			</trkpt>
			<trkpt lat="59.70059911726015" lon="9.028906635948484">
				<ele>188.4794192508636</ele>
				<time>2019-07-26T10:41:32Z</time>
			</trkpt>
			<trkpt lat="59.70064442144679" lon="9.029071172707742">
				<ele>189.31730363088974</ele>
				<time>2019-07-26T10:41:40Z</time>
			</trkpt>
			<trkpt lat="59.70070058019804" lon="9.029214000337785">
				<ele>189.81462315677732</ele>
				<time>2019-07-26T10:42:00Z</time>
			</trkpt>
			<trkpt lat="59.70078456686782" lon="9.029286671438282">
				<ele>190.17309722077397</ele>
				<time>2019-07-26T10:42:06Z</time>
			</trkpt>
			<trkpt lat="59.70087538478868" lon="9.029348278426593">
				<ele>190.39613057304467</ele>
				<time>2019-07-26T10:42:14Z</time>
			</trkpt>
			<trkpt lat="59.700969932656456" lon="9.029406867929762">
				<ele>190.38014924992422</ele>
				<time>2019-07-26T10:42:32Z</time>
			</trkpt>
			<trkpt lat="59.7010628041436" lon="9.029463613414233">
				<ele>190.33439744737956</ele>
				<time>2019-07-26T10:42:39Z</time>
			</trkpt>
			<trkpt lat="59.701154376435746" lon="9.029505774387186">
				<ele>190.61804761270247</ele>
				<time>2019-07-26T10:42:47Z</time>
			</trkpt>
			<trkpt lat="59.70125114550786" lon="9.029531171553796">
				<ele>193.34452226519954</ele>
				<time>2019-07-26T10:42:58Z</time>
			</trkpt>
			<trkpt lat="59.701344477999676" lon="9.029489681133096">
				<ele>194.89844124757116</ele>
				<time>2019-07-26T10:43:05Z</time>
			</trkpt>
			<trkpt lat="59.701442420538235" lon="9.029500829064315">
				<ele>195.68154808557415</ele>
				<time>2019-07-26T10:43:14Z</time>
			</trkpt>
			<trkpt lat="59.70152414409416" lon="9.0295827202583">
				<ele>196.24577211348486</ele>
				<time>2019-07-26T10:43:20Z</time>
			</trkpt>
			<trkpt lat="59.70158420043038" lon="9.029719680556124">
				<ele>198.32643646802273</ele>
				<time>2019-07-26T10:43:28Z</time>
			</trkpt>
			<trkpt lat="59.701640736367274" lon="9.029859825977152">
				<ele>199.49379389696242</ele>
				<time>2019-07-26T10:43:36Z</time>
			</trkpt>
			<trkpt lat="59.70168428035425" lon="9.030027966954773">
				<ele>199.31996763638267</ele>
				<time>2019-07-26T10:43:44Z</time>
			</trkpt>
			<trkpt lat="59.70173792453455" lon="9.03018269688732">
				<ele>198.8357012343733</ele>
				<time>2019-07-26T10:43:50Z</time>
			</trkpt>
			<trkpt lat="59.70177526591318" lon="9.030344551437562">
				<ele>199.24062681788206</ele>
				<time>2019-07-26T10:43:55Z</time>
			</trkpt>
			<trkpt lat="59.701878991964925" lon="9.030439518400495">
				<ele>199.62171591997327</ele>
				<time>2019-07-26T10:44:01Z</time>
			</trkpt>
			<trkpt lat="59.70197077380465" lon="9.030443038799827">
				<ele>199.8706277547834</ele>
				<time>2019-07-26T10:44:04Z</time>
			</trkpt>
			<trkpt lat="59.702071943375934" lon="9.030420826756423">
				<ele>199.86594342773554</ele>
				<time>2019-07-26T10:44:08Z</time>
			</trkpt>
			<trkpt lat="59.702171688023675" lon="9.030378330507343">
				<ele>199.78427713663024</ele>
				<time>2019-07-26T10:44:12Z</time>
			</trkpt>
			<trkpt lat="59.70226493669646" lon="9.030312364929383">
				<ele>200.61214640814808</ele>
				<time>2019-07-26T10:44:17Z</time>
			</trkpt>
			<trkpt lat="59.70235575461732" lon="9.030298786246245">
				<ele>201.75341985938837</ele>
				<time>2019-07-26T10:44:24Z</time>
			</trkpt>
			<trkpt lat="59.70245520589845" lon="9.030282944449251">
				<ele>202.65863258821332</ele>
				<time>2019-07-26T10:44:33Z</time>
			</trkpt>
			<trkpt lat="59.70254669437157" lon="9.030228964992826">
				<ele>206.73607104569595</ele>
				<time>2019-07-26T10:44:41Z</time>
			</trkpt>
			<trkpt lat="59.7026347881739" lon="9.030178757392829">
				<ele>208.77866922099975</ele>
				<time>2019-07-26T10:44:48Z</time>
			</trkpt>
			<trkpt lat="59.702735622469056" lon="9.030172638603513">
				<ele>210.91613714783512</ele>
				<time>2019-07-26T10:44:56Z</time>
			</trkpt>
			<trkpt lat="59.70282853586571" lon="9.030177667745416">
				<ele>211.7614794617848</ele>
				<time>2019-07-26T10:45:02Z</time>
			</trkpt>
			<trkpt lat="59.70292086252915" lon="9.030157634996836">
				<ele>213.28961835837708</ele>
				<time>2019-07-26T10:45:09Z</time>
			</trkpt>
			<trkpt lat="59.70301226718323" lon="9.03013240546829">
				<ele>214.714877313722</ele>
				<time>2019-07-26T10:45:15Z</time>
			</trkpt>
			<trkpt lat="59.70310991635518" lon="9.030136261143749">
				<ele>214.8177049261746</ele>
				<time>2019-07-26T10:45:19Z</time>
			</trkpt>
			<trkpt lat="59.703217037077714" lon="9.030172387146418">
				<ele>214.75836413580686</ele>
				<time>2019-07-26T10:45:25Z</time>
			</trkpt>
			<trkpt lat="59.703317997101415" lon="9.030139110990827">
				<ele>214.6038964865652</ele>
				<time>2019-07-26T10:45:30Z</time>
			</trkpt>
			<trkpt lat="59.7034078091939" lon="9.030112959452932">
				<ele>216.38554016812566</ele>
				<time>2019-07-26T10:45:36Z</time>
			</trkpt>
			<trkpt lat="59.70349669927703" lon="9.030075576164787">
				<ele>217.3549776365378</ele>
				<time>2019-07-26T10:45:42Z</time>
			</trkpt>
			<trkpt lat="59.70355310948538" lon="9.029920259499018">
				<ele>219.079544565736</ele>
				<time>2019-07-26T10:46:28Z</time>
			</trkpt>
			<trkpt lat="59.70356350304531" lon="9.029732421048944">
				<ele>218.45835687497475</ele>
				<time>2019-07-26T10:46:37Z</time>
			</trkpt>
			<trkpt lat="59.70356459269272" lon="9.029544750236933">
				<ele>217.462510551889</ele>
				<time>2019-07-26T10:46:44Z</time>
			</trkpt>
			<trkpt lat="59.70353110698955" lon="9.029372166850631">
				<ele>217.5822388666931</ele>
				<time>2019-07-26T10:47:22Z</time>
			</trkpt>
			<trkpt lat="59.7034551250373" lon="9.029268901803558">
				<ele>218.61571712626971</ele>
				<time>2019-07-26T10:47:32Z</time>
			</trkpt>
			<trkpt lat="59.70336703123497" lon="9.029196398341124">
				<ele>218.81881519145884</ele>
				<time>2019-07-26T10:47:46Z</time>
			</trkpt>
			<trkpt lat="59.703285936321784" lon="9.029101347559159">
				<ele>219.51157819867734</ele>
				<time>2019-07-26T10:47:55Z</time>
			</trkpt>
			<trkpt lat="59.703212678488065" lon="9.028998585426276">
				<ele>222.19768791923383</ele>
				<time>2019-07-26T10:48:07Z</time>
			</trkpt>
			<trkpt lat="59.703121022376884" lon="9.028954412796562">
				<ele>224.24367569343275</ele>
				<time>2019-07-26T10:48:17Z</time>
			</trkpt>
			<trkpt lat="59.703038083445" lon="9.02884829790241">
				<ele>226.7017423117059</ele>
				<time>2019-07-26T10:48:26Z</time>
			</trkpt>
			<trkpt lat="59.702940308544505" lon="9.028817871593898">
				<ele>228.67536565032896</ele>
				<time>2019-07-26T10:48:35Z</time>
			</trkpt>
			<trkpt lat="59.70284274319159" lon="9.028773698964182">
				<ele>230.21990188083998</ele>
				<time>2019-07-26T10:48:44Z</time>
			</trkpt>
			<trkpt lat="59.70275305682765" lon="9.02871544473714">
				<ele>230.4834913043594</ele>
				<time>2019-07-26T10:48:51Z</time>
			</trkpt>
			<trkpt lat="59.70265951478826" lon="9.028686862447325">
				<ele>232.84508968418857</ele>
				<time>2019-07-26T10:49:01Z</time>
			</trkpt>
			<trkpt lat="59.702568906414974" lon="9.0287037100727">
				<ele>233.32447017273415</ele>
				<time>2019-07-26T10:49:15Z</time>
			</trkpt>
			<trkpt lat="59.70263520726906" lon="9.028580915191236">
				<ele>236.28260160481557</ele>
				<time>2019-07-26T10:50:08Z</time>
			</trkpt>
			<trkpt lat="59.70272183423834" lon="9.028529450305763">
				<ele>237.6733592116119</ele>
				<time>2019-07-26T10:50:18Z</time>
			</trkpt>
			<trkpt lat="59.70268256502198" lon="9.028362315156523">
				<ele>241.07417895142163</ele>
				<time>2019-07-26T10:50:39Z</time>
			</trkpt>
			<trkpt lat="59.70261911401497" lon="9.028218481698099">
				<ele>243.97113129502094</ele>
				<time>2019-07-26T10:50:51Z</time>
			</trkpt>
			<trkpt lat="59.702553316075075" lon="9.028076743715468">
				<ele>244.35956081001308</ele>
				<time>2019-07-26T10:50:59Z</time>
			</trkpt>
			<trkpt lat="59.70248039351748" lon="9.027954032653037">
				<ele>245.69931197121986</ele>
				<time>2019-07-26T10:51:08Z</time>
			</trkpt>
			<trkpt lat="59.70238877931582" lon="9.02796392329878">
				<ele>246.96174325958077</ele>
				<time>2019-07-26T10:51:19Z</time>
			</trkpt>
			<trkpt lat="59.70229297416257" lon="9.02794489637858">
				<ele>247.6742866411616</ele>
				<time>2019-07-26T10:51:31Z</time>
			</trkpt>
			<trkpt lat="59.70220039604204" lon="9.02791019529945">
				<ele>247.77127259274368</ele>
				<time>2019-07-26T10:51:44Z</time>
			</trkpt>
			<trkpt lat="59.70210345933186" lon="9.027932323523823">
				<ele>247.6265934881318</ele>
				<time>2019-07-26T10:51:59Z</time>
			</trkpt>
			<trkpt lat="59.70200807327377" lon="9.027967778974238">
				<ele>248.00083851582133</ele>
				<time>2019-07-26T10:52:07Z</time>
			</trkpt>
			<trkpt lat="59.701915704700816" lon="9.027950009339515">
				<ele>250.09455835791834</ele>
				<time>2019-07-26T10:52:16Z</time>
			</trkpt>
			<trkpt lat="59.701817175429035" lon="9.02790877037591">
				<ele>249.53777483627232</ele>
				<time>2019-07-26T10:52:25Z</time>
			</trkpt>
			<trkpt lat="59.70172950072186" lon="9.027853701272074">
				<ele>248.88742550888185</ele>
				<time>2019-07-26T10:52:36Z</time>
			</trkpt>
			<trkpt lat="59.701644382495154" lon="9.027750603863064">
				<ele>246.252677980619</ele>
				<time>2019-07-26T10:52:56Z</time>
			</trkpt>
			<trkpt lat="59.70158156013088" lon="9.027620684363905">
				<ele>245.34850766439763</ele>
				<time>2019-07-26T10:53:06Z</time>
			</trkpt>
			<trkpt lat="59.70148902391987" lon="9.027669383221332">
				<ele>240.70606712785604</ele>
				<time>2019-07-26T10:53:20Z</time>
			</trkpt>
			<trkpt lat="59.701401139665116" lon="9.027728140362564">
				<ele>236.46035095426697</ele>
				<time>2019-07-26T10:53:35Z</time>
			</trkpt>
			<trkpt lat="59.70136526511954" lon="9.027896868073407">
				<ele>232.29173697958527</ele>
				<time>2019-07-26T10:53:58Z</time>
			</trkpt>
			<trkpt lat="59.70127809332656" lon="9.027944477283421">
				<ele>228.19787214249538</ele>
				<time>2019-07-26T10:54:11Z</time>
			</trkpt>
			<trkpt lat="59.70119695650386" lon="9.028027541943851">
				<ele>220.4908431492771</ele>
				<time>2019-07-26T10:54:38Z</time>
			</trkpt>
			<trkpt lat="59.701100061703194" lon="9.02805729770011">
				<ele>215.80373882157784</ele>
				<time>2019-07-26T10:54:58Z</time>
			</trkpt>
			<trkpt lat="59.701005262378324" lon="9.028119072326485">
				<ele>212.110648034659</ele>
				<time>2019-07-26T10:55:12Z</time>
			</trkpt>
			<trkpt lat="59.700912977624405" lon="9.028115132831994">
				<ele>208.8214380319647</ele>
				<time>2019-07-26T10:55:22Z</time>
			</trkpt>
			<trkpt lat="59.70082174060838" lon="9.02803726495153">
				<ele>204.50824472400677</ele>
				<time>2019-07-26T10:55:35Z</time>
			</trkpt>
			<trkpt lat="59.70073435926782" lon="9.02810323052949">
				<ele>200.73677421274533</ele>
				<time>2019-07-26T10:55:50Z</time>
			</trkpt>
			<trkpt lat="59.700640314314235" lon="9.028155868881408">
				<ele>195.4531933628616</ele>
				<time>2019-07-26T10:56:07Z</time>
			</trkpt>
			<trkpt lat="59.70055196905481" lon="9.028197946035329">
				<ele>191.3693334814099</ele>
				<time>2019-07-26T10:56:21Z</time>
			</trkpt>
			<trkpt lat="59.70064278697567" lon="9.028183277704779">
				<ele>193.43209832364744</ele>
				<time>2019-07-26T10:57:49Z</time>
			</trkpt>
			<trkpt lat="59.70073821494328" lon="9.02813591995186">
				<ele>198.17790534932516</ele>
				<time>2019-07-26T10:58:08Z</time>
			</trkpt>
			<trkpt lat="59.70080032484578" lon="9.028000719853702">
				<ele>201.5066013577259</ele>
				<time>2019-07-26T10:58:21Z</time>
			</trkpt>
			<trkpt lat="59.700889005381335" lon="9.028053609662715">
				<ele>204.06122778776597</ele>
				<time>2019-07-26T10:58:32Z</time>
			</trkpt>
			<trkpt lat="59.700981373954285" lon="9.028073810049358">
				<ele>207.5826656057239</ele>
				<time>2019-07-26T10:58:48Z</time>
			</trkpt>
			<trkpt lat="59.70107093458967" lon="9.027994684883419">
				<ele>212.9599795657412</ele>
				<time>2019-07-26T10:59:08Z</time>
			</trkpt>
			<trkpt lat="59.70117587601738" lon="9.027942717083755">
				<ele>217.2631428149267</ele>
				<time>2019-07-26T10:59:30Z</time>
			</trkpt>
			<trkpt lat="59.70126564620035" lon="9.027929473676744">
				<ele>221.39331954565841</ele>
				<time>2019-07-26T10:59:47Z</time>
			</trkpt>
			<trkpt lat="59.70135939778732" lon="9.027921343230668">
				<ele>226.12909627491314</ele>
				<time>2019-07-26T11:00:09Z</time>
			</trkpt>
			<trkpt lat="59.701406797449756" lon="9.027762757622662">
				<ele>233.4220204052632</ele>
				<time>2019-07-26T11:00:44Z</time>
			</trkpt>
			<trkpt lat="59.701466099414695" lon="9.027618085973922">
				<ele>238.2505124849675</ele>
				<time>2019-07-26T11:01:00Z</time>
			</trkpt>
			<trkpt lat="59.70155691733556" lon="9.027593694635693">
				<ele>242.9949327547124</ele>
				<time>2019-07-26T11:01:24Z</time>
			</trkpt>
			<trkpt lat="59.701621416080464" lon="9.027451118462745">
				<ele>247.40311945158908</ele>
				<time>2019-07-26T11:02:07Z</time>
			</trkpt>
			<trkpt lat="59.70166252931552" lon="9.02729010210282">
				<ele>248.66293172428072</ele>
				<time>2019-07-26T11:02:17Z</time>
			</trkpt>
			<trkpt lat="59.70167761674123" lon="9.02710201219565">
				<ele>250.69384925774716</ele>
				<time>2019-07-26T11:02:30Z</time>
			</trkpt>
			<trkpt lat="59.70164019154357" lon="9.02694024146444">
				<ele>253.0308461285773</ele>
				<time>2019-07-26T11:02:48Z</time>
			</trkpt>
			<trkpt lat="59.70159203750985" lon="9.026783835151257">
				<ele>255.73958056014988</ele>
				<time>2019-07-26T11:03:02Z</time>
			</trkpt>
			<trkpt lat="59.70158005138831" lon="9.026606976994337">
				<ele>260.4498279014206</ele>
				<time>2019-07-26T11:03:22Z</time>
			</trkpt>
			<trkpt lat="59.70159526454257" lon="9.026429615923227">
				<ele>264.52109898917996</ele>
				<time>2019-07-26T11:03:35Z</time>
			</trkpt>
			<trkpt lat="59.701612908448745" lon="9.026245800786675">
				<ele>267.3003115680813</ele>
				<time>2019-07-26T11:03:54Z</time>
			</trkpt>
			<trkpt lat="59.70165180047946" lon="9.026080761113228">
				<ele>272.73136265845864</ele>
				<time>2019-07-26T11:04:12Z</time>
			</trkpt>
			<trkpt lat="59.70161797950016" lon="9.025908010088862">
				<ele>277.0668750044941</ele>
				<time>2019-07-26T11:04:32Z</time>
			</trkpt>
			<trkpt lat="59.701642454657424" lon="9.025731068112911">
				<ele>279.3645549413559</ele>
				<time>2019-07-26T11:05:04Z</time>
			</trkpt>
			<trkpt lat="59.701704983655084" lon="9.025594107815088">
				<ele>280.8047180641318</ele>
				<time>2019-07-26T11:05:17Z</time>
			</trkpt>
			<trkpt lat="59.701771955061425" lon="9.025470390924276">
				<ele>284.4240897914344</ele>
				<time>2019-07-26T11:05:34Z</time>
			</trkpt>
			<trkpt lat="59.701847015004326" lon="9.025366622963013">
				<ele>288.50381625113727</ele>
				<time>2019-07-26T11:05:48Z</time>
			</trkpt>
			<trkpt lat="59.70187610020833" lon="9.02518372983581">
				<ele>289.78709032789766</ele>
				<time>2019-07-26T11:05:58Z</time>
			</trkpt>
			<trkpt lat="59.70195421954589" lon="9.02506839484817">
				<ele>291.6746160633108</ele>
				<time>2019-07-26T11:06:13Z</time>
			</trkpt>
			<trkpt lat="59.701955267283786" lon="9.024890782319963">
				<ele>290.50116767046245</ele>
				<time>2019-07-26T11:06:24Z</time>
			</trkpt>
			<trkpt lat="59.70201469497727" lon="9.024727754303276">
				<ele>288.8598052241606</ele>
				<time>2019-07-26T11:06:36Z</time>
			</trkpt>
			<trkpt lat="59.702103710788954" lon="9.024636307739675">
				<ele>288.5227138943591</ele>
				<time>2019-07-26T11:06:45Z</time>
			</trkpt>
			<trkpt lat="59.7021852247973" lon="9.024523487322986">
				<ele>288.1081527820073</ele>
				<time>2019-07-26T11:06:55Z</time>
			</trkpt>
			<trkpt lat="59.702172190937866" lon="9.024338414900958">
				<ele>289.76552290875946</ele>
				<time>2019-07-26T11:07:05Z</time>
			</trkpt>
			<trkpt lat="59.70212076796191" lon="9.024185780444204">
				<ele>291.09519533063354</ele>
				<time>2019-07-26T11:07:14Z</time>
			</trkpt>
			<trkpt lat="59.7021151939963" lon="9.023996181794464">
				<ele>291.414754867487</ele>
				<time>2019-07-26T11:07:24Z</time>
			</trkpt>
			<trkpt lat="59.70205882569747" lon="9.023852432155072">
				<ele>295.0913374088668</ele>
				<time>2019-07-26T11:07:36Z</time>
			</trkpt>
			<trkpt lat="59.702097130994964" lon="9.023687476300656">
				<ele>297.81798374827133</ele>
				<time>2019-07-26T11:07:49Z</time>
			</trkpt>
			<trkpt lat="59.70216628169613" lon="9.023573566236555">
				<ele>299.2076818201054</ele>
				<time>2019-07-26T11:08:00Z</time>
			</trkpt>
			<trkpt lat="59.7022135137205" lon="9.023388074719369">
				<ele>301.7643238608233</ele>
				<time>2019-07-26T11:08:27Z</time>
			</trkpt>
			<trkpt lat="59.70211997168111" lon="9.023371897646248">
				<ele>301.7671980690208</ele>
				<time>2019-07-26T11:08:37Z</time>
			</trkpt>
			<trkpt lat="59.70202207105206" lon="9.023362845190823">
				<ele>302.57628183905615</ele>
				<time>2019-07-26T11:08:49Z</time>
			</trkpt>
			<trkpt lat="59.70192915765541" lon="9.023327305921375">
				<ele>301.763955421467</ele>
				<time>2019-07-26T11:08:59Z</time>
			</trkpt>
			<trkpt lat="59.70184127340065" lon="9.02326938697046">
				<ele>303.7805947643401</ele>
				<time>2019-07-26T11:09:10Z</time>
			</trkpt>
			<trkpt lat="59.70174576161401" lon="9.023212641485989">
				<ele>303.0801902424811</ele>
				<time>2019-07-26T11:09:17Z</time>
			</trkpt>
			<trkpt lat="59.70166579825776" lon="9.023125972607195">
				<ele>303.08942155548266</ele>
				<time>2019-07-26T11:09:27Z</time>
			</trkpt>
			<trkpt lat="59.70157326204674" lon="9.02310426347798">
				<ele>303.6756285855119</ele>
				<time>2019-07-26T11:09:36Z</time>
			</trkpt>
			<trkpt lat="59.70149367587613" lon="9.02301876806563">
				<ele>303.6869789592318</ele>
				<time>2019-07-26T11:09:44Z</time>
			</trkpt>
			<trkpt lat="59.701439403053094" lon="9.022870492198525">
				<ele>305.3653929333956</ele>
				<time>2019-07-26T11:10:37Z</time>
			</trkpt>
			<trkpt lat="59.70147791789817" lon="9.022687934347449">
				<ele>306.59572930844513</ele>
				<time>2019-07-26T11:11:36Z</time>
			</trkpt>
			<trkpt lat="59.70157145993756" lon="9.02269581333643">
				<ele>307.3072711271899</ele>
				<time>2019-07-26T11:11:57Z</time>
			</trkpt>
			<trkpt lat="59.70163055235492" lon="9.022554494448958">
				<ele>306.6609332204745</ele>
				<time>2019-07-26T11:12:05Z</time>
			</trkpt>
			<trkpt lat="59.70168926758664" lon="9.022414516665993">
				<ele>308.98749496686264</ele>
				<time>2019-07-26T11:12:16Z</time>
			</trkpt>
			<trkpt lat="59.70176671637194" lon="9.02232248336917">
				<ele>310.78689826176503</ele>
				<time>2019-07-26T11:12:29Z</time>
			</trkpt>
			<trkpt lat="59.70179123343872" lon="9.022134225823937">
				<ele>311.8844134767912</ele>
				<time>2019-07-26T11:12:36Z</time>
			</trkpt>
			<trkpt lat="59.70187568111317" lon="9.022050406792221">
				<ele>312.8326480132897</ele>
				<time>2019-07-26T11:12:45Z</time>
			</trkpt>
			<trkpt lat="59.70196775631951" lon="9.022032553338466">
				<ele>313.4389410877893</ele>
				<time>2019-07-26T11:12:54Z</time>
			</trkpt>
			<trkpt lat="59.70206058589714" lon="9.022079827272353">
				<ele>315.66229566639015</ele>
				<time>2019-07-26T11:13:04Z</time>
			</trkpt>
			<trkpt lat="59.70215446321266" lon="9.022020315759836">
				<ele>317.4254430792736</ele>
				<time>2019-07-26T11:13:16Z</time>
			</trkpt>
			<trkpt lat="59.70225408213185" lon="9.022015286617933">
				<ele>317.3672829376783</ele>
				<time>2019-07-26T11:13:47Z</time>
			</trkpt>
			<trkpt lat="59.7023432655816" lon="9.021991398193894">
				<ele>317.3214368204571</ele>
				<time>2019-07-26T11:13:56Z</time>
			</trkpt>
			<trkpt lat="59.70243395777391" lon="9.021997349345146">
				<ele>317.8336362798979</ele>
				<time>2019-07-26T11:14:55Z</time>
			</trkpt>
			<trkpt lat="59.702525907251704" lon="9.021988967441974">
				<ele>316.84677646850554</ele>
				<time>2019-07-26T11:15:07Z</time>
			</trkpt>
			<trkpt lat="59.702616347986925" lon="9.0220342297191">
				<ele>316.1462520992352</ele>
				<time>2019-07-26T11:15:15Z</time>
			</trkpt>
			<trkpt lat="59.70271311705904" lon="9.022089801737128">
				<ele>314.32386819376103</ele>
				<time>2019-07-26T11:15:26Z</time>
			</trkpt>
			<trkpt lat="59.70280439598458" lon="9.022082006567178">
				<ele>312.6497448584966</ele>
				<time>2019-07-26T11:15:40Z</time>
			</trkpt>
			<trkpt lat="59.70289496244835" lon="9.02210899629539">
				<ele>313.1172452521765</ele>
				<time>2019-07-26T11:15:49Z</time>
			</trkpt>
			<trkpt lat="59.702990097049344" lon="9.022107739009915">
				<ele>312.6635681768063</ele>
				<time>2019-07-26T11:16:01Z</time>
			</trkpt>
			<trkpt lat="59.70290129078524" lon="9.02214269154614">
				<ele>313.4989339301878</ele>
				<time>2019-07-26T11:16:51Z</time>
			</trkpt>
			<trkpt lat="59.70280527608441" lon="9.022114444532452">
				<ele>312.3986801207516</ele>
				<time>2019-07-26T11:17:01Z</time>
			</trkpt>
			<trkpt lat="59.70289571681963" lon="9.022145457574187">
				<ele>313.80217369089155</ele>
				<time>2019-07-26T11:18:20Z</time>
			</trkpt>
			<trkpt lat="59.70298334961729" lon="9.022201029592214">
				<ele>312.23062898690375</ele>
				<time>2019-07-26T11:18:52Z</time>
			</trkpt>
			<trkpt lat="59.70289655500995" lon="9.022150654354153">
				<ele>314.213891778481</ele>
				<time>2019-07-26T11:19:37Z</time>
			</trkpt>
			<trkpt lat="59.702927274685074" lon="9.022326674320755">
				<ele>309.79437353085626</ele>
				<time>2019-07-26T11:20:10Z</time>
			</trkpt>
			<trkpt lat="59.70300229271846" lon="9.022431531929431">
				<ele>307.7019765319557</ele>
				<time>2019-07-26T11:20:21Z</time>
			</trkpt>
			<trkpt lat="59.703093906920124" lon="9.022469501950798">
				<ele>304.74333533045046</ele>
				<time>2019-07-26T11:20:35Z</time>
			</trkpt>
			<trkpt lat="59.703185563031305" lon="9.022399513059316">
				<ele>303.7637044688322</ele>
				<time>2019-07-26T11:20:44Z</time>
			</trkpt>
			<trkpt lat="59.70326829241561" lon="9.022312844180522">
				<ele>301.4121752650323</ele>
				<time>2019-07-26T11:20:58Z</time>
			</trkpt>
			<trkpt lat="59.703317494187225" lon="9.022162472837625">
				<ele>297.46667451253654</ele>
				<time>2019-07-26T11:21:12Z</time>
			</trkpt>
			<trkpt lat="59.703373443390895" lon="9.02200296522027">
				<ele>294.5733295400061</ele>
				<time>2019-07-26T11:21:22Z</time>
			</trkpt>
			<trkpt lat="59.70344531821059" lon="9.021877320491729">
				<ele>292.22469458849855</ele>
				<time>2019-07-26T11:21:33Z</time>
			</trkpt>
			<trkpt lat="59.70347934873747" lon="9.02171269991344">
				<ele>292.58539809579884</ele>
				<time>2019-07-26T11:21:47Z</time>
			</trkpt>
			<trkpt lat="59.70345977699356" lon="9.021532991909442">
				<ele>295.16703154594495</ele>
				<time>2019-07-26T11:21:58Z</time>
			</trkpt>
			<trkpt lat="59.70351593574481" lon="9.021389996641336">
				<ele>296.2121018333204</ele>
				<time>2019-07-26T11:22:10Z</time>
			</trkpt>
			<trkpt lat="59.70347469678121" lon="9.021558891990242">
				<ele>297.0403135465573</ele>
				<time>2019-07-26T11:22:43Z</time>
			</trkpt>
			<trkpt lat="59.70345885498421" lon="9.021740779289065">
				<ele>295.7972618875135</ele>
				<time>2019-07-26T11:22:53Z</time>
			</trkpt>
			<trkpt lat="59.70352184498655" lon="9.02187589556819">
				<ele>293.08756298306196</ele>
				<time>2019-07-26T11:23:08Z</time>
			</trkpt>
			<trkpt lat="59.7036131658216" lon="9.021899448716102">
				<ele>290.4515832539096</ele>
				<time>2019-07-26T11:23:17Z</time>
			</trkpt>
			<trkpt lat="59.703702852185536" lon="9.021906824790893">
				<ele>287.8069818526908</ele>
				<time>2019-07-26T11:23:25Z</time>
			</trkpt>
			<trkpt lat="59.70379882497685" lon="9.021867346026955">
				<ele>287.89398139003646</ele>
				<time>2019-07-26T11:23:34Z</time>
			</trkpt>
			<trkpt lat="59.703892367016245" lon="9.021827615805922">
				<ele>287.4252655494511</ele>
				<time>2019-07-26T11:23:42Z</time>
			</trkpt>
			<trkpt lat="59.703980586547125" lon="9.021746646621285">
				<ele>287.6633723881239</ele>
				<time>2019-07-26T11:23:49Z</time>
			</trkpt>
			<trkpt lat="59.7040732903962" lon="9.021723009654341">
				<ele>287.75506262580586</ele>
				<time>2019-07-26T11:24:00Z</time>
			</trkpt>
			<trkpt lat="59.70415669033276" lon="9.021645141773877">
				<ele>287.38476356288777</ele>
				<time>2019-07-26T11:24:09Z</time>
			</trkpt>
			<trkpt lat="59.7042522021194" lon="9.021625109025297">
				<ele>285.5228918237525</ele>
				<time>2019-07-26T11:24:18Z</time>
			</trkpt>
			<trkpt lat="59.70434591179686" lon="9.021605243914781">
				<ele>284.45043315662326</ele>
				<time>2019-07-26T11:24:27Z</time>
			</trkpt>
			<trkpt lat="59.70443538861321" lon="9.02163499967104">
				<ele>283.3723980053197</ele>
				<time>2019-07-26T11:24:34Z</time>
			</trkpt>
			<trkpt lat="59.70453626481788" lon="9.02163156309074">
				<ele>282.1894947241466</ele>
				<time>2019-07-26T11:24:42Z</time>
			</trkpt>
			<trkpt lat="59.70463227951871" lon="9.021598203116117">
				<ele>281.55908971497786</ele>
				<time>2019-07-26T11:24:49Z</time>
			</trkpt>
			<trkpt lat="59.704734035823215" lon="9.021593760707436">
				<ele>281.39859483608336</ele>
				<time>2019-07-26T11:24:56Z</time>
			</trkpt>
			<trkpt lat="59.70482577575343" lon="9.021543217831312">
				<ele>280.0234183303737</ele>
				<time>2019-07-26T11:25:03Z</time>
			</trkpt>
			<trkpt lat="59.704922838192154" lon="9.021557215609608">
				<ele>278.36237757629385</ele>
				<time>2019-07-26T11:25:09Z</time>
			</trkpt>
			<trkpt lat="59.70500602858113" lon="9.021631814547835">
				<ele>278.13270457102215</ele>
				<time>2019-07-26T11:25:16Z</time>
			</trkpt>
			<trkpt lat="59.70510359393405" lon="9.021652853124795">
				<ele>275.7578505265668</ele>
				<time>2019-07-26T11:25:25Z</time>
			</trkpt>
			<trkpt lat="59.70519797416376" lon="9.02166970075017">
				<ele>273.8917347316403</ele>
				<time>2019-07-26T11:25:35Z</time>
			</trkpt>
			<trkpt lat="59.70528577459948" lon="9.021749496468363">
				<ele>271.24015983990955</ele>
				<time>2019-07-26T11:25:46Z</time>
			</trkpt>
			<trkpt lat="59.705377011615504" lon="9.021733570852337">
				<ele>269.4833524355096</ele>
				<time>2019-07-26T11:25:54Z</time>
			</trkpt>
			<trkpt lat="59.70546141738044" lon="9.021812193104086">
				<ele>268.02039568165935</ele>
				<time>2019-07-26T11:26:02Z</time>
			</trkpt>
			<trkpt lat="59.7055638442372" lon="9.021808756523786">
				<ele>266.5990115373128</ele>
				<time>2019-07-26T11:26:11Z</time>
			</trkpt>
			<trkpt lat="59.70565558416741" lon="9.021743880593238">
				<ele>265.8640304152847</ele>
				<time>2019-07-26T11:26:19Z</time>
			</trkpt>
			<trkpt lat="59.70573822973268" lon="9.021662492313443">
				<ele>266.23208549311437</ele>
				<time>2019-07-26T11:26:26Z</time>
			</trkpt>
			<trkpt lat="59.705785838942695" lon="9.021503906705437">
				<ele>265.924646317779</ele>
				<time>2019-07-26T11:26:33Z</time>
			</trkpt>
			<trkpt lat="59.70578671904253" lon="9.02131841518825">
				<ele>265.44907532874936</ele>
				<time>2019-07-26T11:26:40Z</time>
			</trkpt>
			<trkpt lat="59.70579233491765" lon="9.02111808770245">
				<ele>263.9704610326177</ele>
				<time>2019-07-26T11:26:50Z</time>
			</trkpt>
			<trkpt lat="59.70579082617508" lon="9.020923962824996">
				<ele>265.85902791231297</ele>
				<time>2019-07-26T11:27:01Z</time>
			</trkpt>
			<trkpt lat="59.705875692944694" lon="9.02083033696657">
				<ele>265.38149681689276</ele>
				<time>2019-07-26T11:27:10Z</time>
			</trkpt>
			<trkpt lat="59.70596894161748" lon="9.02078096755689">
				<ele>262.9941671114628</ele>
				<time>2019-07-26T11:27:18Z</time>
			</trkpt>
			<trkpt lat="59.70605519140111" lon="9.020705530428346">
				<ele>261.5990779158784</ele>
				<time>2019-07-26T11:27:25Z</time>
			</trkpt>
			<trkpt lat="59.70614894298809" lon="9.020663369455393">
				<ele>260.6853876536619</ele>
				<time>2019-07-26T11:27:32Z</time>
			</trkpt>
			<trkpt lat="59.706246801707614" lon="9.02065389790481">
				<ele>259.5359483554556</ele>
				<time>2019-07-26T11:27:39Z</time>
			</trkpt>
			<trkpt lat="59.70633778726655" lon="9.020679127433356">
				<ele>257.9588857947464</ele>
				<time>2019-07-26T11:27:47Z</time>
			</trkpt>
			<trkpt lat="59.70643153885352" lon="9.020651886248048">
				<ele>255.9276791609804</ele>
				<time>2019-07-26T11:27:56Z</time>
			</trkpt>
			<trkpt lat="59.70652746973532" lon="9.020683653661068">
				<ele>253.56067783509235</ele>
				<time>2019-07-26T11:28:06Z</time>
			</trkpt>
			<trkpt lat="59.70661652745652" lon="9.02076629922634">
				<ele>251.99847134304673</ele>
				<time>2019-07-26T11:28:13Z</time>
			</trkpt>
			<trkpt lat="59.70669695181745" lon="9.020855985590275">
				<ele>249.8982781450449</ele>
				<time>2019-07-26T11:28:24Z</time>
			</trkpt>
			<trkpt lat="59.70678730873364" lon="9.020880796023663">
				<ele>248.0023478977015</ele>
				<time>2019-07-26T11:28:32Z</time>
			</trkpt>
			<trkpt lat="59.70687913248288" lon="9.020903175705131">
				<ele>246.29127693511202</ele>
				<time>2019-07-26T11:28:39Z</time>
			</trkpt>
			<trkpt lat="59.70693709334331" lon="9.020758923151549">
				<ele>244.45448488083127</ele>
				<time>2019-07-26T11:28:47Z</time>
			</trkpt>
			<trkpt lat="59.706977955121275" lon="9.020573012539204">
				<ele>241.90439376446153</ele>
				<time>2019-07-26T11:28:57Z</time>
			</trkpt>
			<trkpt lat="59.70701550604748" lon="9.020406631761249">
				<ele>238.6161688794748</ele>
				<time>2019-07-26T11:29:08Z</time>
			</trkpt>
			<trkpt lat="59.70708042388755" lon="9.020278975375946">
				<ele>235.73408004189622</ele>
				<time>2019-07-26T11:29:19Z</time>
			</trkpt>
			<trkpt lat="59.70716365618604" lon="9.020158192151245">
				<ele>232.21681057002434</ele>
				<time>2019-07-26T11:29:29Z</time>
			</trkpt>
			<trkpt lat="59.70722911884981" lon="9.020029027023371">
				<ele>230.71670423661578</ele>
				<time>2019-07-26T11:29:38Z</time>
			</trkpt>
			<trkpt lat="59.707254348378356" lon="9.019850073390659">
				<ele>230.02658897956763</ele>
				<time>2019-07-26T11:30:09Z</time>
			</trkpt>
			<trkpt lat="59.707182934563335" lon="9.019715376206692">
				<ele>229.4228748931518</ele>
				<time>2019-07-26T11:30:17Z</time>
			</trkpt>
			<trkpt lat="59.70709790015566" lon="9.0196009632284">
				<ele>230.26412896784518</ele>
				<time>2019-07-26T11:30:24Z</time>
			</trkpt>
			<trkpt lat="59.70700582494932" lon="9.019500548028406">
				<ele>230.3855570502842</ele>
				<time>2019-07-26T11:30:31Z</time>
			</trkpt>
			<trkpt lat="59.706949624288555" lon="9.01934975759035">
				<ele>230.35116286705693</ele>
				<time>2019-07-26T11:30:36Z</time>
			</trkpt>
			<trkpt lat="59.70686458988088" lon="9.019225118690187">
				<ele>229.96657230507776</ele>
				<time>2019-07-26T11:30:41Z</time>
			</trkpt>
			<trkpt lat="59.70678919466185" lon="9.019109783702547">
				<ele>229.03721239904246</ele>
				<time>2019-07-26T11:30:45Z</time>
			</trkpt>
			<trkpt lat="59.70671011140543" lon="9.01902101934796">
				<ele>228.5812014177302</ele>
				<time>2019-07-26T11:30:49Z</time>
			</trkpt>
			<trkpt lat="59.70660156575936" lon="9.01898925193494">
				<ele>227.95761933967742</ele>
				<time>2019-07-26T11:30:53Z</time>
			</trkpt>
			<trkpt lat="59.70648706896203" lon="9.019015403472835">
				<ele>228.0457189406202</ele>
				<time>2019-07-26T11:30:57Z</time>
			</trkpt>
			<trkpt lat="59.706391431446846" lon="9.01899855584746">
				<ele>228.56490176946124</ele>
				<time>2019-07-26T11:31:01Z</time>
			</trkpt>
			<trkpt lat="59.706292483079906" lon="9.018977684908563">
				<ele>229.00176925207802</ele>
				<time>2019-07-26T11:31:06Z</time>
			</trkpt>
			<trkpt lat="59.706187709290255" lon="9.01890082285648">
				<ele>229.74073572999185</ele>
				<time>2019-07-26T11:31:11Z</time>
			</trkpt>
			<trkpt lat="59.70609265850829" lon="9.0188514534468">
				<ele>229.66341835214052</ele>
				<time>2019-07-26T11:31:15Z</time>
			</trkpt>
			<trkpt lat="59.705995679888595" lon="9.018813064330274">
				<ele>229.4551799316548</ele>
				<time>2019-07-26T11:31:19Z</time>
			</trkpt>
			<trkpt lat="59.70590406568693" lon="9.018861344092542">
				<ele>228.56909554686354</ele>
				<time>2019-07-26T11:31:23Z</time>
			</trkpt>
			<trkpt lat="59.70578994607525" lon="9.018874000766331">
				<ele>228.2069108127365</ele>
				<time>2019-07-26T11:31:27Z</time>
			</trkpt>
			<trkpt lat="59.70567528163986" lon="9.018876599156314">
				<ele>228.12103724117753</ele>
				<time>2019-07-26T11:31:31Z</time>
			</trkpt>
			<trkpt lat="59.70557583035873" lon="9.018877940260822">
				<ele>227.16074417150298</ele>
				<time>2019-07-26T11:31:35Z</time>
			</trkpt>
			<trkpt lat="59.70547616953002" lon="9.018873581671173">
				<ele>226.559849922196</ele>
				<time>2019-07-26T11:31:40Z</time>
			</trkpt>
			<trkpt lat="59.70536875544088" lon="9.018822535880858">
				<ele>226.56016727909537</ele>
				<time>2019-07-26T11:31:45Z</time>
			</trkpt>
			<trkpt lat="59.705283008571435" lon="9.018743326895887">
				<ele>226.00433142171005</ele>
				<time>2019-07-26T11:31:49Z</time>
			</trkpt>
			<trkpt lat="59.70517756422954" lon="9.018675936394388">
				<ele>225.96813948946476</ele>
				<time>2019-07-26T11:31:54Z</time>
			</trkpt>
			<trkpt lat="59.70507869968163" lon="9.018661100425774">
				<ele>225.80811453329227</ele>
				<time>2019-07-26T11:31:59Z</time>
			</trkpt>
			<trkpt lat="59.704991024974454" lon="9.01860762388354">
				<ele>224.98575147932831</ele>
				<time>2019-07-26T11:32:05Z</time>
			</trkpt>
			<trkpt lat="59.70488805329399" lon="9.018545262523944">
				<ele>224.03374426671974</ele>
				<time>2019-07-26T11:32:09Z</time>
			</trkpt>
			<trkpt lat="59.70478407578515" lon="9.018485331916267">
				<ele>223.29391049431638</ele>
				<time>2019-07-26T11:32:13Z</time>
			</trkpt>
			<trkpt lat="59.704692335854936" lon="9.018393298619443">
				<ele>223.2298952614516</ele>
				<time>2019-07-26T11:32:17Z</time>
			</trkpt>
			<trkpt lat="59.70460671471404" lon="9.018316017472202">
				<ele>222.08260744908569</ele>
				<time>2019-07-26T11:32:22Z</time>
			</trkpt>
			<trkpt lat="59.704500935096014" lon="9.018295649447495">
				<ele>221.43350826087448</ele>
				<time>2019-07-26T11:32:27Z</time>
			</trkpt>
			<trkpt lat="59.70440395647632" lon="9.01827930473631">
				<ele>221.04763731784658</ele>
				<time>2019-07-26T11:32:31Z</time>
			</trkpt>
			<trkpt lat="59.704317287597526" lon="9.018329847612435">
				<ele>220.10885925809646</ele>
				<time>2019-07-26T11:32:35Z</time>
			</trkpt>
			<trkpt lat="59.70423036726164" lon="9.018238484867865">
				<ele>218.77520783081627</ele>
				<time>2019-07-26T11:32:41Z</time>
			</trkpt>
			<trkpt lat="59.704138920698036" lon="9.018272012480551">
				<ele>217.33476393109459</ele>
				<time>2019-07-26T11:32:47Z</time>
			</trkpt>
			<trkpt lat="59.70404206780689" lon="9.018302271151">
				<ele>215.59269647524263</ele>
				<time>2019-07-26T11:32:55Z</time>
			</trkpt>
			<trkpt lat="59.70394429290639" lon="9.018264301129634">
				<ele>213.80504847262674</ele>
				<time>2019-07-26T11:33:02Z</time>
			</trkpt>
			<trkpt lat="59.70385205006199" lon="9.018206885092908">
				<ele>212.05167232427087</ele>
				<time>2019-07-26T11:33:09Z</time>
			</trkpt>
			<trkpt lat="59.7037529759665" lon="9.01821384207254">
				<ele>210.87598108756202</ele>
				<time>2019-07-26T11:33:16Z</time>
			</trkpt>
			<trkpt lat="59.70365817664163" lon="9.018187103801424">
				<ele>209.97351174008801</ele>
				<time>2019-07-26T11:33:22Z</time>
			</trkpt>
			<trkpt lat="59.70356434123563" lon="9.01814779267555">
				<ele>209.2582261854294</ele>
				<time>2019-07-26T11:33:28Z</time>
			</trkpt>
			<trkpt lat="59.70346970954882" lon="9.018133040525967">
				<ele>207.27579644521904</ele>
				<time>2019-07-26T11:33:34Z</time>
			</trkpt>
			<trkpt lat="59.70337499404298" lon="9.018160784625465">
				<ele>205.06433423284804</ele>
				<time>2019-07-26T11:33:42Z</time>
			</trkpt>
			<trkpt lat="59.703276003766526" lon="9.018143853181058">
				<ele>202.53520421141954</ele>
				<time>2019-07-26T11:33:52Z</time>
			</trkpt>
			<trkpt lat="59.703175253290404" lon="9.018151313074881">
				<ele>200.67142565789356</ele>
				<time>2019-07-26T11:33:59Z</time>
			</trkpt>
			<trkpt lat="59.703084896374214" lon="9.018101859846169">
				<ele>199.2253860213142</ele>
				<time>2019-07-26T11:34:04Z</time>
			</trkpt>
			<trkpt lat="59.70298913313048" lon="9.018141170972044">
				<ele>197.03152517668394</ele>
				<time>2019-07-26T11:34:12Z</time>
			</trkpt>
			<trkpt lat="59.70289835711913" lon="9.01812926866954">
				<ele>195.71910916999946</ele>
				<time>2019-07-26T11:34:17Z</time>
			</trkpt>
			<trkpt lat="59.70280376734184" lon="9.018076546498591">
				<ele>194.28543531264904</ele>
				<time>2019-07-26T11:34:23Z</time>
			</trkpt>
			<trkpt lat="59.70271349424468" lon="9.018055843197757">
				<ele>192.68703248394817</ele>
				<time>2019-07-26T11:34:30Z</time>
			</trkpt>
			<trkpt lat="59.70262112567173" lon="9.017973700546676">
				<ele>192.60055238286088</ele>
				<time>2019-07-26T11:41:43Z</time>
			</trkpt>
			<trkpt lat="59.7025322355886" lon="9.01801343076771">
				<ele>192.6162868746817</ele>
				<time>2019-07-26T11:41:49Z</time>
			</trkpt>
			<trkpt lat="59.7024363047068" lon="9.018070260071212">
				<ele>192.58712776374847</ele>
				<time>2019-07-26T11:41:56Z</time>
			</trkpt>
			<trkpt lat="59.70235294667976" lon="9.018164305024797">
				<ele>192.5644517717156</ele>
				<time>2019-07-26T11:42:05Z</time>
			</trkpt>
			<trkpt lat="59.70225865026908" lon="9.018214680262858">
				<ele>192.56682736830675</ele>
				<time>2019-07-26T11:42:18Z</time>
			</trkpt>
			<trkpt lat="59.70216934109079" lon="9.018312413253838">
				<ele>192.1983844683554</ele>
				<time>2019-07-26T11:42:27Z</time>
			</trkpt>
			<trkpt lat="59.702074457946885" lon="9.018378211193735">
				<ele>191.8963705308044</ele>
				<time>2019-07-26T11:42:34Z</time>
			</trkpt>
			<trkpt lat="59.70197970053153" lon="9.018444092952663">
				<ele>191.97520395500396</ele>
				<time>2019-07-26T11:42:42Z</time>
			</trkpt>
			<trkpt lat="59.70188594894456" lon="9.01854165830558">
				<ele>191.81361979685096</ele>
				<time>2019-07-26T11:42:48Z</time>
			</trkpt>
			<trkpt lat="59.7017940832858" lon="9.018629752107913">
				<ele>191.84771385148798</ele>
				<time>2019-07-26T11:42:54Z</time>
			</trkpt>
			<trkpt lat="59.701702133808006" lon="9.018661770978028">
				<ele>192.43930986056301</ele>
				<time>2019-07-26T11:43:00Z</time>
			</trkpt>
			<trkpt lat="59.70160423317896" lon="9.01874592528587">
				<ele>192.62143893429806</ele>
				<time>2019-07-26T11:43:07Z</time>
			</trkpt>
			<trkpt lat="59.70151119405376" lon="9.018857991331274">
				<ele>192.37080589835506</ele>
				<time>2019-07-26T11:43:12Z</time>
			</trkpt>
			<trkpt lat="59.70142473472254" lon="9.018970057376677">
				<ele>192.01809760378973</ele>
				<time>2019-07-26T11:43:17Z</time>
			</trkpt>
			<trkpt lat="59.70133768865811" lon="9.01909042150622">
				<ele>191.90216313324612</ele>
				<time>2019-07-26T11:43:21Z</time>
			</trkpt>
			<trkpt lat="59.7012480861132" lon="9.019200978809053">
				<ele>192.61493876670465</ele>
				<time>2019-07-26T11:43:26Z</time>
			</trkpt>
			<trkpt lat="59.701154585983325" lon="9.019246073448116">
				<ele>192.26218923085634</ele>
				<time>2019-07-26T11:43:30Z</time>
			</trkpt>
			<trkpt lat="59.70106682745712" lon="9.01938739233559">
				<ele>192.09514917445307</ele>
				<time>2019-07-26T11:43:34Z</time>
			</trkpt>
			<trkpt lat="59.70097567426013" lon="9.019501050942596">
				<ele>192.1968708189363</ele>
				<time>2019-07-26T11:43:38Z</time>
			</trkpt>
			<trkpt lat="59.70088074920671" lon="9.019577829175647">
				<ele>191.56177316463464</ele>
				<time>2019-07-26T11:43:42Z</time>
			</trkpt>
			<trkpt lat="59.700794289875496" lon="9.019647063695844">
				<ele>191.7348783093163</ele>
				<time>2019-07-26T11:43:46Z</time>
			</trkpt>
			<trkpt lat="59.70070028683143" lon="9.019759129741248">
				<ele>191.47121948658133</ele>
				<time>2019-07-26T11:43:51Z</time>
			</trkpt>
			<trkpt lat="59.700619066189695" lon="9.019884271555599">
				<ele>191.63579273228368</ele>
				<time>2019-07-26T11:43:55Z</time>
			</trkpt>
			<trkpt lat="59.7005289607306" lon="9.020027350642737">
				<ele>191.50776643917976</ele>
				<time>2019-07-26T11:43:59Z</time>
			</trkpt>
			<trkpt lat="59.70043902290957" lon="9.020113935702499">
				<ele>191.1468755340669</ele>
				<time>2019-07-26T11:44:03Z</time>
			</trkpt>
			<trkpt lat="59.70034908508854" lon="9.02023564093655">
				<ele>191.25222645927948</ele>
				<time>2019-07-26T11:44:07Z</time>
			</trkpt>
			<trkpt lat="59.70025156164514" lon="9.020330272623356">
				<ele>191.549869473218</ele>
				<time>2019-07-26T11:44:11Z</time>
			</trkpt>
			<trkpt lat="59.70014775177436" lon="9.020380731680449">
				<ele>191.50090021424478</ele>
				<time>2019-07-26T11:44:15Z</time>
			</trkpt>
			<trkpt lat="59.7000421397944" lon="9.020363967874106">
				<ele>191.49673692396067</ele>
				<time>2019-07-26T11:44:19Z</time>
			</trkpt>
			<trkpt lat="59.699978018235136" lon="9.020162718378957">
				<ele>191.23471431203103</ele>
				<time>2019-07-26T11:44:23Z</time>
			</trkpt>
			<trkpt lat="59.699957398753334" lon="9.019986866050418">
				<ele>191.2440514390804</ele>
				<time>2019-07-26T11:44:27Z</time>
			</trkpt>
			<trkpt lat="59.69988296745317" lon="9.01985937730318">
				<ele>191.3492192748506</ele>
				<time>2019-07-26T11:45:11Z</time>
			</trkpt>
			<trkpt lat="59.69979525083648" lon="9.01990438812321">
				<ele>191.82990819913675</ele>
				<time>2019-07-26T11:45:38Z</time>
			</trkpt>
			<trkpt lat="59.69976239377605" lon="9.020101530485805">
				<ele>193.12526738112365</ele>
				<time>2019-07-26T11:45:45Z</time>
			</trkpt>
			<trkpt lat="59.699710425976384" lon="9.020302360885795">
				<ele>193.99950356201452</ele>
				<time>2019-07-26T11:45:50Z</time>
			</trkpt>
			<trkpt lat="59.69965757807689" lon="9.02046631091183">
				<ele>194.46226736442622</ele>
				<time>2019-07-26T11:45:54Z</time>
			</trkpt>
			<trkpt lat="59.69960644846754" lon="9.02064953931516">
				<ele>194.83446932016886</ele>
				<time>2019-07-26T11:45:59Z</time>
			</trkpt>
			<trkpt lat="59.6995352442001" lon="9.020817345016654">
				<ele>194.5073501438755</ele>
				<time>2019-07-26T11:46:04Z</time>
			</trkpt>
			<trkpt lat="59.699475397411454" lon="9.021005686380919">
				<ele>194.45094966354918</ele>
				<time>2019-07-26T11:46:08Z</time>
			</trkpt>
			<trkpt lat="59.699427955839504" lon="9.021161254503783">
				<ele>192.799950515996</ele>
				<time>2019-07-26T11:46:11Z</time>
			</trkpt>
			<trkpt lat="59.69936697749393" lon="9.02134087868875">
				<ele>190.4344359556796</ele>
				<time>2019-07-26T11:46:15Z</time>
			</trkpt>
			<trkpt lat="59.69932502606856" lon="9.021531147890745">
				<ele>190.03634931543922</ele>
				<time>2019-07-26T11:46:20Z</time>
			</trkpt>
			<trkpt lat="59.69927494419711" lon="9.021688811489401">
				<ele>189.9554645915392</ele>
				<time>2019-07-26T11:46:23Z</time>
			</trkpt>
			<trkpt lat="59.69922218011664" lon="9.021841781222282">
				<ele>189.4563371338516</ele>
				<time>2019-07-26T11:46:26Z</time>
			</trkpt>
			<trkpt lat="59.69916011212366" lon="9.021989973270355">
				<ele>189.044136071868</ele>
				<time>2019-07-26T11:46:30Z</time>
			</trkpt>
			<trkpt lat="59.699080609772075" lon="9.022122826435623">
				<ele>189.11306499901536</ele>
				<time>2019-07-26T11:46:34Z</time>
			</trkpt>
			<trkpt lat="59.69899297697442" lon="9.022241514184532">
				<ele>188.07047908409973</ele>
				<time>2019-07-26T11:46:38Z</time>
			</trkpt>
			<trkpt lat="59.698912762161065" lon="9.022331703462658">
				<ele>187.23920102130944</ele>
				<time>2019-07-26T11:46:42Z</time>
			</trkpt>
			<trkpt lat="59.698816957007814" lon="9.02245198377317">
				<ele>186.28035708997015</ele>
				<time>2019-07-26T11:46:47Z</time>
			</trkpt>
			<trkpt lat="59.69876285182284" lon="9.022617861636935">
				<ele>186.11984818340852</ele>
				<time>2019-07-26T11:46:51Z</time>
			</trkpt>
			<trkpt lat="59.698784560952056" lon="9.02282774449235">
				<ele>185.11331007922746</ele>
				<time>2019-07-26T11:46:55Z</time>
			</trkpt>
			<trkpt lat="59.698862680289615" lon="9.022943666213212">
				<ele>184.76464361665407</ele>
				<time>2019-07-26T11:46:58Z</time>
			</trkpt>
			<trkpt lat="59.69894930725889" lon="9.023044416689334">
				<ele>184.04871906741343</ele>
				<time>2019-07-26T11:47:01Z</time>
			</trkpt>
			<trkpt lat="59.69901326118009" lon="9.023217922084987">
				<ele>183.4010312820029</ele>
				<time>2019-07-26T11:47:05Z</time>
			</trkpt>
			<trkpt lat="59.69905831390964" lon="9.023384470501005">
				<ele>183.31311157068941</ele>
				<time>2019-07-26T11:47:09Z</time>
			</trkpt>
			<trkpt lat="59.69907122204052" lon="9.023584881805837">
				<ele>183.08574390061202</ele>
				<time>2019-07-26T11:47:13Z</time>
			</trkpt>
			<trkpt lat="59.69902310991632" lon="9.023806499325692">
				<ele>183.4467843485437</ele>
				<time>2019-07-26T11:47:17Z</time>
			</trkpt>
			<trkpt lat="59.69897281849729" lon="9.023979920902311">
				<ele>183.6011397646128</ele>
				<time>2019-07-26T11:47:20Z</time>
			</trkpt>
			<trkpt lat="59.69897633889662" lon="9.02417530306524">
				<ele>183.41535265952496</ele>
				<time>2019-07-26T11:47:24Z</time>
			</trkpt>
			<trkpt lat="59.69903526367592" lon="9.024317879238188">
				<ele>183.54736744888396</ele>
				<time>2019-07-26T11:47:28Z</time>
			</trkpt>
			<trkpt lat="59.699109150152374" lon="9.024437069901287">
				<ele>183.22880664255337</ele>
				<time>2019-07-26T11:47:32Z</time>
			</trkpt>
			<trkpt lat="59.699172768797446" lon="9.024606551983416">
				<ele>183.00354376849432</ele>
				<time>2019-07-26T11:47:36Z</time>
			</trkpt>
			<trkpt lat="59.69919728586422" lon="9.024806041278898">
				<ele>183.03868913645675</ele>
				<time>2019-07-26T11:47:40Z</time>
			</trkpt>
			<trkpt lat="59.69920235691564" lon="9.02502154000944">
				<ele>182.811460985717</ele>
				<time>2019-07-26T11:47:45Z</time>
			</trkpt>
			<trkpt lat="59.699163967799116" lon="9.025199236356677">
				<ele>183.41239969963112</ele>
				<time>2019-07-26T11:47:49Z</time>
			</trkpt>
			<trkpt lat="59.69912863807725" lon="9.025365868591727">
				<ele>183.35971428491953</ele>
				<time>2019-07-26T11:47:53Z</time>
			</trkpt>
			<trkpt lat="59.699074951987434" lon="9.025524873294891">
				<ele>185.64704071555266</ele>
				<time>2019-07-26T11:48:41Z</time>
			</trkpt>
			<trkpt lat="59.69899423425989" lon="9.025603160270514">
				<ele>185.83185074776554</ele>
				<time>2019-07-26T11:49:06Z</time>
			</trkpt>
			<trkpt lat="59.6989194676836" lon="9.025717908524932">
				<ele>186.0828301214407</ele>
				<time>2019-07-26T11:49:29Z</time>
			</trkpt>
			<trkpt lat="59.69900299334871" lon="9.025603244089545">
				<ele>185.0443209004724</ele>
				<time>2019-07-26T11:51:36Z</time>
			</trkpt>
			<trkpt lat="59.69909146433668" lon="9.025559658193053">
				<ele>184.6745427916641</ele>
				<time>2019-07-26T11:51:42Z</time>
			</trkpt>
			<trkpt lat="59.699191502351034" lon="9.025560077288212">
				<ele>186.25477306141892</ele>
				<time>2019-07-26T11:51:50Z</time>
			</trkpt>
			<trkpt lat="59.699288103785086" lon="9.025565776982369">
				<ele>188.95390272330897</ele>
				<time>2019-07-26T11:52:02Z</time>
			</trkpt>
			<trkpt lat="59.699375736582745" lon="9.025631658741297">
				<ele>188.52095665994523</ele>
				<time>2019-07-26T11:52:13Z</time>
			</trkpt>
			<trkpt lat="59.69947045208858" lon="9.025695528843464">
				<ele>188.60642204572378</ele>
				<time>2019-07-26T11:52:20Z</time>
			</trkpt>
			<trkpt lat="59.69954655976938" lon="9.02581019327885">
				<ele>188.48424694924228</ele>
				<time>2019-07-26T11:52:27Z</time>
			</trkpt>
			<trkpt lat="59.69960988504784" lon="9.025965342306556">
				<ele>187.65302632380624</ele>
				<time>2019-07-26T11:52:34Z</time>
			</trkpt>
			<trkpt lat="59.69967811373966" lon="9.026102134966315">
				<ele>187.1413801146771</ele>
				<time>2019-07-26T11:52:41Z</time>
			</trkpt>
			<trkpt lat="59.69972169963615" lon="9.026271533229412">
				<ele>186.2344555042393</ele>
				<time>2019-07-26T11:52:48Z</time>
			</trkpt>
			<trkpt lat="59.69975405378239" lon="9.026446715005697">
				<ele>187.26020929365797</ele>
				<time>2019-07-26T11:52:56Z</time>
			</trkpt>
			<trkpt lat="59.6997374157046" lon="9.02664033696896">
				<ele>187.59611488101316</ele>
				<time>2019-07-26T11:53:04Z</time>
			</trkpt>
			<trkpt lat="59.699779534768034" lon="9.02680353262371">
				<ele>187.38881091028333</ele>
				<time>2019-07-26T11:53:11Z</time>
			</trkpt>
			<trkpt lat="59.69984960747855" lon="9.026941079654756">
				<ele>186.81861651180398</ele>
				<time>2019-07-26T11:53:18Z</time>
			</trkpt>
			<trkpt lat="59.699934222791065" lon="9.027005620309177">
				<ele>187.3579167502054</ele>
				<time>2019-07-26T11:53:24Z</time>
			</trkpt>
			<trkpt lat="59.70001309649991" lon="9.027112573393646">
				<ele>187.62149147974822</ele>
				<time>2019-07-26T11:53:31Z</time>
			</trkpt>
			<trkpt lat="59.70007780479239" lon="9.027249282234374">
				<ele>188.11173878436497</ele>
				<time>2019-07-26T11:53:38Z</time>
			</trkpt>
			<trkpt lat="59.700093478951324" lon="9.027428990238372">
				<ele>188.536671868577</ele>
				<time>2019-07-26T11:53:47Z</time>
			</trkpt>
			<trkpt lat="59.70016128854798" lon="9.027547929444376">
				<ele>188.59318904411003</ele>
				<time>2019-07-26T11:53:54Z</time>
			</trkpt>
			<trkpt lat="59.70023911451893" lon="9.027666784831348">
				<ele>188.71612626396794</ele>
				<time>2019-07-26T11:54:01Z</time>
			</trkpt>
			<trkpt lat="59.7003011406024" lon="9.027810702108804">
				<ele>188.80090670469082</ele>
				<time>2019-07-26T11:54:08Z</time>
			</trkpt>
			<trkpt lat="59.700351054835785" lon="9.027975490325156">
				<ele>188.75288368159315</ele>
				<time>2019-07-26T11:54:15Z</time>
			</trkpt>
			<trkpt lat="59.70041211700039" lon="9.028131393724147">
				<ele>189.02131885721855</ele>
				<time>2019-07-26T11:54:23Z</time>
			</trkpt>
			<trkpt lat="59.70048021996366" lon="9.028289224960867">
				<ele>189.25799875030938</ele>
				<time>2019-07-26T11:54:31Z</time>
			</trkpt>
			<trkpt lat="59.70049840869354" lon="9.02846524492747">
				<ele>189.29064717166463</ele>
				<time>2019-07-26T11:54:37Z</time>
			</trkpt>
			<trkpt lat="59.70050549140172" lon="9.028646377855006">
				<ele>189.3082113857557</ele>
				<time>2019-07-26T11:54:43Z</time>
			</trkpt>
			<trkpt lat="59.7005746840124" lon="9.028770262383881">
				<ele>188.69397973841356</ele>
				<time>2019-07-26T11:55:17Z</time>
			</trkpt>
			<trkpt lat="59.70061043282943" lon="9.028937816628282">
				<ele>188.98024278350064</ele>
				<time>2019-07-26T11:55:38Z</time>
			</trkpt>
			<trkpt lat="59.7006526357119" lon="9.029098246254986">
				<ele>189.56703851455939</ele>
				<time>2019-07-26T11:55:47Z</time>
			</trkpt>
			<trkpt lat="59.70074596820371" lon="9.029170665898388">
				<ele>189.9927705624616</ele>
				<time>2019-07-26T11:55:54Z</time>
			</trkpt>
			<trkpt lat="59.7008122690578" lon="9.029298154645627">
				<ele>190.0269163850503</ele>
				<time>2019-07-26T11:56:00Z</time>
			</trkpt>
			<trkpt lat="59.70088846055763" lon="9.029400581502383">
				<ele>190.18047407855752</ele>
				<time>2019-07-26T11:56:07Z</time>
			</trkpt>
			<trkpt lat="59.700963478591014" lon="9.029502840721076">
				<ele>190.2327947141504</ele>
				<time>2019-07-26T11:56:14Z</time>
			</trkpt>
			<trkpt lat="59.701057565454114" lon="9.029546594255631">
				<ele>190.11001485791033</ele>
				<time>2019-07-26T11:56:21Z</time>
			</trkpt>
			<trkpt lat="59.70114641362773" lon="9.029607865967815">
				<ele>190.65100127121886</ele>
				<time>2019-07-26T11:56:28Z</time>
			</trkpt>
			<trkpt lat="59.701242805514205" lon="9.029615828775828">
				<ele>192.74756127876296</ele>
				<time>2019-07-26T11:56:37Z</time>
			</trkpt>
			<trkpt lat="59.70133571891086" lon="9.029616666966145">
				<ele>195.27246611766202</ele>
				<time>2019-07-26T11:56:47Z</time>
			</trkpt>
			<trkpt lat="59.70142758456962" lon="9.029622869574492">
				<ele>196.2416430461134</ele>
				<time>2019-07-26T11:56:55Z</time>
			</trkpt>
			<trkpt lat="59.70150851184474" lon="9.029716830709045">
				<ele>197.91084973656584</ele>
				<time>2019-07-26T11:57:03Z</time>
			</trkpt>
			<trkpt lat="59.70157137611853" lon="9.029870890089338">
				<ele>199.84757349309913</ele>
				<time>2019-07-26T11:57:11Z</time>
			</trkpt>
			<trkpt lat="59.701634240392316" lon="9.03000097722656">
				<ele>200.48859060272113</ele>
				<time>2019-07-26T11:57:19Z</time>
			</trkpt>
			<trkpt lat="59.701688890400995" lon="9.030155539521044">
				<ele>200.24158357467212</ele>
				<time>2019-07-26T11:57:30Z</time>
			</trkpt>
			<trkpt lat="59.701728746350575" lon="9.030331224211519">
				<ele>200.01398566182596</ele>
				<time>2019-07-26T11:57:38Z</time>
			</trkpt>
			<trkpt lat="59.70180854206877" lon="9.030458210044568">
				<ele>200.35685347576353</ele>
				<time>2019-07-26T11:57:47Z</time>
			</trkpt>
			<trkpt lat="59.701904682498146" lon="9.030531886973446">
				<ele>200.4976585773671</ele>
				<time>2019-07-26T11:57:54Z</time>
			</trkpt>
			<trkpt lat="59.7020039242317" lon="9.030550327160423">
				<ele>200.3257394229494</ele>
				<time>2019-07-26T11:58:09Z</time>
			</trkpt>
			<trkpt lat="59.70209868164705" lon="9.030530042954748">
				<ele>200.3628427250485</ele>
				<time>2019-07-26T11:58:16Z</time>
			</trkpt>
			<trkpt lat="59.70219327142434" lon="9.0304720401848">
				<ele>200.4480210716407</ele>
				<time>2019-07-26T11:58:23Z</time>
			</trkpt>
			<trkpt lat="59.70228576572584" lon="9.030391490095322">
				<ele>201.21139292760262</ele>
				<time>2019-07-26T11:58:29Z</time>
			</trkpt>
			<trkpt lat="59.70238995278226" lon="9.030331140392487">
				<ele>202.0605603574166</ele>
				<time>2019-07-26T11:58:37Z</time>
			</trkpt>
			<trkpt lat="59.7024828242694" lon="9.030299205341404">
				<ele>204.4842941158664</ele>
				<time>2019-07-26T11:58:47Z</time>
			</trkpt>
			<trkpt lat="59.70257179817157" lon="9.03026919812805">
				<ele>208.80185432152598</ele>
				<time>2019-07-26T11:59:03Z</time>
			</trkpt>
			<trkpt lat="59.702660855892766" lon="9.030242543675964">
				<ele>210.52537942620208</ele>
				<time>2019-07-26T11:59:11Z</time>
			</trkpt>
			<trkpt lat="59.702755864765216" lon="9.030237849810188">
				<ele>211.7591640442234</ele>
				<time>2019-07-26T11:59:20Z</time>
			</trkpt>
			<trkpt lat="59.702852382380236" lon="9.030226618059938">
				<ele>212.9540581159871</ele>
				<time>2019-07-26T11:59:28Z</time>
			</trkpt>
			<trkpt lat="59.70295242039459" lon="9.030202813454931">
				<ele>214.07725404618796</ele>
				<time>2019-07-26T11:59:36Z</time>
			</trkpt>
			<trkpt lat="59.703044118415285" lon="9.03019250371403">
				<ele>215.15966730741252</ele>
				<time>2019-07-26T11:59:44Z</time>
			</trkpt>
			<trkpt lat="59.70313761854516" lon="9.030259307482307">
				<ele>214.6979202550844</ele>
				<time>2019-07-26T11:59:52Z</time>
			</trkpt>
			<trkpt lat="59.70323820138322" lon="9.030267102652257">
				<ele>214.56100941204753</ele>
				<time>2019-07-26T11:59:58Z</time>
			</trkpt>
			<trkpt lat="59.70332964794682" lon="9.030244136237567">
				<ele>215.22154998092213</ele>
				<time>2019-07-26T12:00:06Z</time>
			</trkpt>
			<trkpt lat="59.70342046586769" lon="9.03020323255009">
				<ele>217.58173361967965</ele>
				<time>2019-07-26T12:00:15Z</time>
			</trkpt>
			<trkpt lat="59.703502524699736" lon="9.030105667197173">
				<ele>218.4917238759216</ele>
				<time>2019-07-26T12:00:22Z</time>
			</trkpt>
			<trkpt lat="59.70354267401593" lon="9.02992277406997">
				<ele>219.5572578854276</ele>
				<time>2019-07-26T12:00:30Z</time>
			</trkpt>
			<trkpt lat="59.70357540534781" lon="9.029732840144103">
				<ele>217.96347570921284</ele>
				<time>2019-07-26T12:00:38Z</time>
			</trkpt>
			<trkpt lat="59.70359422272043" lon="9.029554137968486">
				<ele>217.5064899250233</ele>
				<time>2019-07-26T12:00:46Z</time>
			</trkpt>
			<trkpt lat="59.70367804175215" lon="9.029481299229925">
				<ele>217.90405394264792</ele>
				<time>2019-07-26T12:01:23Z</time>
			</trkpt>
			<trkpt lat="59.70376378862159" lon="9.02941558510906">
				<ele>216.82703220257633</ele>
				<time>2019-07-26T12:01:49Z</time>
			</trkpt>
			<trkpt lat="59.70387530984329" lon="9.029386332266991">
				<ele>216.47873489434232</ele>
				<time>2019-07-26T12:01:53Z</time>
			</trkpt>
			<trkpt lat="59.703984232675005" lon="9.02936277911908">
				<ele>216.0117920104882</ele>
				<time>2019-07-26T12:02:00Z</time>
			</trkpt>
			<trkpt lat="59.70409847801523" lon="9.029354397215908">
				<ele>216.6370868654846</ele>
				<time>2019-07-26T12:02:05Z</time>
			</trkpt>
			<trkpt lat="59.70420027622925" lon="9.02932958678252">
				<ele>216.4576139065614</ele>
				<time>2019-07-26T12:02:11Z</time>
			</trkpt>
			<trkpt lat="59.70429075887399" lon="9.029306788005893">
				<ele>215.96695053862624</ele>
				<time>2019-07-26T12:02:15Z</time>
			</trkpt>
			<trkpt lat="59.70440265728133" lon="9.029319109403556">
				<ele>215.09564152927192</ele>
				<time>2019-07-26T12:02:20Z</time>
			</trkpt>
			<trkpt lat="59.70449330756413" lon="9.029291030027931">
				<ele>213.8594276513985</ele>
				<time>2019-07-26T12:02:25Z</time>
			</trkpt>
			<trkpt lat="59.70457666559117" lon="9.02936671861357">
				<ele>213.67461666765357</ele>
				<time>2019-07-26T12:02:29Z</time>
			</trkpt>
			<trkpt lat="59.70469028228866" lon="9.029315169909065">
				<ele>213.1290401800066</ele>
				<time>2019-07-26T12:02:34Z</time>
			</trkpt>
			<trkpt lat="59.70477778935777" lon="9.029378537097042">
				<ele>212.35111696599049</ele>
				<time>2019-07-26T12:02:40Z</time>
			</trkpt>
			<trkpt lat="59.704819615054596" lon="9.029535697781508">
				<ele>211.24270010221457</ele>
				<time>2019-07-26T12:02:45Z</time>
			</trkpt>
			<trkpt lat="59.70490326644825" lon="9.029633598410552">
				<ele>209.97747744529852</ele>
				<time>2019-07-26T12:02:51Z</time>
			</trkpt>
			<trkpt lat="59.70500016124891" lon="9.029677687221234">
				<ele>208.9646578210758</ele>
				<time>2019-07-26T12:02:58Z</time>
			</trkpt>
			<trkpt lat="59.70508515374707" lon="9.029777934783166">
				<ele>208.30952172232844</ele>
				<time>2019-07-26T12:03:06Z</time>
			</trkpt>
			<trkpt lat="59.70513687008964" lon="9.029942136266296">
				<ele>206.8749303434706</ele>
				<time>2019-07-26T12:03:13Z</time>
			</trkpt>
			<trkpt lat="59.705148353296984" lon="9.030122347184484">
				<ele>204.2572555605299</ele>
				<time>2019-07-26T12:03:24Z</time>
			</trkpt>
			<trkpt lat="59.70512509351568" lon="9.03030146845526">
				<ele>204.23680700212716</ele>
				<time>2019-07-26T12:03:33Z</time>
			</trkpt>
			<trkpt lat="59.70512035774039" lon="9.030480170630877">
				<ele>202.87102661429356</ele>
				<time>2019-07-26T12:03:41Z</time>
			</trkpt>
			<trkpt lat="59.705145210083295" lon="9.030679995202487">
				<ele>200.61149331178183</ele>
				<time>2019-07-26T12:03:49Z</time>
			</trkpt>
			<trkpt lat="59.705175762120355" lon="9.03086037375874">
				<ele>197.38794662666626</ele>
				<time>2019-07-26T12:03:58Z</time>
			</trkpt>
			<trkpt lat="59.70522454479681" lon="9.031015941881604">
				<ele>195.0111639812726</ele>
				<time>2019-07-26T12:04:07Z</time>
			</trkpt>
			<trkpt lat="59.70531389588462" lon="9.031048882761068">
				<ele>193.705940800038</ele>
				<time>2019-07-26T12:04:26Z</time>
			</trkpt>
			<trkpt lat="59.705398553106654" lon="9.031120631852216">
				<ele>193.36944853493463</ele>
				<time>2019-07-26T12:04:35Z</time>
			</trkpt>
			<trkpt lat="59.70548652118044" lon="9.031160278254218">
				<ele>192.60538551606592</ele>
				<time>2019-07-26T12:04:43Z</time>
			</trkpt>
			<trkpt lat="59.7055773391013" lon="9.031182238840527">
				<ele>193.30157511872196</ele>
				<time>2019-07-26T12:04:52Z</time>
			</trkpt>
			<trkpt lat="59.70567046204554" lon="9.031129516669578">
				<ele>195.32043933738947</ele>
				<time>2019-07-26T12:05:02Z</time>
			</trkpt>
			<trkpt lat="59.70576421363251" lon="9.031148711227841">
				<ele>196.5670467414683</ele>
				<time>2019-07-26T12:05:11Z</time>
			</trkpt>
			<trkpt lat="59.705824186149705" lon="9.031303692617483">
				<ele>195.960019943591</ele>
				<time>2019-07-26T12:05:20Z</time>
			</trkpt>
			<trkpt lat="59.70592015894102" lon="9.031357252978749">
				<ele>195.37826031023639</ele>
				<time>2019-07-26T12:05:38Z</time>
			</trkpt>
			<trkpt lat="59.70600967766689" lon="9.03128449805922">
				<ele>198.5020890517743</ele>
				<time>2019-07-26T12:05:49Z</time>
			</trkpt>
			<trkpt lat="59.70610632101046" lon="9.031266309329338">
				<ele>202.7514583695336</ele>
				<time>2019-07-26T12:06:02Z</time>
			</trkpt>
			<trkpt lat="59.70619533682214" lon="9.031186513611145">
				<ele>203.64685183109734</ele>
				<time>2019-07-26T12:06:12Z</time>
			</trkpt>
			<trkpt lat="59.7062816285153" lon="9.031116273262567">
				<ele>203.85991438172084</ele>
				<time>2019-07-26T12:06:21Z</time>
			</trkpt>
			<trkpt lat="59.70636653719443" lon="9.031040081762738">
				<ele>204.67973664278546</ele>
				<time>2019-07-26T12:06:29Z</time>
			</trkpt>
			<trkpt lat="59.70646443782347" lon="9.031036142268247">
				<ele>205.1277222178211</ele>
				<time>2019-07-26T12:06:37Z</time>
			</trkpt>
			<trkpt lat="59.70655563292998" lon="9.030974116184778">
				<ele>204.80539322963668</ele>
				<time>2019-07-26T12:06:45Z</time>
			</trkpt>
			<trkpt lat="59.70662775920677" lon="9.031113339596457">
				<ele>202.90379785605424</ele>
				<time>2019-07-26T12:06:53Z</time>
			</trkpt>
			<trkpt lat="59.7067071358298" lon="9.031206127264566">
				<ele>201.73241821804314</ele>
				<time>2019-07-26T12:07:03Z</time>
			</trkpt>
			<trkpt lat="59.706795942093905" lon="9.031283156954713">
				<ele>200.08362839439093</ele>
				<time>2019-07-26T12:07:14Z</time>
			</trkpt>
			<trkpt lat="59.70689736312228" lon="9.031310565778083">
				<ele>198.15250493133425</ele>
				<time>2019-07-26T12:07:24Z</time>
			</trkpt>
			<trkpt lat="59.70699165953296" lon="9.031301261865563">
				<ele>198.14285831224464</ele>
				<time>2019-07-26T12:07:30Z</time>
			</trkpt>
			<trkpt lat="59.707076693940635" lon="9.031399581589765">
				<ele>198.11652031097307</ele>
				<time>2019-07-26T12:07:43Z</time>
			</trkpt>
			<trkpt lat="59.70716818241375" lon="9.0314012579704">
				<ele>197.04966001537696</ele>
				<time>2019-07-26T12:07:51Z</time>
			</trkpt>
			<trkpt lat="59.70726352656233" lon="9.031432941564388">
				<ele>195.58968108035128</ele>
				<time>2019-07-26T12:08:06Z</time>
			</trkpt>
			<trkpt lat="59.707358074430104" lon="9.031418440871901">
				<ele>197.86451244146355</ele>
				<time>2019-07-26T12:08:24Z</time>
			</trkpt>
			<trkpt lat="59.707446084413405" lon="9.03137636371798">
				<ele>200.31156703213117</ele>
				<time>2019-07-26T12:08:40Z</time>
			</trkpt>
			<trkpt lat="59.70754163810956" lon="9.031331771993107">
				<ele>201.1569705184066</ele>
				<time>2019-07-26T12:09:07Z</time>
			</trkpt>
			<trkpt lat="59.70761854207116" lon="9.031227668755717">
				<ele>201.67998196183345</ele>
				<time>2019-07-26T12:09:19Z</time>
			</trkpt>
			<trkpt lat="59.70770789315897" lon="9.03117997572667">
				<ele>203.19834131586438</ele>
				<time>2019-07-26T12:09:30Z</time>
			</trkpt>
			<trkpt lat="59.7077848809396" lon="9.031073777013487">
				<ele>203.4100809149898</ele>
				<time>2019-07-26T12:10:00Z</time>
			</trkpt>
			<trkpt lat="59.707875279765304" lon="9.03102507815606">
				<ele>204.07144876530634</ele>
				<time>2019-07-26T12:10:25Z</time>
			</trkpt>
			<trkpt lat="59.70796605577665" lon="9.031042344876594">
				<ele>203.98702197688115</ele>
				<time>2019-07-26T12:10:42Z</time>
			</trkpt>
			<trkpt lat="59.70805884344476" lon="9.031076459222502">
				<ele>203.91227683901985</ele>
				<time>2019-07-26T12:10:51Z</time>
			</trkpt>
			<trkpt lat="59.70815297221738" lon="9.031075034298963">
				<ele>200.73308315182624</ele>
				<time>2019-07-26T12:10:59Z</time>
			</trkpt>
			<trkpt lat="59.708246891442414" lon="9.031046954923339">
				<ele>200.08426978044213</ele>
				<time>2019-07-26T12:11:08Z</time>
			</trkpt>
			<trkpt lat="59.70834030775326" lon="9.031020551928348">
				<ele>199.9879171921189</ele>
				<time>2019-07-26T12:11:18Z</time>
			</trkpt>
			<trkpt lat="59.70842953311252" lon="9.031045362361736">
				<ele>198.92818423298633</ele>
				<time>2019-07-26T12:11:26Z</time>
			</trkpt>
			<trkpt lat="59.70853133132654" lon="9.031026335441537">
				<ele>197.6285346548329</ele>
				<time>2019-07-26T12:11:35Z</time>
			</trkpt>
			<trkpt lat="59.70863027969348" lon="9.031007224702305">
				<ele>196.9425500707655</ele>
				<time>2019-07-26T12:11:43Z</time>
			</trkpt>
			<trkpt lat="59.70873316755491" lon="9.031028682374425">
				<ele>197.47005063575062</ele>
				<time>2019-07-26T12:11:53Z</time>
			</trkpt>
			<trkpt lat="59.70883161300766" lon="9.030999261894292">
				<ele>197.10478365331136</ele>
				<time>2019-07-26T12:12:01Z</time>
			</trkpt>
			<trkpt lat="59.70892046118128" lon="9.030950395398802">
				<ele>196.3538078821507</ele>
				<time>2019-07-26T12:12:10Z</time>
			</trkpt>
			<trkpt lat="59.70900859689313" lon="9.03091167100615">
				<ele>196.17958886424242</ele>
				<time>2019-07-26T12:12:18Z</time>
			</trkpt>
			<trkpt lat="59.709094720948215" lon="9.030799521141715">
				<ele>196.8934305733422</ele>
				<time>2019-07-26T12:12:25Z</time>
			</trkpt>
			<trkpt lat="59.70917912671315" lon="9.030722910546727">
				<ele>197.0311800917426</ele>
				<time>2019-07-26T12:12:33Z</time>
			</trkpt>
			<trkpt lat="59.70926508313018" lon="9.030658369892304">
				<ele>196.90737850508452</ele>
				<time>2019-07-26T12:12:40Z</time>
			</trkpt>
			<trkpt lat="59.70933230599361" lon="9.030535826467936">
				<ele>196.78159323313304</ele>
				<time>2019-07-26T12:12:48Z</time>
			</trkpt>
			<trkpt lat="59.709392488058384" lon="9.030385706582134">
				<ele>196.99077085535384</ele>
				<time>2019-07-26T12:12:56Z</time>
			</trkpt>
			<trkpt lat="59.709466835539516" lon="9.030264671900337">
				<ele>197.57287530126615</ele>
				<time>2019-07-26T12:13:06Z</time>
			</trkpt>
			<trkpt lat="59.70953900372582" lon="9.03015344404525">
				<ele>198.2320851629118</ele>
				<time>2019-07-26T12:13:14Z</time>
			</trkpt>
			<trkpt lat="59.70961582386839" lon="9.030037857600515">
				<ele>198.62168836320046</ele>
				<time>2019-07-26T12:13:22Z</time>
			</trkpt>
			<trkpt lat="59.70969662541496" lon="9.029951356359785">
				<ele>198.55593733798946</ele>
				<time>2019-07-26T12:13:28Z</time>
			</trkpt>
			<trkpt lat="59.70977952243733" lon="9.029872985565131">
				<ele>198.58950381400706</ele>
				<time>2019-07-26T12:13:35Z</time>
			</trkpt>
			<trkpt lat="59.709863844383236" lon="9.029798973360126">
				<ele>198.2218390306681</ele>
				<time>2019-07-26T12:13:42Z</time>
			</trkpt>
			<trkpt lat="59.70993433618891" lon="9.029667042204206">
				<ele>198.6561089933851</ele>
				<time>2019-07-26T12:13:51Z</time>
			</trkpt>
			<trkpt lat="59.71001191070276" lon="9.029567716651623">
				<ele>198.3369173495227</ele>
				<time>2019-07-26T12:14:00Z</time>
			</trkpt>
			<trkpt lat="59.71009162260192" lon="9.029480963953798">
				<ele>198.3801534627533</ele>
				<time>2019-07-26T12:14:09Z</time>
			</trkpt>
			<trkpt lat="59.71018068032312" lon="9.029400330045288">
				<ele>198.4573146769966</ele>
				<time>2019-07-26T12:14:16Z</time>
			</trkpt>
			<trkpt lat="59.71026051795083" lon="9.029310476043289">
				<ele>199.03433987674458</ele>
				<time>2019-07-26T12:14:24Z</time>
			</trkpt>
			<trkpt lat="59.7103476478343" lon="9.029246270664995">
				<ele>198.92050605868394</ele>
				<time>2019-07-26T12:14:32Z</time>
			</trkpt>
			<trkpt lat="59.71043318515616" lon="9.029156835758155">
				<ele>199.42789700675127</ele>
				<time>2019-07-26T12:14:39Z</time>
			</trkpt>
			<trkpt lat="59.7105244640817" lon="9.029085673400228">
				<ele>199.85832944354354</ele>
				<time>2019-07-26T12:14:47Z</time>
			</trkpt>
			<trkpt lat="59.71060845075148" lon="9.029022473850315">
				<ele>200.60818335978837</ele>
				<time>2019-07-26T12:14:55Z</time>
			</trkpt>
			<trkpt lat="59.71069436525899" lon="9.028957430281704">
				<ele>201.64956718590497</ele>
				<time>2019-07-26T12:15:06Z</time>
			</trkpt>
			<trkpt lat="59.71077713655281" lon="9.028854081415599">
				<ele>202.88957728797624</ele>
				<time>2019-07-26T12:15:14Z</time>
			</trkpt>
			<trkpt lat="59.710867200102385" lon="9.02876724489874">
				<ele>204.6991911341956</ele>
				<time>2019-07-26T12:15:23Z</time>
			</trkpt>
			<trkpt lat="59.710962292793866" lon="9.028730783619944">
				<ele>205.66479579216377</ele>
				<time>2019-07-26T12:15:32Z</time>
			</trkpt>
			<trkpt lat="59.711058726589854" lon="9.028672110297743">
				<ele>206.10198954021354</ele>
				<time>2019-07-26T12:15:39Z</time>
			</trkpt>
			<trkpt lat="59.71115285536247" lon="9.02859625407404">
				<ele>206.46604641553262</ele>
				<time>2019-07-26T12:15:47Z</time>
			</trkpt>
			<trkpt lat="59.71125461166697" lon="9.028578065344158">
				<ele>207.3815321235901</ele>
				<time>2019-07-26T12:15:54Z</time>
			</trkpt>
			<trkpt lat="59.71134278928834" lon="9.028493491941157">
				<ele>208.2697491173485</ele>
				<time>2019-07-26T12:16:03Z</time>
			</trkpt>
			<trkpt lat="59.71142216591137" lon="9.028392825284067">
				<ele>209.3172461280506</ele>
				<time>2019-07-26T12:16:11Z</time>
			</trkpt>
			<trkpt lat="59.71151113981354" lon="9.028331637390915">
				<ele>210.32313499166565</ele>
				<time>2019-07-26T12:16:20Z</time>
			</trkpt>
			<trkpt lat="59.71160933380919" lon="9.028286039837662">
				<ele>211.71477632508754</ele>
				<time>2019-07-26T12:16:29Z</time>
			</trkpt>
			<trkpt lat="59.711698056254264" lon="9.028245974340502">
				<ele>212.6392094421371</ele>
				<time>2019-07-26T12:16:36Z</time>
			</trkpt>
			<trkpt lat="59.71178619196611" lon="9.028161065661374">
				<ele>213.90606156211038</ele>
				<time>2019-07-26T12:16:46Z</time>
			</trkpt>
			<trkpt lat="59.7118768003394" lon="9.02809543535954">
				<ele>214.2975771587296</ele>
				<time>2019-07-26T12:16:54Z</time>
			</trkpt>
			<trkpt lat="59.71196883363622" lon="9.028061823927823">
				<ele>214.63017382125759</ele>
				<time>2019-07-26T12:17:01Z</time>
			</trkpt>
			<trkpt lat="59.71205302985358" lon="9.027957469233337">
				<ele>214.9332673933249</ele>
				<time>2019-07-26T12:17:10Z</time>
			</trkpt>
			<trkpt lat="59.71214833209264" lon="9.027967695155207">
				<ele>215.06692864612023</ele>
				<time>2019-07-26T12:17:17Z</time>
			</trkpt>
			<trkpt lat="59.712249836940046" lon="9.027974065401617">
				<ele>215.4195601062753</ele>
				<time>2019-07-26T12:17:26Z</time>
			</trkpt>
			<trkpt lat="59.712349288221176" lon="9.028009520852033">
				<ele>216.08273401107834</ele>
				<time>2019-07-26T12:17:33Z</time>
			</trkpt>
			<trkpt lat="59.712445219102975" lon="9.028054783129159">
				<ele>216.1676000438344</ele>
				<time>2019-07-26T12:17:39Z</time>
			</trkpt>
			<trkpt lat="59.71254047943252" lon="9.02802209370679">
				<ele>216.43069639918292</ele>
				<time>2019-07-26T12:17:46Z</time>
			</trkpt>
			<trkpt lat="59.712615078370746" lon="9.027905166157547">
				<ele>217.07045950181976</ele>
				<time>2019-07-26T12:17:54Z</time>
			</trkpt>
			<trkpt lat="59.71271436201381" lon="9.027943219997946">
				<ele>217.5302710607627</ele>
				<time>2019-07-26T12:18:02Z</time>
			</trkpt>
			<trkpt lat="59.71281251409995" lon="9.027945147835675">
				<ele>218.40008138220213</ele>
				<time>2019-07-26T12:18:09Z</time>
			</trkpt>
			<trkpt lat="59.7129093669911" lon="9.027927462019983">
				<ele>218.96112689685066</ele>
				<time>2019-07-26T12:18:16Z</time>
			</trkpt>
			<trkpt lat="59.71301447605687" lon="9.02790139430112">
				<ele>219.75303801552508</ele>
				<time>2019-07-26T12:18:24Z</time>
			</trkpt>
			<trkpt lat="59.71311086794334" lon="9.027896700435344">
				<ele>220.73868485970604</ele>
				<time>2019-07-26T12:18:32Z</time>
			</trkpt>
			<trkpt lat="59.713205960634824" lon="9.02793609538025">
				<ele>220.51383087757085</ele>
				<time>2019-07-26T12:18:39Z</time>
			</trkpt>
			<trkpt lat="59.71328454097706" lon="9.02805193328208">
				<ele>219.83313886443193</ele>
				<time>2019-07-26T12:18:46Z</time>
			</trkpt>
			<trkpt lat="59.713375107440825" lon="9.028076408439341">
				<ele>220.55883800354593</ele>
				<time>2019-07-26T12:18:55Z</time>
			</trkpt>
			<trkpt lat="59.71340037887889" lon="9.027896448978249">
				<ele>220.96081597824457</ele>
				<time>2019-07-26T12:19:05Z</time>
			</trkpt>
			<trkpt lat="59.713404444101926" lon="9.027713723489109">
				<ele>221.79017809889245</ele>
				<time>2019-07-26T12:19:13Z</time>
			</trkpt>
			<trkpt lat="59.713408090229805" lon="9.027893850588265">
				<ele>221.80043012204715</ele>
				<time>2019-07-26T12:19:29Z</time>
			</trkpt>
			<trkpt lat="59.713346692789074" lon="9.027755381547871">
				<ele>221.72104669918122</ele>
				<time>2019-07-26T12:20:33Z</time>
			</trkpt>
			<trkpt lat="59.713381184320625" lon="9.027572404601637">
				<ele>222.28474083509383</ele>
				<time>2019-07-26T12:20:56Z</time>
			</trkpt>
			<trkpt lat="59.71338688401478" lon="9.027382805951897">
				<ele>223.68097510558874</ele>
				<time>2019-07-26T12:21:06Z</time>
			</trkpt>
			<trkpt lat="59.71340783877271" lon="9.027206534528199">
				<ele>225.23792062585176</ele>
				<time>2019-07-26T12:21:15Z</time>
			</trkpt>
			<trkpt lat="59.71346864948022" lon="9.027050128215018">
				<ele>225.92586493114874</ele>
				<time>2019-07-26T12:21:23Z</time>
			</trkpt>
			<trkpt lat="59.71353742299574" lon="9.026882909246744">
				<ele>226.21754471104015</ele>
				<time>2019-07-26T12:21:30Z</time>
			</trkpt>
			<trkpt lat="59.71357677603113" lon="9.026700686671795">
				<ele>225.96798955782333</ele>
				<time>2019-07-26T12:21:37Z</time>
			</trkpt>
			<trkpt lat="59.71363494643914" lon="9.026563558735909">
				<ele>226.33768143457803</ele>
				<time>2019-07-26T12:21:44Z</time>
			</trkpt>
			<trkpt lat="59.713685615043815" lon="9.026399273433746">
				<ele>226.0811062442931</ele>
				<time>2019-07-26T12:21:50Z</time>
			</trkpt>
			<trkpt lat="59.71373565500575" lon="9.02623138391322">
				<ele>225.5673689373947</ele>
				<time>2019-07-26T12:21:57Z</time>
			</trkpt>
			<trkpt lat="59.713716167080875" lon="9.026056034498872">
				<ele>224.65286545438926</ele>
				<time>2019-07-26T12:22:07Z</time>
			</trkpt>
			<trkpt lat="59.71363356342512" lon="9.025970874362649">
				<ele>224.04599898759085</ele>
				<time>2019-07-26T12:22:43Z</time>
			</trkpt>
			<trkpt lat="59.71356311352896" lon="9.025854952641787">
				<ele>223.78688178798888</ele>
				<time>2019-07-26T12:22:52Z</time>
			</trkpt>
			<trkpt lat="59.71349685458439" lon="9.02571883053428">
				<ele>223.6043513491469</ele>
				<time>2019-07-26T12:22:59Z</time>
			</trkpt>
			<trkpt lat="59.71345071220743" lon="9.025553455584706">
				<ele>223.0046405933279</ele>
				<time>2019-07-26T12:23:15Z</time>
			</trkpt>
			<trkpt lat="59.71338742883849" lon="9.02540459298438">
				<ele>223.1906736646631</ele>
				<time>2019-07-26T12:23:23Z</time>
			</trkpt>
			<trkpt lat="59.71330780075836" lon="9.025312308230461">
				<ele>223.8229787020042</ele>
				<time>2019-07-26T12:23:31Z</time>
			</trkpt>
			<trkpt lat="59.713214552085574" lon="9.025233015426458">
				<ele>224.22165737568827</ele>
				<time>2019-07-26T12:23:38Z</time>
			</trkpt>
			<trkpt lat="59.71312235115069" lon="9.025180041798414">
				<ele>224.66008433643862</ele>
				<time>2019-07-26T12:23:45Z</time>
			</trkpt>
			<trkpt lat="59.71303417352932" lon="9.025114495315613">
				<ele>224.4804557684019</ele>
				<time>2019-07-26T12:23:52Z</time>
			</trkpt>
			<trkpt lat="59.7129421402325" lon="9.025061689325632">
				<ele>224.54456366210536</ele>
				<time>2019-07-26T12:23:59Z</time>
			</trkpt>
			<trkpt lat="59.71284256322282" lon="9.024989185863198">
				<ele>224.45841093939782</ele>
				<time>2019-07-26T12:24:05Z</time>
			</trkpt>
			<trkpt lat="59.712741142194446" lon="9.024945683785736">
				<ele>224.57787530123898</ele>
				<time>2019-07-26T12:24:11Z</time>
			</trkpt>
			<trkpt lat="59.71265304839211" lon="9.024906540297925">
				<ele>223.41224343035356</ele>
				<time>2019-07-26T12:24:16Z</time>
			</trkpt>
			<trkpt lat="59.71257019327926" lon="9.024798162289917">
				<ele>223.7492940204374</ele>
				<time>2019-07-26T12:24:21Z</time>
			</trkpt>
			<trkpt lat="59.71248302148628" lon="9.024657849230826">
				<ele>223.88417205657004</ele>
				<time>2019-07-26T12:24:26Z</time>
			</trkpt>
			<trkpt lat="59.71239551441717" lon="9.024574868389427">
				<ele>224.05583578668802</ele>
				<time>2019-07-26T12:24:30Z</time>
			</trkpt>
			<trkpt lat="59.712314796689625" lon="9.024477051579415">
				<ele>224.0890494893539</ele>
				<time>2019-07-26T12:24:34Z</time>
			</trkpt>
			<trkpt lat="59.712229510824855" lon="9.024351993584096">
				<ele>224.18088777163865</ele>
				<time>2019-07-26T12:24:39Z</time>
			</trkpt>
			<trkpt lat="59.71215419942486" lon="9.024227689960062">
				<ele>224.6708052471862</ele>
				<time>2019-07-26T12:24:44Z</time>
			</trkpt>
			<trkpt lat="59.71209003595608" lon="9.024078659721672">
				<ele>224.94613584123675</ele>
				<time>2019-07-26T12:24:49Z</time>
			</trkpt>
			<trkpt lat="59.712034338209506" lon="9.023897694432199">
				<ele>225.17020505789316</ele>
				<time>2019-07-26T12:24:54Z</time>
			</trkpt>
			<trkpt lat="59.71199087804156" lon="9.023734331139385">
				<ele>225.88600500898593</ele>
				<time>2019-07-26T12:24:58Z</time>
			</trkpt>
			<trkpt lat="59.71194331074106" lon="9.023574739703">
				<ele>226.88397748328958</ele>
				<time>2019-07-26T12:25:03Z</time>
			</trkpt>
			<trkpt lat="59.7118712682833" lon="9.023442221813857">
				<ele>227.33340950450156</ele>
				<time>2019-07-26T12:25:08Z</time>
			</trkpt>
			<trkpt lat="59.711799016277965" lon="9.023315152161777">
				<ele>227.27780300021817</ele>
				<time>2019-07-26T12:25:13Z</time>
			</trkpt>
			<trkpt lat="59.711703965496" lon="9.023210210734069">
				<ele>227.71879152484541</ele>
				<time>2019-07-26T12:25:18Z</time>
			</trkpt>
			<trkpt lat="59.71161239320385" lon="9.02309789323157">
				<ele>228.19424244302263</ele>
				<time>2019-07-26T12:25:23Z</time>
			</trkpt>
			<trkpt lat="59.711526352967795" lon="9.022981971510706">
				<ele>228.6156234934113</ele>
				<time>2019-07-26T12:25:28Z</time>
			</trkpt>
			<trkpt lat="59.71144848508733" lon="9.022873342045603">
				<ele>228.44969906625914</ele>
				<time>2019-07-26T12:25:33Z</time>
			</trkpt>
			<trkpt lat="59.71136772545027" lon="9.022747445859967">
				<ele>227.82163336031596</ele>
				<time>2019-07-26T12:25:38Z</time>
			</trkpt>
			<trkpt lat="59.71129622781622" lon="9.022611407571492">
				<ele>227.2284472748865</ele>
				<time>2019-07-26T12:25:43Z</time>
			</trkpt>
			<trkpt lat="59.711198452915724" lon="9.022542005413232">
				<ele>226.86619221680633</ele>
				<time>2019-07-26T12:25:48Z</time>
			</trkpt>
			<trkpt lat="59.711109520923074" lon="9.022497329869328">
				<ele>226.8336950494898</ele>
				<time>2019-07-26T12:25:53Z</time>
			</trkpt>
			<trkpt lat="59.71101958310204" lon="9.02244418860322">
				<ele>226.89984623424647</ele>
				<time>2019-07-26T12:25:58Z</time>
			</trkpt>
			<trkpt lat="59.710914557855304" lon="9.02241485194212">
				<ele>226.54853846111</ele>
				<time>2019-07-26T12:26:03Z</time>
			</trkpt>
			<trkpt lat="59.71081829169738" lon="9.02245097794479">
				<ele>226.34211226852017</ele>
				<time>2019-07-26T12:26:07Z</time>
			</trkpt>
			<trkpt lat="59.710713517907735" lon="9.022424407311735">
				<ele>226.39271574202093</ele>
				<time>2019-07-26T12:26:12Z</time>
			</trkpt>
			<trkpt lat="59.710625885110076" lon="9.022377049558816">
				<ele>226.63335554364664</ele>
				<time>2019-07-26T12:26:16Z</time>
			</trkpt>
			<trkpt lat="59.710528780761834" lon="9.02233715169972">
				<ele>226.8763805916131</ele>
				<time>2019-07-26T12:26:20Z</time>
			</trkpt>
			<trkpt lat="59.71043419098454" lon="9.022290045403896">
				<ele>226.95869220965955</ele>
				<time>2019-07-26T12:26:24Z</time>
			</trkpt>
			<trkpt lat="59.71033821819323" lon="9.022241681822596">
				<ele>227.16477785503264</ele>
				<time>2019-07-26T12:26:29Z</time>
			</trkpt>
			<trkpt lat="59.71025242941427" lon="9.022131878891049">
				<ele>227.23611444136213</ele>
				<time>2019-07-26T12:26:34Z</time>
			</trkpt>
			<trkpt lat="59.71016965812045" lon="9.022057866686044">
				<ele>228.17456789230238</ele>
				<time>2019-07-26T12:26:38Z</time>
			</trkpt>
			<trkpt lat="59.710063962321456" lon="9.02205526829606">
				<ele>229.15313704064658</ele>
				<time>2019-07-26T12:26:43Z</time>
			</trkpt>
			<trkpt lat="59.709962080288406" lon="9.022036241375861">
				<ele>229.6818709161759</ele>
				<time>2019-07-26T12:26:48Z</time>
			</trkpt>
			<trkpt lat="59.709870214629646" lon="9.021967593588887">
				<ele>230.4853549117807</ele>
				<time>2019-07-26T12:26:53Z</time>
			</trkpt>
			<trkpt lat="59.70976544084" lon="9.021987039604245">
				<ele>230.68040464303124</ele>
				<time>2019-07-26T12:26:58Z</time>
			</trkpt>
			<trkpt lat="59.709673239905115" lon="9.02196826414114">
				<ele>231.11708874172695</ele>
				<time>2019-07-26T12:27:05Z</time>
			</trkpt>
			<trkpt lat="59.70956553244936" lon="9.021934149795232">
				<ele>231.342536299303</ele>
				<time>2019-07-26T12:27:15Z</time>
			</trkpt>
			<trkpt lat="59.70947274478125" lon="9.021905483686385">
				<ele>231.38021443945524</ele>
				<time>2019-07-26T12:27:19Z</time>
			</trkpt>
			<trkpt lat="59.70936403149712" lon="9.021852342420278">
				<ele>231.47583332551307</ele>
				<time>2019-07-26T12:27:24Z</time>
			</trkpt>
			<trkpt lat="59.709272501114484" lon="9.021852845334468">
				<ele>231.8601918287776</ele>
				<time>2019-07-26T12:27:28Z</time>
			</trkpt>
			<trkpt lat="59.70917149918127" lon="9.021821329378543">
				<ele>232.4211427632012</ele>
				<time>2019-07-26T12:27:33Z</time>
			</trkpt>
			<trkpt lat="59.70906907232451" lon="9.021807080143152">
				<ele>233.15922296765513</ele>
				<time>2019-07-26T12:27:38Z</time>
			</trkpt>
			<trkpt lat="59.70896823802936" lon="9.021790148698745">
				<ele>233.73777584385817</ele>
				<time>2019-07-26T12:27:43Z</time>
			</trkpt>
			<trkpt lat="59.708859399016674" lon="9.021782856442986">
				<ele>234.08808158207057</ele>
				<time>2019-07-26T12:27:48Z</time>
			</trkpt>
			<trkpt lat="59.70875089528012" lon="9.021802805372534">
				<ele>234.2649407511616</ele>
				<time>2019-07-26T12:27:53Z</time>
			</trkpt>
			<trkpt lat="59.708639751244064" lon="9.0218235924924">
				<ele>234.5814472995591</ele>
				<time>2019-07-26T12:27:58Z</time>
			</trkpt>
			<trkpt lat="59.70854763412821" lon="9.02182065882629">
				<ele>234.65646090276374</ele>
				<time>2019-07-26T12:28:02Z</time>
			</trkpt>
			<trkpt lat="59.70843896275359" lon="9.021809594714103">
				<ele>234.87550719410382</ele>
				<time>2019-07-26T12:28:07Z</time>
			</trkpt>
			<trkpt lat="59.708343702424045" lon="9.021795932211933">
				<ele>235.28951767688181</ele>
				<time>2019-07-26T12:28:13Z</time>
			</trkpt>
			<trkpt lat="59.70824772963273" lon="9.021813450389562">
				<ele>235.1294070268649</ele>
				<time>2019-07-26T12:28:19Z</time>
			</trkpt>
			<trkpt lat="59.708155612516876" lon="9.021760225304423">
				<ele>234.13500299528727</ele>
				<time>2019-07-26T12:28:27Z</time>
			</trkpt>
			<trkpt lat="59.708068817909535" lon="9.021677244463024">
				<ele>233.14301849139088</ele>
				<time>2019-07-26T12:28:34Z</time>
			</trkpt>
			<trkpt lat="59.7079910338481" lon="9.02158420533782">
				<ele>231.68922869060748</ele>
				<time>2019-07-26T12:28:38Z</time>
			</trkpt>
			<trkpt lat="59.70793919177699" lon="9.02143073269075">
				<ele>231.01293305679707</ele>
				<time>2019-07-26T12:28:41Z</time>
			</trkpt>
			<trkpt lat="59.70787423202741" lon="9.021267704674063">
				<ele>229.988820593088</ele>
				<time>2019-07-26T12:28:45Z</time>
			</trkpt>
			<trkpt lat="59.70779485540437" lon="9.021112471827324">
				<ele>229.56322423623084</ele>
				<time>2019-07-26T12:28:50Z</time>
			</trkpt>
			<trkpt lat="59.70772000500905" lon="9.021000657239016">
				<ele>228.63807634418743</ele>
				<time>2019-07-26T12:28:53Z</time>
			</trkpt>
			<trkpt lat="59.70765110576498" lon="9.020815752455052">
				<ele>228.36522319919362</ele>
				<time>2019-07-26T12:28:57Z</time>
			</trkpt>
			<trkpt lat="59.70758103305447" lon="9.020623974510487">
				<ele>227.61807068833843</ele>
				<time>2019-07-26T12:29:01Z</time>
			</trkpt>
			<trkpt lat="59.70751473220038" lon="9.020449295648392">
				<ele>227.49193623476782</ele>
				<time>2019-07-26T12:29:05Z</time>
			</trkpt>
			<trkpt lat="59.70746393786716" lon="9.020259194084462">
				<ele>227.6050583668993</ele>
				<time>2019-07-26T12:29:09Z</time>
			</trkpt>
			<trkpt lat="59.70741150906282" lon="9.020044533544239">
				<ele>227.20492879069093</ele>
				<time>2019-07-26T12:29:13Z</time>
			</trkpt>
			<trkpt lat="59.70737244939404" lon="9.019873877995666">
				<ele>226.71238193247757</ele>
				<time>2019-07-26T12:29:16Z</time>
			</trkpt>
			<trkpt lat="59.70730082603144" lon="9.01972258464342">
				<ele>226.5403750037429</ele>
				<time>2019-07-26T12:29:20Z</time>
			</trkpt>
			<trkpt lat="59.70722798729288" lon="9.019614206635412">
				<ele>226.55133780609873</ele>
				<time>2019-07-26T12:29:24Z</time>
			</trkpt>
			<trkpt lat="59.707131930682536" lon="9.01951395907348">
				<ele>227.35759132997316</ele>
				<time>2019-07-26T12:29:29Z</time>
			</trkpt>
			<trkpt lat="59.70703746663379" lon="9.019420249396022">
				<ele>227.44741956885946</ele>
				<time>2019-07-26T12:29:35Z</time>
			</trkpt>
			<trkpt lat="59.70695389905917" lon="9.019355038189348">
				<ele>227.54929894869565</ele>
				<time>2019-07-26T12:29:39Z</time>
			</trkpt>
			<trkpt lat="59.70687054103213" lon="9.019267112025078">
				<ele>226.98402070734824</ele>
				<time>2019-07-26T12:29:43Z</time>
			</trkpt>
			<trkpt lat="59.70678110612529" lon="9.019181616612727">
				<ele>226.30320376210432</ele>
				<time>2019-07-26T12:29:47Z</time>
			</trkpt>
			<trkpt lat="59.70668559433865" lon="9.019109280788356">
				<ele>225.15126015712127</ele>
				<time>2019-07-26T12:29:51Z</time>
			</trkpt>
			<trkpt lat="59.70659037591862" lon="9.019028898336941">
				<ele>225.0207124619456</ele>
				<time>2019-07-26T12:29:55Z</time>
			</trkpt>
			<trkpt lat="59.706510119195755" lon="9.018944995486194">
				<ele>224.8695884826198</ele>
				<time>2019-07-26T12:29:59Z</time>
			</trkpt>
			<trkpt lat="59.70641050027656" lon="9.018892776229436">
				<ele>225.43340606293043</ele>
				<time>2019-07-26T12:30:03Z</time>
			</trkpt>
			<trkpt lat="59.70630643894869" lon="9.018918257215077">
				<ele>226.29475568804526</ele>
				<time>2019-07-26T12:30:07Z</time>
			</trkpt>
			<trkpt lat="59.706199863049854" lon="9.018940050163323">
				<ele>226.51589597759892</ele>
				<time>2019-07-26T12:30:12Z</time>
			</trkpt>
			<trkpt lat="59.706110009047855" lon="9.018903672703559">
				<ele>226.3234883729515</ele>
				<time>2019-07-26T12:30:16Z</time>
			</trkpt>
			<trkpt lat="59.70601323997574" lon="9.018900990494544">
				<ele>226.25260711797955</ele>
				<time>2019-07-26T12:30:20Z</time>
			</trkpt>
			<trkpt lat="59.705912908594776" lon="9.018925298013741">
				<ele>225.6639901899685</ele>
				<time>2019-07-26T12:30:24Z</time>
			</trkpt>
			<trkpt lat="59.705816307160724" lon="9.018911467873508">
				<ele>225.2287779953951</ele>
				<time>2019-07-26T12:30:28Z</time>
			</trkpt>
			<trkpt lat="59.705708641614486" lon="9.018874252223426">
				<ele>224.0307205538753</ele>
				<time>2019-07-26T12:30:33Z</time>
			</trkpt>
			<trkpt lat="59.705602526720334" lon="9.018854051836783">
				<ele>223.65875252955465</ele>
				<time>2019-07-26T12:30:40Z</time>
			</trkpt>
			<trkpt lat="59.70550127333002" lon="9.018827145927602">
				<ele>223.55176870757703</ele>
				<time>2019-07-26T12:30:44Z</time>
			</trkpt>
			<trkpt lat="59.70540085813003" lon="9.01880602353161">
				<ele>223.33526376923396</ele>
				<time>2019-07-26T12:30:48Z</time>
			</trkpt>
			<trkpt lat="59.70530190976309" lon="9.018756570302898">
				<ele>222.90718756343568</ele>
				<time>2019-07-26T12:30:52Z</time>
			</trkpt>
			<trkpt lat="59.70521042128997" lon="9.0186926163817">
				<ele>223.07690634178715</ele>
				<time>2019-07-26T12:30:56Z</time>
			</trkpt>
			<trkpt lat="59.7051026719247" lon="9.018631009393388">
				<ele>223.20303090184586</ele>
				<time>2019-07-26T12:31:01Z</time>
			</trkpt>
			<trkpt lat="59.70500607049065" lon="9.018599409618432">
				<ele>222.47521430676528</ele>
				<time>2019-07-26T12:31:05Z</time>
			</trkpt>
			<trkpt lat="59.70491428865092" lon="9.018537970268184">
				<ele>221.9041128469932</ele>
				<time>2019-07-26T12:31:09Z</time>
			</trkpt>
			<trkpt lat="59.70482665585326" lon="9.018483236440474">
				<ele>221.20576830734166</ele>
				<time>2019-07-26T12:31:13Z</time>
			</trkpt>
			<trkpt lat="59.70471878075944" lon="9.018453061589057">
				<ele>220.2388792972509</ele>
				<time>2019-07-26T12:31:18Z</time>
			</trkpt>
			<trkpt lat="59.70461316877948" lon="9.018375780441815">
				<ele>219.18758909844934</ele>
				<time>2019-07-26T12:31:23Z</time>
			</trkpt>
			<trkpt lat="59.70451572915511" lon="9.018324483194405">
				<ele>218.4842687495597</ele>
				<time>2019-07-26T12:31:27Z</time>
			</trkpt>
			<trkpt lat="59.70441191928433" lon="9.018311826520616">
				<ele>217.37564381642068</ele>
				<time>2019-07-26T12:31:31Z</time>
			</trkpt>
			<trkpt lat="59.70432055653976" lon="9.018365889796073">
				<ele>216.5765206447531</ele>
				<time>2019-07-26T12:31:35Z</time>
			</trkpt>
			<trkpt lat="59.70422617631005" lon="9.018352311112935">
				<ele>215.90898598242887</ele>
				<time>2019-07-26T12:31:40Z</time>
			</trkpt>
			<trkpt lat="59.7041279823144" lon="9.01830713265484">
				<ele>214.44290695171583</ele>
				<time>2019-07-26T12:31:48Z</time>
			</trkpt>
			<trkpt lat="59.7040354880129" lon="9.018253237017447">
				<ele>213.18427846430347</ele>
				<time>2019-07-26T12:31:55Z</time>
			</trkpt>
			<trkpt lat="59.70393599482225" lon="9.018220212318951">
				<ele>211.00395400794685</ele>
				<time>2019-07-26T12:32:02Z</time>
			</trkpt>
			<trkpt lat="59.703845009263325" lon="9.018197413542325">
				<ele>209.54923941379627</ele>
				<time>2019-07-26T12:32:08Z</time>
			</trkpt>
			<trkpt lat="59.703749413657654" lon="9.018141422429139">
				<ele>207.88241017520807</ele>
				<time>2019-07-26T12:32:13Z</time>
			</trkpt>
			<trkpt lat="59.703647824991215" lon="9.018058357768709">
				<ele>206.94248996722746</ele>
				<time>2019-07-26T12:32:18Z</time>
			</trkpt>
			<trkpt lat="59.703552816118766" lon="9.018081827097589">
				<ele>205.21060903522925</ele>
				<time>2019-07-26T12:32:25Z</time>
			</trkpt>
			<trkpt lat="59.70346019608872" lon="9.018110409387404">
				<ele>203.89845398892942</ele>
				<time>2019-07-26T12:32:33Z</time>
			</trkpt>
			<trkpt lat="59.703358355965186" lon="9.01811116375869">
				<ele>202.5917698026559</ele>
				<time>2019-07-26T12:32:39Z</time>
			</trkpt>
			<trkpt lat="59.70326611312078" lon="9.018090292819792">
				<ele>200.67077659900804</ele>
				<time>2019-07-26T12:32:45Z</time>
			</trkpt>
			<trkpt lat="59.70316808676319" lon="9.018091801562363">
				<ele>197.94488815181643</ele>
				<time>2019-07-26T12:32:54Z</time>
			</trkpt>
			<trkpt lat="59.70306842593448" lon="9.01805399917906">
				<ele>196.65161857984816</ele>
				<time>2019-07-26T12:33:01Z</time>
			</trkpt>
			<trkpt lat="59.70297312369542" lon="9.018016532071883">
				<ele>195.0041269906851</ele>
				<time>2019-07-26T12:33:07Z</time>
			</trkpt>
			<trkpt lat="59.70287115784334" lon="9.018017537900263">
				<ele>192.54934711068017</ele>
				<time>2019-07-26T12:33:14Z</time>
			</trkpt>
			<trkpt lat="59.702779753189255" lon="9.01798560284918">
				<ele>190.67730652157718</ele>
				<time>2019-07-26T12:33:19Z</time>
			</trkpt>
			<trkpt lat="59.7026797151749" lon="9.017927600079233">
				<ele>189.92646034180723</ele>
				<time>2019-07-26T12:33:24Z</time>
			</trkpt>
			<trkpt lat="59.70258575404035" lon="9.017868759118969">
				<ele>189.92256174418839</ele>
				<time>2019-07-26T12:33:29Z</time>
			</trkpt>
			<trkpt lat="59.70247364608543" lon="9.017878817402774">
				<ele>189.75353034631019</ele>
				<time>2019-07-26T12:33:34Z</time>
			</trkpt>
			<trkpt lat="59.70236690254854" lon="9.017919218176061">
				<ele>190.0284885223943</ele>
				<time>2019-07-26T12:33:39Z</time>
			</trkpt>
			<trkpt lat="59.70228836411582" lon="9.018025584527308">
				<ele>189.71158020768308</ele>
				<time>2019-07-26T12:33:43Z</time>
			</trkpt>
			<trkpt lat="59.70221573492484" lon="9.018159443520958">
				<ele>189.7751393318564</ele>
				<time>2019-07-26T12:33:47Z</time>
			</trkpt>
			<trkpt lat="59.702127473484445" lon="9.018197832637483">
				<ele>189.57618986716722</ele>
				<time>2019-07-26T12:33:51Z</time>
			</trkpt>
			<trkpt lat="59.70204378018128" lon="9.018308725216443">
				<ele>189.70383728644532</ele>
				<time>2019-07-26T12:34:01Z</time>
			</trkpt>
			<trkpt lat="59.701954261455406" lon="9.018397405751998">
				<ele>189.76660983409005</ele>
				<time>2019-07-26T12:34:06Z</time>
			</trkpt>
			<trkpt lat="59.701852798517514" lon="9.018489690505916">
				<ele>189.41134249774416</ele>
				<time>2019-07-26T12:34:11Z</time>
			</trkpt>
			<trkpt lat="59.70175992703037" lon="9.018564959996397">
				<ele>189.67795449302133</ele>
				<time>2019-07-26T12:34:15Z</time>
			</trkpt>
			<trkpt lat="59.70167133031385" lon="9.018638469287211">
				<ele>189.7536349876632</ele>
				<time>2019-07-26T12:34:19Z</time>
			</trkpt>
			<trkpt lat="59.70158985821502" lon="9.018730670222098">
				<ele>190.07345384423553</ele>
				<time>2019-07-26T12:34:23Z</time>
			</trkpt>
			<trkpt lat="59.701501806322206" lon="9.01880258695131">
				<ele>189.9591889576526</ele>
				<time>2019-07-26T12:34:26Z</time>
			</trkpt>
			<trkpt lat="59.70141957985209" lon="9.018884478145296">
				<ele>189.74827349449714</ele>
				<time>2019-07-26T12:34:30Z</time>
			</trkpt>
			<trkpt lat="59.70133240805911" lon="9.019007524483854">
				<ele>189.20786363179485</ele>
				<time>2019-07-26T12:34:35Z</time>
			</trkpt>
			<trkpt lat="59.70122972974526" lon="9.019059995197708">
				<ele>189.03100946320006</ele>
				<time>2019-07-26T12:34:39Z</time>
			</trkpt>
			<trkpt lat="59.70113815745311" lon="9.01915688999837">
				<ele>189.40968686478902</ele>
				<time>2019-07-26T12:34:44Z</time>
			</trkpt>
			<trkpt lat="59.70104788435595" lon="9.01923794300204">
				<ele>189.5153104725589</ele>
				<time>2019-07-26T12:34:49Z</time>
			</trkpt>
			<trkpt lat="59.700999185498524" lon="9.019424691804703">
				<ele>189.40198943045493</ele>
				<time>2019-07-26T12:34:55Z</time>
			</trkpt>
			<trkpt lat="59.70089977612691" lon="9.01952175424343">
				<ele>188.71209034259772</ele>
				<time>2019-07-26T12:35:00Z</time>
			</trkpt>
			<trkpt lat="59.70080489298301" lon="9.019569028177317">
				<ele>188.65485150506555</ele>
				<time>2019-07-26T12:35:05Z</time>
			</trkpt>
			<trkpt lat="59.70071881083744" lon="9.019646728419717">
				<ele>188.47480447606546</ele>
				<time>2019-07-26T12:35:09Z</time>
			</trkpt>
			<trkpt lat="59.70062841201173" lon="9.019723422833737">
				<ele>188.57159544046186</ele>
				<time>2019-07-26T12:35:13Z</time>
			</trkpt>
			<trkpt lat="59.70052854163544" lon="9.019761476674136">
				<ele>188.61846404823268</ele>
				<time>2019-07-26T12:35:17Z</time>
			</trkpt>
			<trkpt lat="59.70044895546483" lon="9.01986231096929">
				<ele>188.55128340351973</ele>
				<time>2019-07-26T12:35:21Z</time>
			</trkpt>
			<trkpt lat="59.700393341537286" lon="9.020026428633388">
				<ele>188.5054987773641</ele>
				<time>2019-07-26T12:35:25Z</time>
			</trkpt>
			<trkpt lat="59.70029762020307" lon="9.020156431951579">
				<ele>188.56264451083632</ele>
				<time>2019-07-26T12:35:30Z</time>
			</trkpt>
			<trkpt lat="59.70020022248821" lon="9.020230527975615">
				<ele>188.65116942339642</ele>
				<time>2019-07-26T12:35:34Z</time>
			</trkpt>
			<trkpt lat="59.70010341150658" lon="9.02024787851518">
				<ele>188.43781789582357</ele>
				<time>2019-07-26T12:35:39Z</time>
			</trkpt>
			<trkpt lat="59.70000764826285" lon="9.020123993986305">
				<ele>188.634551032344</ele>
				<time>2019-07-26T12:35:44Z</time>
			</trkpt>
			<trkpt lat="59.69994532881277" lon="9.019959038131889">
				<ele>188.72804539274017</ele>
				<time>2019-07-26T12:35:48Z</time>
			</trkpt>
			<trkpt lat="59.699908113162685" lon="9.019768266015705">
				<ele>188.46867181980815</ele>
				<time>2019-07-26T12:35:53Z</time>
			</trkpt>
			<trkpt lat="59.69981176318573" lon="9.019868345939573">
				<ele>189.12848524133932</ele>
				<time>2019-07-26T12:35:58Z</time>
			</trkpt>
			<trkpt lat="59.69975262885885" lon="9.020029781394657">
				<ele>189.95460472416022</ele>
				<time>2019-07-26T12:36:02Z</time>
			</trkpt>
			<trkpt lat="59.699707995224465" lon="9.020214769997652">
				<ele>190.4675224680579</ele>
				<time>2019-07-26T12:36:07Z</time>
			</trkpt>
			<trkpt lat="59.699644544217456" lon="9.02035977692252">
				<ele>191.11466861864272</ele>
				<time>2019-07-26T12:36:12Z</time>
			</trkpt>
			<trkpt lat="59.69957417814033" lon="9.020515009769257">
				<ele>191.17911649452145</ele>
				<time>2019-07-26T12:36:17Z</time>
			</trkpt>
			<trkpt lat="59.69951458280878" lon="9.020679211252387">
				<ele>191.25313729591937</ele>
				<time>2019-07-26T12:36:22Z</time>
			</trkpt>
			<trkpt lat="59.699453939739335" lon="9.020829079681095">
				<ele>191.10332382783446</ele>
				<time>2019-07-26T12:36:27Z</time>
			</trkpt>
			<trkpt lat="59.69940322922515" lon="9.021019013606962">
				<ele>191.0021602342918</ele>
				<time>2019-07-26T12:36:32Z</time>
			</trkpt>
			<trkpt lat="59.69933998776572" lon="9.021197464325486">
				<ele>190.9426248283624</ele>
				<time>2019-07-26T12:36:37Z</time>
			</trkpt>
			<trkpt lat="59.69928219454335" lon="9.021338783212958">
				<ele>190.6574210904962</ele>
				<time>2019-07-26T12:36:41Z</time>
			</trkpt>
			<trkpt lat="59.69922431750195" lon="9.021517485388575">
				<ele>190.34704554957892</ele>
				<time>2019-07-26T12:36:45Z</time>
			</trkpt>
			<trkpt lat="59.69917310407357" lon="9.021679591395912">
				<ele>190.0358373508259</ele>
				<time>2019-07-26T12:36:49Z</time>
			</trkpt>
			<trkpt lat="59.699129476267565" lon="9.021864999094067">
				<ele>189.97997162881785</ele>
				<time>2019-07-26T12:36:54Z</time>
			</trkpt>
			<trkpt lat="59.69906740827458" lon="9.022014448427615">
				<ele>189.89866899806367</ele>
				<time>2019-07-26T12:36:59Z</time>
			</trkpt>
			<trkpt lat="59.6990214754452" lon="9.022192228593884">
				<ele>189.37496760910494</ele>
				<time>2019-07-26T12:37:04Z</time>
			</trkpt>
			<trkpt lat="59.698938662241865" lon="9.022272527226267">
				<ele>188.26688080424168</ele>
				<time>2019-07-26T12:37:08Z</time>
			</trkpt>
			<trkpt lat="59.69884449155973" lon="9.022361543037949">
				<ele>187.2424919121206</ele>
				<time>2019-07-26T12:37:12Z</time>
			</trkpt>
			<trkpt lat="59.69875882850932" lon="9.022443853327093">
				<ele>186.60850327433275</ele>
				<time>2019-07-26T12:37:16Z</time>
			</trkpt>
			<trkpt lat="59.69870551960515" lon="9.022590117537437">
				<ele>186.0314555058194</ele>
				<time>2019-07-26T12:37:20Z</time>
			</trkpt>
			<trkpt lat="59.698738544303644" lon="9.022789523013888">
				<ele>185.4077928735884</ele>
				<time>2019-07-26T12:37:24Z</time>
			</trkpt>
			<trkpt lat="59.698811885956395" lon="9.022952886306701">
				<ele>185.12807714875862</ele>
				<time>2019-07-26T12:37:28Z</time>
			</trkpt>
			<trkpt lat="59.698882922585774" lon="9.023093031727731">
				<ele>184.61015744372088</ele>
				<time>2019-07-26T12:37:32Z</time>
			</trkpt>
			<trkpt lat="59.698938159327675" lon="9.0232742484743">
				<ele>183.96048237254985</ele>
				<time>2019-07-26T12:37:36Z</time>
			</trkpt>
			<trkpt lat="59.6989747044255" lon="9.023455800496995">
				<ele>183.84526322405713</ele>
				<time>2019-07-26T12:37:39Z</time>
			</trkpt>
			<trkpt lat="59.69897348904954" lon="9.02367590927428">
				<ele>183.769068563603</ele>
				<time>2019-07-26T12:37:43Z</time>
			</trkpt>
			<trkpt lat="59.6989591140856" lon="9.023867351942718">
				<ele>183.9185248326948</ele>
				<time>2019-07-26T12:37:47Z</time>
			</trkpt>
			<trkpt lat="59.6989332140048" lon="9.024055022754728">
				<ele>184.06011587372848</ele>
				<time>2019-07-26T12:37:51Z</time>
			</trkpt>
			<trkpt lat="59.69893111852901" lon="9.024258954458892">
				<ele>184.42111135257835</ele>
				<time>2019-07-26T12:37:55Z</time>
			</trkpt>
			<trkpt lat="59.69902059534537" lon="9.024393903099954">
				<ele>183.7632435125268</ele>
				<time>2019-07-26T12:38:00Z</time>
			</trkpt>
			<trkpt lat="59.69908693810897" lon="9.024536563091933">
				<ele>183.26595619058241</ele>
				<time>2019-07-26T12:38:04Z</time>
			</trkpt>
			<trkpt lat="59.69909900804954" lon="9.024749379613459">
				<ele>183.1849680693581</ele>
				<time>2019-07-26T12:38:08Z</time>
			</trkpt>
			<trkpt lat="59.699079687762726" lon="9.024962615230143">
				<ele>183.01690039733649</ele>
				<time>2019-07-26T12:38:12Z</time>
			</trkpt>
			<trkpt lat="59.69906996475505" lon="9.02517543175167">
				<ele>183.12871304983724</ele>
				<time>2019-07-26T12:38:16Z</time>
			</trkpt>
			<trkpt lat="59.699031533729006" lon="9.02536159382111">
				<ele>183.42803179688275</ele>
				<time>2019-07-26T12:38:20Z</time>
			</trkpt>
			<trkpt lat="59.69897210603552" lon="9.025508612402739">
				<ele>183.89034450116782</ele>
				<time>2019-07-26T12:38:24Z</time>
			</trkpt>
			<trkpt lat="59.69888107856708" lon="9.025573236876191">
				<ele>184.42960302005923</ele>
				<time>2019-07-26T12:38:29Z</time>
			</trkpt>
			<trkpt lat="59.698869553450216" lon="9.025752190508904">
				<ele>184.22067600518693</ele>
				<time>2019-07-26T12:38:49Z</time>
			</trkpt>
			<trkpt lat="59.698961838204134" lon="9.02570558712727">
				<ele>184.03918245633986</ele>
				<time>2019-07-26T12:39:07Z</time>
			</trkpt>
			<trkpt lat="59.69905483541982" lon="9.025680525236787">
				<ele>184.01049512062468</ele>
				<time>2019-07-26T12:39:35Z</time>
			</trkpt>
			<trkpt lat="59.69910885678576" lon="9.025529483341636">
				<ele>184.02915657036175</ele>
				<time>2019-07-26T12:40:10Z</time>
			</trkpt>
			<trkpt lat="59.69914058228927" lon="9.025338711225452">
				<ele>183.6820906428252</ele>
				<time>2019-07-26T12:40:15Z</time>
			</trkpt>
			<trkpt lat="59.699193011093605" lon="9.025171827533306">
				<ele>183.10866476681406</ele>
				<time>2019-07-26T12:40:20Z</time>
			</trkpt>
			<trkpt lat="59.699207386057545" lon="9.024975439541995">
				<ele>183.2288980178003</ele>
				<time>2019-07-26T12:40:25Z</time>
			</trkpt>
			<trkpt lat="59.69914820982115" lon="9.024785170340001">
				<ele>183.37775186031934</ele>
				<time>2019-07-26T12:40:29Z</time>
			</trkpt>
			<trkpt lat="59.69915059866356" lon="9.02460336686021">
				<ele>183.69347467343863</ele>
				<time>2019-07-26T12:40:33Z</time>
			</trkpt>
			<trkpt lat="59.69909754121648" lon="9.024420054637849">
				<ele>183.79708712470114</ele>
				<time>2019-07-26T12:40:38Z</time>
			</trkpt>
			<trkpt lat="59.699038825984765" lon="9.02426767163819">
				<ele>184.22041068048946</ele>
				<time>2019-07-26T12:40:42Z</time>
			</trkpt>
			<trkpt lat="59.6989696752836" lon="9.02409567498511">
				<ele>184.28333349676683</ele>
				<time>2019-07-26T12:40:47Z</time>
			</trkpt>
			<trkpt lat="59.6989257960205" lon="9.023899622269928">
				<ele>184.2709597590026</ele>
				<time>2019-07-26T12:40:51Z</time>
			</trkpt>
			<trkpt lat="59.69896938191699" lon="9.023709688344061">
				<ele>184.23628800112255</ele>
				<time>2019-07-26T12:40:55Z</time>
			</trkpt>
			<trkpt lat="59.69902059534537" lon="9.023501817145407">
				<ele>184.21231496817984</ele>
				<time>2019-07-26T12:40:59Z</time>
			</trkpt>
			<trkpt lat="59.69902533112066" lon="9.023322779693663">
				<ele>184.43392361014372</ele>
				<time>2019-07-26T12:41:03Z</time>
			</trkpt>
			<trkpt lat="59.698955258410145" lon="9.023157656201183">
				<ele>184.63119935999651</ele>
				<time>2019-07-26T12:41:07Z</time>
			</trkpt>
			<trkpt lat="59.6988893347417" lon="9.023004518830238">
				<ele>185.12768935292377</ele>
				<time>2019-07-26T12:41:11Z</time>
			</trkpt>
			<trkpt lat="59.69882789539145" lon="9.02284484357482">
				<ele>185.71256729992677</ele>
				<time>2019-07-26T12:41:16Z</time>
			</trkpt>
			<trkpt lat="59.698793655317" lon="9.02267234400755">
				<ele>186.34868743125617</ele>
				<time>2019-07-26T12:41:21Z</time>
			</trkpt>
			<trkpt lat="59.69882102223085" lon="9.022482493900714">
				<ele>187.14952965666066</ele>
				<time>2019-07-26T12:41:26Z</time>
			</trkpt>
			<trkpt lat="59.69890106940614" lon="9.022362381228266">
				<ele>187.92096066064494</ele>
				<time>2019-07-26T12:41:32Z</time>
			</trkpt>
			<trkpt lat="59.6989791887437" lon="9.022274371244965">
				<ele>189.18867218375817</ele>
				<time>2019-07-26T12:41:40Z</time>
			</trkpt>
			<trkpt lat="59.69905588315772" lon="9.022177979358492">
				<ele>190.2273666113578</ele>
				<time>2019-07-26T12:41:45Z</time>
			</trkpt>
			<trkpt lat="59.699136265609134" lon="9.022037582480369">
				<ele>190.65283280087488</ele>
				<time>2019-07-26T12:41:51Z</time>
			</trkpt>
			<trkpt lat="59.69918840104686" lon="9.02185393498188">
				<ele>190.69672666630345</ele>
				<time>2019-07-26T12:41:56Z</time>
			</trkpt>
			<trkpt lat="59.69922817317741" lon="9.02166576125568">
				<ele>190.93727743388007</ele>
				<time>2019-07-26T12:42:01Z</time>
			</trkpt>
			<trkpt lat="59.69925864139544" lon="9.021497955554185">
				<ele>191.02285714093364</ele>
				<time>2019-07-26T12:42:06Z</time>
			</trkpt>
			<trkpt lat="59.69930738216238" lon="9.021331239500103">
				<ele>191.4088063616736</ele>
				<time>2019-07-26T12:42:12Z</time>
			</trkpt>
			<trkpt lat="59.69935746403383" lon="9.021155470990594">
				<ele>191.4922925619627</ele>
				<time>2019-07-26T12:42:18Z</time>
			</trkpt>
			<trkpt lat="59.69939568551229" lon="9.020983809613641">
				<ele>191.5998059479358</ele>
				<time>2019-07-26T12:42:24Z</time>
			</trkpt>
			<trkpt lat="59.6994633693804" lon="9.020819775768574">
				<ele>191.83951359853313</ele>
				<time>2019-07-26T12:42:29Z</time>
			</trkpt>
			<trkpt lat="59.69953004742013" lon="9.02068474330848">
				<ele>192.1740947559478</ele>
				<time>2019-07-26T12:42:34Z</time>
			</trkpt>
			<trkpt lat="59.699602173696924" lon="9.020551387229022">
				<ele>192.0902390944421</ele>
				<time>2019-07-26T12:42:40Z</time>
			</trkpt>
			<trkpt lat="59.69965757807689" lon="9.020408391960915">
				<ele>191.9808080289012</ele>
				<time>2019-07-26T12:42:45Z</time>
			</trkpt>
			<trkpt lat="59.69971159944283" lon="9.020246285953577">
				<ele>191.3606154744732</ele>
				<time>2019-07-26T12:42:50Z</time>
			</trkpt>
			<trkpt lat="59.69975920865284" lon="9.020090885468777">
				<ele>190.9378374531314</ele>
				<time>2019-07-26T12:42:55Z</time>
			</trkpt>
			<trkpt lat="59.699808661881555" lon="9.019923498862441">
				<ele>190.0943762000557</ele>
				<time>2019-07-26T12:43:01Z</time>
			</trkpt>
			<trkpt lat="59.69987265771227" lon="9.019794249915536">
				<ele>189.40623277838483</ele>
				<time>2019-07-26T12:43:06Z</time>
			</trkpt>
			<trkpt lat="59.699954968001414" lon="9.019885528841074">
				<ele>189.450153070132</ele>
				<time>2019-07-26T12:43:12Z</time>
			</trkpt>
			<trkpt lat="59.70000266103046" lon="9.020078228794988">
				<ele>189.45360694446816</ele>
				<time>2019-07-26T12:43:19Z</time>
			</trkpt>
			<trkpt lat="59.700069087613095" lon="9.020199095838722">
				<ele>189.55749562856028</ele>
				<time>2019-07-26T12:43:24Z</time>
			</trkpt>
			<trkpt lat="59.70016602432327" lon="9.020186355345901">
				<ele>189.50403225758328</ele>
				<time>2019-07-26T12:43:33Z</time>
			</trkpt>
			<trkpt lat="59.70025843480574" lon="9.020115695902165">
				<ele>189.37745153257913</ele>
				<time>2019-07-26T12:43:43Z</time>
			</trkpt>
			<trkpt lat="59.70033676369088" lon="9.020011257388648">
				<ele>189.4633590600248</ele>
				<time>2019-07-26T12:43:49Z</time>
			</trkpt>
			<trkpt lat="59.70041417056667" lon="9.019899275162276">
				<ele>189.62752135378946</ele>
				<time>2019-07-26T12:43:53Z</time>
			</trkpt>
			<trkpt lat="59.70049861824112" lon="9.019792908811029">
				<ele>189.48757728559144</ele>
				<time>2019-07-26T12:43:57Z</time>
			</trkpt>
			<trkpt lat="59.70059614168452" lon="9.01979005896395">
				<ele>189.5545154483429</ele>
				<time>2019-07-26T12:44:03Z</time>
			</trkpt>
			<trkpt lat="59.70068498985814" lon="9.01976365596896">
				<ele>189.53881354256345</ele>
				<time>2019-07-26T12:44:08Z</time>
			</trkpt>
			<trkpt lat="59.70077383803176" lon="9.01972895488983">
				<ele>189.65703419301786</ele>
				<time>2019-07-26T12:44:12Z</time>
			</trkpt>
			<trkpt lat="59.700867966804374" lon="9.019662318759616">
				<ele>190.05395548501156</ele>
				<time>2019-07-26T12:44:16Z</time>
			</trkpt>
			<trkpt lat="59.70094793016063" lon="9.019565088682826">
				<ele>190.5258703643945</ele>
				<time>2019-07-26T12:44:20Z</time>
			</trkpt>
			<trkpt lat="59.70104725571321" lon="9.019462075092848">
				<ele>190.49318964804866</ele>
				<time>2019-07-26T12:44:24Z</time>
			</trkpt>
			<trkpt lat="59.70113467896329" lon="9.01935612783676">
				<ele>190.43848830166525</ele>
				<time>2019-07-26T12:44:28Z</time>
			</trkpt>
			<trkpt lat="59.70121921045678" lon="9.019283624374326">
				<ele>190.2657265151488</ele>
				<time>2019-07-26T12:44:34Z</time>
			</trkpt>
			<trkpt lat="59.701300263460446" lon="9.019169462853128">
				<ele>190.05828541932016</ele>
				<time>2019-07-26T12:44:39Z</time>
			</trkpt>
			<trkpt lat="59.70138148410218" lon="9.019050691285187">
				<ele>190.48865682410525</ele>
				<time>2019-07-26T12:44:43Z</time>
			</trkpt>
			<trkpt lat="59.70146899117129" lon="9.018933260821754">
				<ele>190.49091324933903</ele>
				<time>2019-07-26T12:44:48Z</time>
			</trkpt>
			<trkpt lat="59.701558174621034" lon="9.018860086807067">
				<ele>190.5144105233133</ele>
				<time>2019-07-26T12:44:53Z</time>
			</trkpt>
			<trkpt lat="59.7016489925419" lon="9.018776351594383">
				<ele>190.34559655024833</ele>
				<time>2019-07-26T12:44:58Z</time>
			</trkpt>
			<trkpt lat="59.70173679297762" lon="9.018703093760664">
				<ele>190.0991989598063</ele>
				<time>2019-07-26T12:45:02Z</time>
			</trkpt>
			<trkpt lat="59.70184131531017" lon="9.018610641368682">
				<ele>189.8127462759104</ele>
				<time>2019-07-26T12:45:06Z</time>
			</trkpt>
			<trkpt lat="59.701927565093804" lon="9.018536126249487">
				<ele>190.35094434830245</ele>
				<time>2019-07-26T12:45:13Z</time>
			</trkpt>
			<trkpt lat="59.702018005829025" lon="9.018500838437134">
				<ele>190.4836096049337</ele>
				<time>2019-07-26T12:45:19Z</time>
			</trkpt>
			<trkpt lat="59.70211900776224" lon="9.018482901164347">
				<ele>190.61291844648207</ele>
				<time>2019-07-26T12:45:26Z</time>
			</trkpt>
			<trkpt lat="59.70221355563002" lon="9.01840142906552">
				<ele>190.68872021733029</ele>
				<time>2019-07-26T12:45:31Z</time>
			</trkpt>
			<trkpt lat="59.70229272270547" lon="9.01829053648656">
				<ele>190.69387015507778</ele>
				<time>2019-07-26T12:45:36Z</time>
			</trkpt>
			<trkpt lat="59.702389407958556" lon="9.018243430190736">
				<ele>190.60023670997492</ele>
				<time>2019-07-26T12:45:41Z</time>
			</trkpt>
			<trkpt lat="59.702481902260054" lon="9.0182021074081">
				<ele>190.5866278404717</ele>
				<time>2019-07-26T12:45:48Z</time>
			</trkpt>
			<trkpt lat="59.7025634162684" lon="9.018081743278557">
				<ele>190.70951868733852</ele>
				<time>2019-07-26T12:46:09Z</time>
			</trkpt>
			<trkpt lat="59.70265850895988" lon="9.01808970608657">
				<ele>190.196329973788</ele>
				<time>2019-07-26T12:49:39Z</time>
			</trkpt>
			<trkpt lat="59.70274408819126" lon="9.018144272276217">
				<ele>190.2324321188517</ele>
				<time>2019-07-26T12:52:01Z</time>
			</trkpt>
			<trkpt lat="59.70282975124167" lon="9.018219374128634">
				<ele>191.67908901509878</ele>
				<time>2019-07-26T12:52:13Z</time>
			</trkpt>
			<trkpt lat="59.7029207368006" lon="9.018274527051503">
				<ele>193.20862090019733</ele>
				<time>2019-07-26T12:52:23Z</time>
			</trkpt>
			<trkpt lat="59.70301188999759" lon="9.018298499294573">
				<ele>194.8917066200695</ele>
				<time>2019-07-26T12:52:31Z</time>
			</trkpt>
			<trkpt lat="59.70310455193715" lon="9.01831937023347">
				<ele>196.06199604605183</ele>
				<time>2019-07-26T12:52:40Z</time>
			</trkpt>
			<trkpt lat="59.703198219705094" lon="9.018302522608096">
				<ele>198.26314754956235</ele>
				<time>2019-07-26T12:52:52Z</time>
			</trkpt>
			<trkpt lat="59.70329176174449" lon="9.01829246432429">
				<ele>200.67884195800076</ele>
				<time>2019-07-26T12:53:09Z</time>
			</trkpt>
			<trkpt lat="59.70338408840792" lon="9.018285255887562">
				<ele>202.25918251534836</ele>
				<time>2019-07-26T12:53:20Z</time>
			</trkpt>
			<trkpt lat="59.70347499014782" lon="9.01825189591294">
				<ele>203.78027744175273</ele>
				<time>2019-07-26T12:53:31Z</time>
			</trkpt>
			<trkpt lat="59.70356807118254" lon="9.018257176511938">
				<ele>205.3331148384981</ele>
				<time>2019-07-26T12:53:43Z</time>
			</trkpt>
			<trkpt lat="59.703660984579194" lon="9.018259523444826">
				<ele>207.05002224377915</ele>
				<time>2019-07-26T12:53:57Z</time>
			</trkpt>
			<trkpt lat="59.70374974893378" lon="9.0183506347323">
				<ele>208.2302233645699</ele>
				<time>2019-07-26T12:54:08Z</time>
			</trkpt>
			<trkpt lat="59.703842578511406" lon="9.018356837340647">
				<ele>209.2850116452979</ele>
				<time>2019-07-26T12:54:17Z</time>
			</trkpt>
			<trkpt lat="59.70392694236683" lon="9.018431017183715">
				<ele>210.98624105531366</ele>
				<time>2019-07-26T12:54:30Z</time>
			</trkpt>
			<trkpt lat="59.704029243495036" lon="9.018445014962012">
				<ele>213.0139181918018</ele>
				<time>2019-07-26T12:54:42Z</time>
			</trkpt>
			<trkpt lat="59.704128401409555" lon="9.01845130138939">
				<ele>214.2344122984269</ele>
				<time>2019-07-26T12:54:50Z</time>
			</trkpt>
			<trkpt lat="59.70422382937716" lon="9.018469490119273">
				<ele>216.21531969723327</ele>
				<time>2019-07-26T12:55:04Z</time>
			</trkpt>
			<trkpt lat="59.70432152045863" lon="9.018457001083547">
				<ele>217.01125310248693</ele>
				<time>2019-07-26T12:55:13Z</time>
			</trkpt>
			<trkpt lat="59.704412296469975" lon="9.018506705769354">
				<ele>218.0487817144459</ele>
				<time>2019-07-26T12:55:21Z</time>
			</trkpt>
			<trkpt lat="59.70451350795077" lon="9.018521457918936">
				<ele>218.85031876680506</ele>
				<time>2019-07-26T12:55:29Z</time>
			</trkpt>
			<trkpt lat="59.704609690289665" lon="9.018527744346315">
				<ele>219.6419513531804</ele>
				<time>2019-07-26T12:56:02Z</time>
			</trkpt>
			<trkpt lat="59.70470503443824" lon="9.018561523416096">
				<ele>221.198927795173</ele>
				<time>2019-07-26T12:56:13Z</time>
			</trkpt>
			<trkpt lat="59.7047942597975" lon="9.018588680782372">
				<ele>221.90502334032175</ele>
				<time>2019-07-26T12:56:19Z</time>
			</trkpt>
			<trkpt lat="59.70489253761219" lon="9.018649449580366">
				<ele>222.38438611221295</ele>
				<time>2019-07-26T12:56:25Z</time>
			</trkpt>
			<trkpt lat="59.7049816372429" lon="9.018742404886538">
				<ele>223.54652818188924</ele>
				<time>2019-07-26T12:56:30Z</time>
			</trkpt>
			<trkpt lat="59.705080543700326" lon="9.018780626365">
				<ele>224.45602252432383</ele>
				<time>2019-07-26T12:56:36Z</time>
			</trkpt>
			<trkpt lat="59.705168679412175" lon="9.01881432161575">
				<ele>224.76350322500883</ele>
				<time>2019-07-26T12:56:41Z</time>
			</trkpt>
			<trkpt lat="59.70525924587594" lon="9.01884558611458">
				<ele>224.74817301596158</ele>
				<time>2019-07-26T12:56:46Z</time>
			</trkpt>
			<trkpt lat="59.7053479264115" lon="9.018891602762992">
				<ele>225.20039146292868</ele>
				<time>2019-07-26T12:56:52Z</time>
			</trkpt>
			<trkpt lat="59.705449640806485" lon="9.018912389882857">
				<ele>225.49482056155546</ele>
				<time>2019-07-26T12:56:58Z</time>
			</trkpt>
			<trkpt lat="59.705559401828516" lon="9.018933177002722">
				<ele>225.80331426177025</ele>
				<time>2019-07-26T12:57:03Z</time>
			</trkpt>
			<trkpt lat="59.70566618727492" lon="9.018966872253472">
				<ele>226.29583093457444</ele>
				<time>2019-07-26T12:57:08Z</time>
			</trkpt>
			<trkpt lat="59.705768236946035" lon="9.01898237877434">
				<ele>226.7373154348433</ele>
				<time>2019-07-26T12:57:12Z</time>
			</trkpt>
			<trkpt lat="59.705879841986764" lon="9.018984138974005">
				<ele>227.28554331677378</ele>
				<time>2019-07-26T12:57:17Z</time>
			</trkpt>
			<trkpt lat="59.705978580806125" lon="9.018973242499882">
				<ele>227.8751657723177</ele>
				<time>2019-07-26T12:57:22Z</time>
			</trkpt>
			<trkpt lat="59.70607991801547" lon="9.01903325692659">
				<ele>228.33101249101122</ele>
				<time>2019-07-26T12:57:28Z</time>
			</trkpt>
			<trkpt lat="59.70618532044785" lon="9.019065778710896">
				<ele>228.51168330938737</ele>
				<time>2019-07-26T12:57:32Z</time>
			</trkpt>
			<trkpt lat="59.70629135152298" lon="9.019088745125586">
				<ele>228.35476020340968</ele>
				<time>2019-07-26T12:57:36Z</time>
			</trkpt>
			<trkpt lat="59.70638732431429" lon="9.019107772045786">
				<ele>227.70947478726794</ele>
				<time>2019-07-26T12:57:39Z</time>
			</trkpt>
			<trkpt lat="59.706504964325305" lon="9.019139874734933">
				<ele>227.02170516500604</ele>
				<time>2019-07-26T12:57:42Z</time>
			</trkpt>
			<trkpt lat="59.70660940283882" lon="9.019184131183678">
				<ele>227.07847180022395</ele>
				<time>2019-07-26T12:57:45Z</time>
			</trkpt>
			<trkpt lat="59.706708225477215" lon="9.019244732343608">
				<ele>227.22005618580909</ele>
				<time>2019-07-26T12:57:48Z</time>
			</trkpt>
			<trkpt lat="59.70678919466185" lon="9.01932729408985">
				<ele>228.02583320664962</ele>
				<time>2019-07-26T12:57:51Z</time>
			</trkpt>
			<trkpt lat="59.706868277918275" lon="9.01944405400103">
				<ele>228.77683340057683</ele>
				<time>2019-07-26T12:57:55Z</time>
			</trkpt>
			<trkpt lat="59.70695046247887" lon="9.019541703172978">
				<ele>229.3089354439773</ele>
				<time>2019-07-26T12:58:00Z</time>
			</trkpt>
			<trkpt lat="59.707029336187716" lon="9.019642788925227">
				<ele>229.31217643056107</ele>
				<time>2019-07-26T12:58:04Z</time>
			</trkpt>
			<trkpt lat="59.70713201450157" lon="9.019772540786322">
				<ele>229.14547562312225</ele>
				<time>2019-07-26T12:58:08Z</time>
			</trkpt>
			<trkpt lat="59.707215414438124" lon="9.019913943492826">
				<ele>228.72701214746712</ele>
				<time>2019-07-26T12:58:11Z</time>
			</trkpt>
			<trkpt lat="59.7072753450458" lon="9.020098093905505">
				<ele>228.7634040816679</ele>
				<time>2019-07-26T12:58:14Z</time>
			</trkpt>
			<trkpt lat="59.70732991123545" lon="9.020246453591641">
				<ele>229.16392685859705</ele>
				<time>2019-07-26T12:58:17Z</time>
			</trkpt>
			<trkpt lat="59.707388123552974" lon="9.020405039199646">
				<ele>229.45335755073825</ele>
				<time>2019-07-26T12:58:20Z</time>
			</trkpt>
			<trkpt lat="59.70744197728085" lon="9.020564295359906">
				<ele>229.56900997732345</ele>
				<time>2019-07-26T12:58:23Z</time>
			</trkpt>
			<trkpt lat="59.70752018043744" lon="9.020710056656059">
				<ele>229.67841258802025</ele>
				<time>2019-07-26T12:58:26Z</time>
			</trkpt>
			<trkpt lat="59.70759163616198" lon="9.020867887892779">
				<ele>230.14580651402196</ele>
				<time>2019-07-26T12:58:29Z</time>
			</trkpt>
			<trkpt lat="59.70766376243877" lon="9.021024042748865">
				<ele>230.70339400132656</ele>
				<time>2019-07-26T12:58:32Z</time>
			</trkpt>
			<trkpt lat="59.707750012222405" lon="9.02118304745203">
				<ele>231.09956400345413</ele>
				<time>2019-07-26T12:58:35Z</time>
			</trkpt>
			<trkpt lat="59.707829346935924" lon="9.021347248935161">
				<ele>232.03495524959044</ele>
				<time>2019-07-26T12:58:39Z</time>
			</trkpt>
			<trkpt lat="59.70789778517532" lon="9.021492674955187">
				<ele>232.68125288747382</ele>
				<time>2019-07-26T12:58:42Z</time>
			</trkpt>
			<trkpt lat="59.70796509185779" lon="9.021624857568202">
				<ele>233.40084432904916</ele>
				<time>2019-07-26T12:58:45Z</time>
			</trkpt>
			<trkpt lat="59.708035625572975" lon="9.021748574459014">
				<ele>234.54567084753455</ele>
				<time>2019-07-26T12:58:49Z</time>
			</trkpt>
			<trkpt lat="59.7081242222895" lon="9.021803475924788">
				<ele>235.45588677355283</ele>
				<time>2019-07-26T12:58:54Z</time>
			</trkpt>
			<trkpt lat="59.708214495386656" lon="9.021864328541813">
				<ele>236.61535833917048</ele>
				<time>2019-07-26T12:59:31Z</time>
			</trkpt>
			<trkpt lat="59.70830166717964" lon="9.021804146477042">
				<ele>237.02387980039947</ele>
				<time>2019-07-26T13:00:27Z</time>
			</trkpt>
			<trkpt lat="59.7084046388601" lon="9.021828202539144">
				<ele>236.91500959722265</ele>
				<time>2019-07-26T13:00:34Z</time>
			</trkpt>
			<trkpt lat="59.70851381314891" lon="9.021816216417609">
				<ele>236.68778068042621</ele>
				<time>2019-07-26T13:00:39Z</time>
			</trkpt>
			<trkpt lat="59.7086274298464" lon="9.021795177840648">
				<ele>235.99724989771687</ele>
				<time>2019-07-26T13:00:43Z</time>
			</trkpt>
			<trkpt lat="59.7087405436297" lon="9.021767098465023">
				<ele>236.13474443917227</ele>
				<time>2019-07-26T13:00:47Z</time>
			</trkpt>
			<trkpt lat="59.708837228882786" lon="9.02176299133247">
				<ele>235.87293838524795</ele>
				<time>2019-07-26T13:00:51Z</time>
			</trkpt>
			<trkpt lat="59.708941541667755" lon="9.021765254446326">
				<ele>235.6752074281053</ele>
				<time>2019-07-26T13:00:55Z</time>
			</trkpt>
			<trkpt lat="59.709048788118835" lon="9.021750167020617">
				<ele>235.35167373780519</ele>
				<time>2019-07-26T13:00:59Z</time>
			</trkpt>
			<trkpt lat="59.70916026743102" lon="9.02176056058055">
				<ele>234.9298616388914</ele>
				<time>2019-07-26T13:01:03Z</time>
			</trkpt>
			<trkpt lat="59.70926386775422" lon="9.021774055444656">
				<ele>234.34948977127</ele>
				<time>2019-07-26T13:01:06Z</time>
			</trkpt>
			<trkpt lat="59.70938372896957" lon="9.021800374620614">
				<ele>233.74607881691065</ele>
				<time>2019-07-26T13:01:09Z</time>
			</trkpt>
			<trkpt lat="59.70949868677157" lon="9.021821245559511">
				<ele>233.67211957440475</ele>
				<time>2019-07-26T13:01:12Z</time>
			</trkpt>
			<trkpt lat="59.709593108910795" lon="9.02184220031744">
				<ele>233.38207339883604</ele>
				<time>2019-07-26T13:01:15Z</time>
			</trkpt>
			<trkpt lat="59.70970890490311" lon="9.021886708223281">
				<ele>233.23825260108367</ele>
				<time>2019-07-26T13:01:19Z</time>
			</trkpt>
			<trkpt lat="59.709812253769215" lon="9.021931551405249">
				<ele>232.9779423360004</ele>
				<time>2019-07-26T13:01:23Z</time>
			</trkpt>
			<trkpt lat="59.709899677019294" lon="9.021983519204912">
				<ele>232.2486347879468</ele>
				<time>2019-07-26T13:01:27Z</time>
			</trkpt>
			<trkpt lat="59.710011156331475" lon="9.022040264689384">
				<ele>231.40226677875188</ele>
				<time>2019-07-26T13:01:31Z</time>
			</trkpt>
			<trkpt lat="59.710117606501754" lon="9.022099440925775">
				<ele>230.87463701929966</ele>
				<time>2019-07-26T13:01:35Z</time>
			</trkpt>
			<trkpt lat="59.71022682270008" lon="9.022105727353154">
				<ele>230.21431331592584</ele>
				<time>2019-07-26T13:01:39Z</time>
			</trkpt>
			<trkpt lat="59.710329542923446" lon="9.02217345313078">
				<ele>229.48588625422474</ele>
				<time>2019-07-26T13:01:43Z</time>
			</trkpt>
			<trkpt lat="59.71042241441059" lon="9.022275796168504">
				<ele>228.90691552688253</ele>
				<time>2019-07-26T13:01:47Z</time>
			</trkpt>
			<trkpt lat="59.71051880629706" lon="9.022339666270671">
				<ele>228.95240028762004</ele>
				<time>2019-07-26T13:01:52Z</time>
			</trkpt>
			<trkpt lat="59.71061808994013" lon="9.022392807536779">
				<ele>228.55447136696677</ele>
				<time>2019-07-26T13:01:56Z</time>
			</trkpt>
			<trkpt lat="59.71072248654413" lon="9.022404039287029">
				<ele>228.56863452944356</ele>
				<time>2019-07-26T13:02:00Z</time>
			</trkpt>
			<trkpt lat="59.710834929775174" lon="9.022421054550467">
				<ele>228.34875222212037</ele>
				<time>2019-07-26T13:02:04Z</time>
			</trkpt>
			<trkpt lat="59.71093656035113" lon="9.022438740366159">
				<ele>228.5303985078811</ele>
				<time>2019-07-26T13:02:08Z</time>
			</trkpt>
			<trkpt lat="59.7110382328366" lon="9.022476207473336">
				<ele>228.95407929562919</ele>
				<time>2019-07-26T13:02:13Z</time>
			</trkpt>
			<trkpt lat="59.71113554673242" lon="9.02252968401557">
				<ele>228.91682533602818</ele>
				<time>2019-07-26T13:02:18Z</time>
			</trkpt>
			<trkpt lat="59.71123474655646" lon="9.022585758947788">
				<ele>228.9333587883354</ele>
				<time>2019-07-26T13:02:23Z</time>
			</trkpt>
			<trkpt lat="59.71131877513575" lon="9.022688353442607">
				<ele>229.35189088924716</ele>
				<time>2019-07-26T13:02:28Z</time>
			</trkpt>
			<trkpt lat="59.71140116924393" lon="9.022808633753119">
				<ele>230.12740625945054</ele>
				<time>2019-07-26T13:02:33Z</time>
			</trkpt>
			<trkpt lat="59.711490143146094" lon="9.022927153863964">
				<ele>230.62277997563677</ele>
				<time>2019-07-26T13:02:39Z</time>
			</trkpt>
			<trkpt lat="59.71157911704826" lon="9.023059923210202">
				<ele>230.69301321132605</ele>
				<time>2019-07-26T13:02:45Z</time>
			</trkpt>
			<trkpt lat="59.71165304543423" lon="9.023164696999848">
				<ele>229.9809186409202</ele>
				<time>2019-07-26T13:02:49Z</time>
			</trkpt>
			<trkpt lat="59.71174474345493" lon="9.023282462739408">
				<ele>229.98213870867244</ele>
				<time>2019-07-26T13:02:54Z</time>
			</trkpt>
			<trkpt lat="59.71182215033072" lon="9.023407604553759">
				<ele>229.6056913531637</ele>
				<time>2019-07-26T13:02:58Z</time>
			</trkpt>
			<trkpt lat="59.7118921392222" lon="9.023533333101332">
				<ele>229.53094470502862</ele>
				<time>2019-07-26T13:03:02Z</time>
			</trkpt>
			<trkpt lat="59.71197118056911" lon="9.023662917324364">
				<ele>229.00080846373515</ele>
				<time>2019-07-26T13:03:06Z</time>
			</trkpt>
			<trkpt lat="59.71203345810967" lon="9.023830723025858">
				<ele>227.9843176203035</ele>
				<time>2019-07-26T13:03:10Z</time>
			</trkpt>
			<trkpt lat="59.71208965877044" lon="9.02404186316675">
				<ele>227.24854599643947</ele>
				<time>2019-07-26T13:03:13Z</time>
			</trkpt>
			<trkpt lat="59.71214820636409" lon="9.024180080750048">
				<ele>226.82367545682564</ele>
				<time>2019-07-26T13:03:16Z</time>
			</trkpt>
			<trkpt lat="59.712225780877944" lon="9.024315448486268">
				<ele>226.72396754217397</ele>
				<time>2019-07-26T13:03:21Z</time>
			</trkpt>
			<trkpt lat="59.71229895489263" lon="9.024427346893608">
				<ele>226.46332122555089</ele>
				<time>2019-07-26T13:03:25Z</time>
			</trkpt>
			<trkpt lat="59.7123868810569" lon="9.024551147603452">
				<ele>226.3322065904198</ele>
				<time>2019-07-26T13:03:29Z</time>
			</trkpt>
			<trkpt lat="59.71248029736775" lon="9.024655083202779">
				<ele>226.29816507999197</ele>
				<time>2019-07-26T13:03:34Z</time>
			</trkpt>
			<trkpt lat="59.712570570464905" lon="9.024783913054526">
				<ele>226.0050406497263</ele>
				<time>2019-07-26T13:03:39Z</time>
			</trkpt>
			<trkpt lat="59.71265137201148" lon="9.024896565833151">
				<ele>226.20289964101545</ele>
				<time>2019-07-26T13:03:43Z</time>
			</trkpt>
			<trkpt lat="59.71274424349862" lon="9.024959681564033">
				<ele>226.23925181289758</ele>
				<time>2019-07-26T13:03:47Z</time>
			</trkpt>
			<trkpt lat="59.71284612553167" lon="9.024989437320293">
				<ele>226.67978245555292</ele>
				<time>2019-07-26T13:03:51Z</time>
			</trkpt>
			<trkpt lat="59.71295136032599" lon="9.025021204733314">
				<ele>226.92330456598228</ele>
				<time>2019-07-26T13:03:55Z</time>
			</trkpt>
			<trkpt lat="59.713043980356034" lon="9.025060348221125">
				<ele>227.00425780735532</ele>
				<time>2019-07-26T13:03:59Z</time>
			</trkpt>
			<trkpt lat="59.71313064923483" lon="9.025114243858518">
				<ele>226.86137294087308</ele>
				<time>2019-07-26T13:04:03Z</time>
			</trkpt>
			<trkpt lat="59.713221928160365" lon="9.025154812269868">
				<ele>226.63163718834016</ele>
				<time>2019-07-26T13:04:07Z</time>
			</trkpt>
			<trkpt lat="59.71330352598774" lon="9.025250365966023">
				<ele>226.21138431738058</ele>
				<time>2019-07-26T13:04:11Z</time>
			</trkpt>
			<trkpt lat="59.713362869862195" lon="9.025413226344646">
				<ele>225.03272027039537</ele>
				<time>2019-07-26T13:04:17Z</time>
			</trkpt>
			<trkpt lat="59.713430553730305" lon="9.025559658193053">
				<ele>224.65030312105063</ele>
				<time>2019-07-26T13:04:23Z</time>
			</trkpt>
			<trkpt lat="59.71347321761745" lon="9.025734001779021">
				<ele>225.40342034841922</ele>
				<time>2019-07-26T13:04:29Z</time>
			</trkpt>
			<trkpt lat="59.71357526728856" lon="9.025834416979016">
				<ele>225.46551796477667</ele>
				<time>2019-07-26T13:04:35Z</time>
			</trkpt>
			<trkpt lat="59.713662313353" lon="9.025927288466157">
				<ele>225.7091631083744</ele>
				<time>2019-07-26T13:04:39Z</time>
			</trkpt>
			<trkpt lat="59.7137458390181" lon="9.02602418326682">
				<ele>226.253012699809</ele>
				<time>2019-07-26T13:04:43Z</time>
			</trkpt>
			<trkpt lat="59.71381494780975" lon="9.026146726691188">
				<ele>226.7669450932268</ele>
				<time>2019-07-26T13:04:49Z</time>
			</trkpt>
			<trkpt lat="59.71390798693496" lon="9.02610917576498">
				<ele>227.00086859515847</ele>
				<time>2019-07-26T13:05:14Z</time>
			</trkpt>
			<trkpt lat="59.71402990171659" lon="9.026080425837101">
				<ele>226.5837950272603</ele>
				<time>2019-07-26T13:05:18Z</time>
			</trkpt>
			<trkpt lat="59.71413991419572" lon="9.02605351992792">
				<ele>226.24791125248078</ele>
				<time>2019-07-26T13:05:21Z</time>
			</trkpt>
			<trkpt lat="59.71427297690857" lon="9.026001971223415">
				<ele>225.36183659689516</ele>
				<time>2019-07-26T13:05:24Z</time>
			</trkpt>
			<trkpt lat="59.71436484256733" lon="9.025975987323584">
				<ele>225.55833448789224</ele>
				<time>2019-07-26T13:05:26Z</time>
			</trkpt>
			<trkpt lat="59.71449404960472" lon="9.02594841086215">
				<ele>225.602220176708</ele>
				<time>2019-07-26T13:05:29Z</time>
			</trkpt>
			<trkpt lat="59.71458767546314" lon="9.025941872977675">
				<ele>225.99464287735293</ele>
				<time>2019-07-26T13:05:31Z</time>
			</trkpt>
			<trkpt lat="59.71471147617299" lon="9.025944136091532">
				<ele>226.26390198929948</ele>
				<time>2019-07-26T13:05:34Z</time>
			</trkpt>
			<trkpt lat="59.71481759106714" lon="9.02596064844078">
				<ele>226.7322581531099</ele>
				<time>2019-07-26T13:05:37Z</time>
			</trkpt>
			<trkpt lat="59.714944073986" lon="9.025979591541947">
				<ele>227.02317657095284</ele>
				<time>2019-07-26T13:05:40Z</time>
			</trkpt>
			<trkpt lat="59.715072778109196" lon="9.025983028122248">
				<ele>227.294366234849</ele>
				<time>2019-07-26T13:05:43Z</time>
			</trkpt>
			<trkpt lat="59.715206343736234" lon="9.025968275972666">
				<ele>228.05987867289844</ele>
				<time>2019-07-26T13:05:46Z</time>
			</trkpt>
			<trkpt lat="59.71532930625576" lon="9.02598705143577">
				<ele>228.9812025972791</ele>
				<time>2019-07-26T13:05:49Z</time>
			</trkpt>
			<trkpt lat="59.715434373412016" lon="9.02601052076465">
				<ele>229.37815252591696</ele>
				<time>2019-07-26T13:05:52Z</time>
			</trkpt>
			<trkpt lat="59.715534034240726" lon="9.026061566554965">
				<ele>229.9527707826212</ele>
				<time>2019-07-26T13:05:55Z</time>
			</trkpt>
			<trkpt lat="59.71564718993354" lon="9.026127951228084">
				<ele>230.1070723689112</ele>
				<time>2019-07-26T13:05:58Z</time>
			</trkpt>
			<trkpt lat="59.71573716966409" lon="9.026205819108547">
				<ele>230.61521278621598</ele>
				<time>2019-07-26T13:06:01Z</time>
			</trkpt>
			<trkpt lat="59.7158265207519" lon="9.026278154932918">
				<ele>230.94853234012896</ele>
				<time>2019-07-26T13:06:06Z</time>
			</trkpt>
			<trkpt lat="59.71592199062902" lon="9.026247560986342">
				<ele>231.0911446940811</ele>
				<time>2019-07-26T13:06:20Z</time>
			</trkpt>
			<trkpt lat="59.71601306000698" lon="9.02629441582507">
				<ele>231.49866917494444</ele>
				<time>2019-07-26T13:06:26Z</time>
			</trkpt>
			<trkpt lat="59.716122485752884" lon="9.026323165752949">
				<ele>231.69126412349806</ele>
				<time>2019-07-26T13:06:31Z</time>
			</trkpt>
			<trkpt lat="59.71622746909011" lon="9.026335235693516">
				<ele>231.78228405727123</ele>
				<time>2019-07-26T13:06:35Z</time>
			</trkpt>
			<trkpt lat="59.716326752733174" lon="9.02633205057031">
				<ele>231.7442889242139</ele>
				<time>2019-07-26T13:06:38Z</time>
			</trkpt>
			<trkpt lat="59.71643190370846" lon="9.026305312299193">
				<ele>231.72620130930204</ele>
				<time>2019-07-26T13:06:41Z</time>
			</trkpt>
			<trkpt lat="59.716535378303114" lon="9.02626021766013">
				<ele>231.84319995453183</ele>
				<time>2019-07-26T13:06:44Z</time>
			</trkpt>
			<trkpt lat="59.71664002636421" lon="9.026215123021068">
				<ele>231.45559106003583</ele>
				<time>2019-07-26T13:06:47Z</time>
			</trkpt>
			<trkpt lat="59.71676307270277" lon="9.02617908083743">
				<ele>231.3024626699704</ele>
				<time>2019-07-26T13:06:50Z</time>
			</trkpt>
			<trkpt lat="59.716884023565534" lon="9.026226690047444">
				<ele>231.2005138992614</ele>
				<time>2019-07-26T13:06:53Z</time>
			</trkpt>
			<trkpt lat="59.71696792641628" lon="9.026305479937257">
				<ele>231.0431341906111</ele>
				<time>2019-07-26T13:06:55Z</time>
			</trkpt>
			<trkpt lat="59.71703359862763" lon="9.026435231798352">
				<ele>230.64478720999927</ele>
				<time>2019-07-26T13:06:56Z</time>
			</trkpt>
			<trkpt lat="59.71713204408038" lon="9.026468759411038">
				<ele>230.1866593399801</ele>
				<time>2019-07-26T13:06:58Z</time>
			</trkpt>
			<trkpt lat="59.717226885314766" lon="9.026481416084827">
				<ele>229.28387615570682</ele>
				<time>2019-07-26T13:07:00Z</time>
			</trkpt>
			<trkpt lat="59.717345070149484" lon="9.026443194606365">
				<ele>228.79589469547273</ele>
				<time>2019-07-26T13:07:02Z</time>
			</trkpt>
			<trkpt lat="59.71748789777953" lon="9.026449229576649">
				<ele>227.29871331206004</ele>
				<time>2019-07-26T13:07:04Z</time>
			</trkpt>
			<trkpt lat="59.717615093160155" lon="9.026442775511207">
				<ele>226.76584263405925</ele>
				<time>2019-07-26T13:07:06Z</time>
			</trkpt>
			<trkpt lat="59.71770993439454" lon="9.026396172129573">
				<ele>226.3746077295279</ele>
				<time>2019-07-26T13:07:07Z</time>
			</trkpt>
			<trkpt lat="59.717820282149795" lon="9.026376893752278">
				<ele>225.64878766030608</ele>
				<time>2019-07-26T13:07:09Z</time>
			</trkpt>
			<trkpt lat="59.71793813170839" lon="9.026267761372985">
				<ele>225.07526557958965</ele>
				<time>2019-07-26T13:07:11Z</time>
			</trkpt>
			<trkpt lat="59.71807157160688" lon="9.026241861292185">
				<ele>224.43672856566354</ele>
				<time>2019-07-26T13:07:13Z</time>
			</trkpt>
			<trkpt lat="59.718185523580495" lon="9.026177236818732">
				<ele>223.24198532450276</ele>
				<time>2019-07-26T13:07:15Z</time>
			</trkpt>
			<trkpt lat="59.718311671223226" lon="9.026133902379335">
				<ele>222.14437624130068</ele>
				<time>2019-07-26T13:07:17Z</time>
			</trkpt>
			<trkpt lat="59.71845022408265" lon="9.026104146623076">
				<ele>221.45916869559352</ele>
				<time>2019-07-26T13:07:19Z</time>
			</trkpt>
			<trkpt lat="59.71855017827797" lon="9.026076737799706">
				<ele>219.90285868326305</ele>
				<time>2019-07-26T13:07:21Z</time>
			</trkpt>
			<trkpt lat="59.71867523627329" lon="9.026064416402043">
				<ele>218.48697765308202</ele>
				<time>2019-07-26T13:07:23Z</time>
			</trkpt>
			<trkpt lat="59.71879505557913" lon="9.026069697001041">
				<ele>217.19280622200273</ele>
				<time>2019-07-26T13:07:25Z</time>
			</trkpt>
			<trkpt lat="59.71893763175208" lon="9.02612141334361">
				<ele>216.19925803024626</ele>
				<time>2019-07-26T13:07:27Z</time>
			</trkpt>
			<trkpt lat="59.71909722318846" lon="9.026214871563973">
				<ele>214.99334729519717</ele>
				<time>2019-07-26T13:07:29Z</time>
			</trkpt>
			<trkpt lat="59.71922747796375" lon="9.026326937609376">
				<ele>214.0580336286951</ele>
				<time>2019-07-26T13:07:31Z</time>
			</trkpt>
			<trkpt lat="59.71936892257977" lon="9.026422156029405">
				<ele>213.13482926049912</ele>
				<time>2019-07-26T13:07:33Z</time>
			</trkpt>
			<trkpt lat="59.71952055120814" lon="9.026499520995678">
				<ele>211.90937349851032</ele>
				<time>2019-07-26T13:07:35Z</time>
			</trkpt>
			<trkpt lat="59.719676328878585" lon="9.026551069700183">
				<ele>210.76809903351514</ele>
				<time>2019-07-26T13:07:37Z</time>
			</trkpt>
			<trkpt lat="59.719766769613805" lon="9.026566911497177">
				<ele>210.02223764289212</ele>
				<time>2019-07-26T13:07:38Z</time>
			</trkpt>
			<trkpt lat="59.71986626280445" lon="9.026555931204022">
				<ele>209.8445429010253</ele>
				<time>2019-07-26T13:07:39Z</time>
			</trkpt>
			<trkpt lat="59.720027404892924" lon="9.026597421624722">
				<ele>208.76243621618826</ele>
				<time>2019-07-26T13:07:41Z</time>
			</trkpt>
			<trkpt lat="59.720117552261534" lon="9.026616113268794">
				<ele>208.47162218232788</ele>
				<time>2019-07-26T13:07:42Z</time>
			</trkpt>
			<trkpt lat="59.720222870874885" lon="9.026605719708861">
				<ele>207.57444159170905</ele>
				<time>2019-07-26T13:07:43Z</time>
			</trkpt>
			<trkpt lat="59.72031913703281" lon="9.026620723315538">
				<ele>206.4329044428234</ele>
				<time>2019-07-26T13:07:44Z</time>
			</trkpt>
			<trkpt lat="59.720478435102585" lon="9.026649724700512">
				<ele>205.17334967236997</ele>
				<time>2019-07-26T13:07:47Z</time>
			</trkpt>
			<trkpt lat="59.72057834738839" lon="9.026660621174635">
				<ele>205.17334967236997</ele>
				<time>2019-07-26T13:07:48Z</time>
			</trkpt>
			<trkpt lat="59.720677253845814" lon="9.02665106580502">
				<ele>205.17161404069154</ele>
				<time>2019-07-26T13:07:49Z</time>
			</trkpt>
			<trkpt lat="59.72084350889522" lon="9.026657771327557">
				<ele>205.0307528420002</ele>
				<time>2019-07-26T13:07:51Z</time>
			</trkpt>
			<trkpt lat="59.72098868345815" lon="9.026645785206021">
				<ele>204.92022640287917</ele>
				<time>2019-07-26T13:07:53Z</time>
			</trkpt>
			<trkpt lat="59.72112530847985" lon="9.026655340575637">
				<ele>205.18525335731167</ele>
				<time>2019-07-26T13:07:55Z</time>
			</trkpt>
			<trkpt lat="59.72124076919604" lon="9.026674870410027">
				<ele>205.1534014504164</ele>
				<time>2019-07-26T13:07:57Z</time>
			</trkpt>
			<trkpt lat="59.72137907059837" lon="9.026669003077807">
				<ele>205.30763322515168</ele>
				<time>2019-07-26T13:07:59Z</time>
			</trkpt>
			<trkpt lat="59.72148610750187" lon="9.026684006684484">
				<ele>205.47228023202882</ele>
				<time>2019-07-26T13:08:01Z</time>
			</trkpt>
			<trkpt lat="59.72160068811823" lon="9.026699597024383">
				<ele>205.36415594248643</ele>
				<time>2019-07-26T13:08:03Z</time>
			</trkpt>
			<trkpt lat="59.721712418887506" lon="9.026723233991326">
				<ele>205.19549983597796</ele>
				<time>2019-07-26T13:08:05Z</time>
			</trkpt>
			<trkpt lat="59.721817234586666" lon="9.026753827937902">
				<ele>204.80474292337618</ele>
				<time>2019-07-26T13:08:07Z</time>
			</trkpt>
			<trkpt lat="59.721912159640084" lon="9.026792049416365">
				<ele>205.20902725970538</ele>
				<time>2019-07-26T13:08:09Z</time>
			</trkpt>
			<trkpt lat="59.72201886126746" lon="9.02682549321002">
				<ele>205.1798390171308</ele>
				<time>2019-07-26T13:08:11Z</time>
			</trkpt>
			<trkpt lat="59.72215393563707" lon="9.026879724123539">
				<ele>204.8445168104979</ele>
				<time>2019-07-26T13:08:14Z</time>
			</trkpt>
			<trkpt lat="59.72224848350484" lon="9.02693144046611">
				<ele>204.87748553417532</ele>
				<time>2019-07-26T13:08:16Z</time>
			</trkpt>
			<trkpt lat="59.72235795116026" lon="9.026972763248745">
				<ele>204.97689328967977</ele>
				<time>2019-07-26T13:08:18Z</time>
			</trkpt>
			<trkpt lat="59.72245974937428" lon="9.027019869544569">
				<ele>205.27465370865843</ele>
				<time>2019-07-26T13:08:20Z</time>
			</trkpt>
			<trkpt lat="59.722564313616346" lon="9.027070915334884">
				<ele>205.7869773409146</ele>
				<time>2019-07-26T13:08:22Z</time>
			</trkpt>
			<trkpt lat="59.72266606992085" lon="9.027114082136217">
				<ele>205.86484386357844</ele>
				<time>2019-07-26T13:08:24Z</time>
			</trkpt>
			<trkpt lat="59.72275789367009" lon="9.027161942803327">
				<ele>206.00345484636082</ele>
				<time>2019-07-26T13:08:26Z</time>
			</trkpt>
			<trkpt lat="59.72287637187142" lon="9.027224304162923">
				<ele>206.0407020481004</ele>
				<time>2019-07-26T13:08:29Z</time>
			</trkpt>
			<trkpt lat="59.722973057124506" lon="9.027261016898814">
				<ele>205.8896269781758</ele>
				<time>2019-07-26T13:08:31Z</time>
			</trkpt>
			<trkpt lat="59.72310222225238" lon="9.027300998576942">
				<ele>205.93950376768512</ele>
				<time>2019-07-26T13:08:34Z</time>
			</trkpt>
			<trkpt lat="59.72322535240997" lon="9.02733310126609">
				<ele>205.6342197025494</ele>
				<time>2019-07-26T13:08:37Z</time>
			</trkpt>
			<trkpt lat="59.7233221633916" lon="9.027285827332202">
				<ele>205.2588623088023</ele>
				<time>2019-07-26T13:08:38Z</time>
			</trkpt>
			<trkpt lat="59.7234231234153" lon="9.027148783215347">
				<ele>205.01233996970487</ele>
				<time>2019-07-26T13:08:39Z</time>
			</trkpt>
			<trkpt lat="59.72354667266805" lon="9.027135539808336">
				<ele>204.58549885590304</ele>
				<time>2019-07-26T13:08:41Z</time>
			</trkpt>
			<trkpt lat="59.72365362575252" lon="9.027102850385967">
				<ele>204.42402020407897</ele>
				<time>2019-07-26T13:08:43Z</time>
			</trkpt>
			<trkpt lat="59.72375710034717" lon="9.027111064651075">
				<ele>203.92171557757294</ele>
				<time>2019-07-26T13:08:45Z</time>
			</trkpt>
			<trkpt lat="59.72388027241428" lon="9.026999250062767">
				<ele>203.38749673146933</ele>
				<time>2019-07-26T13:08:47Z</time>
			</trkpt>
			<trkpt lat="59.72400113945801" lon="9.026938732721868">
				<ele>203.719481806269</ele>
				<time>2019-07-26T13:08:50Z</time>
			</trkpt>
			<trkpt lat="59.72413026267637" lon="9.02690897696561">
				<ele>203.6861772680336</ele>
				<time>2019-07-26T13:08:54Z</time>
			</trkpt>
			<trkpt lat="59.724239562693725" lon="9.026927165695492">
				<ele>203.10735405339645</ele>
				<time>2019-07-26T13:08:57Z</time>
			</trkpt>
			<trkpt lat="59.724338301513086" lon="9.026891207330884">
				<ele>202.4384228108702</ele>
				<time>2019-07-26T13:08:59Z</time>
			</trkpt>
			<trkpt lat="59.72443947108437" lon="9.02693395503706">
				<ele>201.0360779340749</ele>
				<time>2019-07-26T13:09:02Z</time>
			</trkpt>
			<trkpt lat="59.72453967673678" lon="9.026961950593654">
				<ele>200.26700970220344</ele>
				<time>2019-07-26T13:09:05Z</time>
			</trkpt>
			<trkpt lat="59.72464340278853" lon="9.02704535053021">
				<ele>199.0024213281884</ele>
				<time>2019-07-26T13:09:09Z</time>
			</trkpt>
			<trkpt lat="59.724775878768156" lon="9.027287755169931">
				<ele>197.76262276821333</ele>
				<time>2019-07-26T13:09:16Z</time>
			</trkpt>
			<trkpt lat="59.72478107554812" lon="9.027500320234362">
				<ele>198.1373649471984</ele>
				<time>2019-07-26T13:09:19Z</time>
			</trkpt>
			<trkpt lat="59.72477059816916" lon="9.027679944419328">
				<ele>198.74025456647553</ele>
				<time>2019-07-26T13:09:22Z</time>
			</trkpt>
			<trkpt lat="59.72477617213477" lon="9.027899047368232">
				<ele>199.14819113929053</ele>
				<time>2019-07-26T13:09:26Z</time>
			</trkpt>
			<trkpt lat="59.724793187398205" lon="9.028069451459709">
				<ele>198.9436268338731</ele>
				<time>2019-07-26T13:09:29Z</time>
			</trkpt>
			<trkpt lat="59.72485860815246" lon="9.028198616587582">
				<ele>198.7848739002638</ele>
				<time>2019-07-26T13:09:32Z</time>
			</trkpt>
			<trkpt lat="59.72495533531506" lon="9.028236502789918">
				<ele>198.77623050666475</ele>
				<time>2019-07-26T13:09:35Z</time>
			</trkpt>
			<trkpt lat="59.72506325231839" lon="9.028242789217297">
				<ele>198.4134178047804</ele>
				<time>2019-07-26T13:09:38Z</time>
			</trkpt>
			<trkpt lat="59.72518013795812" lon="9.028221750640336">
				<ele>198.2047995004235</ele>
				<time>2019-07-26T13:09:41Z</time>
			</trkpt>
			<trkpt lat="59.725287845413874" lon="9.028214039289418">
				<ele>198.51524762828453</ele>
				<time>2019-07-26T13:09:44Z</time>
			</trkpt>
			<trkpt lat="59.725394169855605" lon="9.028202723720137">
				<ele>198.28565054822775</ele>
				<time>2019-07-26T13:09:47Z</time>
			</trkpt>
			<trkpt lat="59.72550523007263" lon="9.028188642122808">
				<ele>198.32397626852273</ele>
				<time>2019-07-26T13:09:51Z</time>
			</trkpt>
			<trkpt lat="59.72560296306361" lon="9.028241867207948">
				<ele>197.99042690912557</ele>
				<time>2019-07-26T13:09:55Z</time>
			</trkpt>
			<trkpt lat="59.72570580901552" lon="9.028291655712787">
				<ele>197.22129849923743</ele>
				<time>2019-07-26T13:09:59Z</time>
			</trkpt>
			<trkpt lat="59.725792394075285" lon="9.028383605190578">
				<ele>196.59632018244423</ele>
				<time>2019-07-26T13:10:06Z</time>
			</trkpt>
			<trkpt lat="59.72585530025859" lon="9.028528612115446">
				<ele>196.02371822365572</ele>
				<time>2019-07-26T13:10:15Z</time>
			</trkpt>
			<trkpt lat="59.725953452344726" lon="9.02858351358122">
				<ele>195.7008648039204</ele>
				<time>2019-07-26T13:10:19Z</time>
			</trkpt>
			<trkpt lat="59.726055837291966" lon="9.028649646797243">
				<ele>195.35830235806785</ele>
				<time>2019-07-26T13:10:22Z</time>
			</trkpt>
			<trkpt lat="59.72614585893203" lon="9.028790546589557">
				<ele>195.04513837840702</ele>
				<time>2019-07-26T13:10:25Z</time>
			</trkpt>
			<trkpt lat="59.72623055806358" lon="9.028855506339138">
				<ele>195.1319816597899</ele>
				<time>2019-07-26T13:10:27Z</time>
			</trkpt>
			<trkpt lat="59.72633516421516" lon="9.028930608191555">
				<ele>195.02919857824256</ele>
				<time>2019-07-26T13:10:30Z</time>
			</trkpt>
			<trkpt lat="59.72642870625455" lon="9.029004704215591">
				<ele>195.01010083075957</ele>
				<time>2019-07-26T13:10:35Z</time>
			</trkpt>
			<trkpt lat="59.72652061382283" lon="9.029118362822597">
				<ele>194.99087005043208</ele>
				<time>2019-07-26T13:10:41Z</time>
			</trkpt>
			<trkpt lat="59.72659517085154" lon="9.029218945660656">
				<ele>194.83441434615412</ele>
				<time>2019-07-26T13:10:45Z</time>
			</trkpt>
			<trkpt lat="59.72666331572432" lon="9.029366970070665">
				<ele>195.12619100965875</ele>
				<time>2019-07-26T13:10:51Z</time>
			</trkpt>
			<trkpt lat="59.7266315483113" lon="9.02919572778887">
				<ele>194.8182534110872</ele>
				<time>2019-07-26T13:10:58Z</time>
			</trkpt>
			<trkpt lat="59.72654253249962" lon="9.02910679579622">
				<ele>194.67697622178306</ele>
				<time>2019-07-26T13:11:02Z</time>
			</trkpt>
			<trkpt lat="59.726459342110644" lon="9.02902373113579">
				<ele>195.06362480566835</ele>
				<time>2019-07-26T13:11:06Z</time>
			</trkpt>
			<trkpt lat="59.726370913032184" lon="9.028917280965512">
				<ele>194.91392839494668</ele>
				<time>2019-07-26T13:11:10Z</time>
			</trkpt>
			<trkpt lat="59.72629291942317" lon="9.02882675641126">
				<ele>195.01628871904117</ele>
				<time>2019-07-26T13:11:13Z</time>
			</trkpt>
			<trkpt lat="59.72621329134304" lon="9.028741260998908">
				<ele>195.05916825886305</ele>
				<time>2019-07-26T13:11:16Z</time>
			</trkpt>
			<trkpt lat="59.72612997522552" lon="9.028651574634972">
				<ele>195.01027317694846</ele>
				<time>2019-07-26T13:11:19Z</time>
			</trkpt>
			<trkpt lat="59.72605026332636" lon="9.028563313194576">
				<ele>195.55167545617093</ele>
				<time>2019-07-26T13:11:22Z</time>
			</trkpt>
			<trkpt lat="59.72595596691568" lon="9.028470944621626">
				<ele>196.0523088269366</ele>
				<time>2019-07-26T13:11:25Z</time>
			</trkpt>
			<trkpt lat="59.725858443472276" lon="9.028402548291746">
				<ele>196.51169778131484</ele>
				<time>2019-07-26T13:11:29Z</time>
			</trkpt>
			<trkpt lat="59.72576594917078" lon="9.028343791150514">
				<ele>196.79024103349346</ele>
				<time>2019-07-26T13:11:32Z</time>
			</trkpt>
			<trkpt lat="59.7256602952813" lon="9.028253350415293">
				<ele>197.03229398733225</ele>
				<time>2019-07-26T13:11:36Z</time>
			</trkpt>
			<trkpt lat="59.72557287203122" lon="9.028173470878068">
				<ele>197.3698586217219</ele>
				<time>2019-07-26T13:11:40Z</time>
			</trkpt>
			<trkpt lat="59.72546394919951" lon="9.028114546098772">
				<ele>197.52452689328803</ele>
				<time>2019-07-26T13:11:44Z</time>
			</trkpt>
			<trkpt lat="59.72536793449868" lon="9.028108678766552">
				<ele>197.59032273644803</ele>
				<time>2019-07-26T13:11:47Z</time>
			</trkpt>
			<trkpt lat="59.7252770746683" lon="9.028114629917804">
				<ele>197.61793065516034</ele>
				<time>2019-07-26T13:11:50Z</time>
			</trkpt>
			<trkpt lat="59.725168654750775" lon="9.028135165580574">
				<ele>197.7558615848597</ele>
				<time>2019-07-26T13:11:53Z</time>
			</trkpt>
			<trkpt lat="59.72504929644961" lon="9.028147738435331">
				<ele>197.72614128434122</ele>
				<time>2019-07-26T13:11:56Z</time>
			</trkpt>
			<trkpt lat="59.72495026426364" lon="9.028157126166883">
				<ele>198.31284866981056</ele>
				<time>2019-07-26T13:11:59Z</time>
			</trkpt>
			<trkpt lat="59.7248418024366" lon="9.028121503078404">
				<ele>198.309882844266</ele>
				<time>2019-07-26T13:12:03Z</time>
			</trkpt>
			<trkpt lat="59.7247831291144" lon="9.027949590244356">
				<ele>198.57262097091996</ele>
				<time>2019-07-26T13:12:07Z</time>
			</trkpt>
			<trkpt lat="59.7247675387745" lon="9.027737611913148">
				<ele>198.75112306447605</ele>
				<time>2019-07-26T13:12:11Z</time>
			</trkpt>
			<trkpt lat="59.724759617876" lon="9.027545833968583">
				<ele>198.55125987797624</ele>
				<time>2019-07-26T13:12:14Z</time>
			</trkpt>
			<trkpt lat="59.724771729726086" lon="9.02735514567143">
				<ele>197.69152621355212</ele>
				<time>2019-07-26T13:12:17Z</time>
			</trkpt>
			<trkpt lat="59.72477768087734" lon="9.027167391040388">
				<ele>197.13464409365807</ele>
				<time>2019-07-26T13:12:21Z</time>
			</trkpt>
			<trkpt lat="59.72479222347934" lon="9.026955496528211">
				<ele>196.57142458492592</ele>
				<time>2019-07-26T13:12:25Z</time>
			</trkpt>
			<trkpt lat="59.72480353904862" lon="9.026776039981307">
				<ele>195.9577961186356</ele>
				<time>2019-07-26T13:12:28Z</time>
			</trkpt>
			<trkpt lat="59.724830235410224" lon="9.026577137419046">
				<ele>195.8146203177608</ele>
				<time>2019-07-26T13:12:32Z</time>
			</trkpt>
			<trkpt lat="59.724837695304046" lon="9.026384940379323">
				<ele>195.80172340605955</ele>
				<time>2019-07-26T13:12:38Z</time>
			</trkpt>
			<trkpt lat="59.72483685711373" lon="9.02617908083743">
				<ele>195.78537704167414</ele>
				<time>2019-07-26T13:12:43Z</time>
			</trkpt>
			<trkpt lat="59.724817872103046" lon="9.025985458874167">
				<ele>195.7201842717556</ele>
				<time>2019-07-26T13:12:47Z</time>
			</trkpt>
			<trkpt lat="59.72475634893377" lon="9.025816395887198">
				<ele>195.83416949154238</ele>
				<time>2019-07-26T13:12:51Z</time>
			</trkpt>
			<trkpt lat="59.72468103753377" lon="9.025717154153647">
				<ele>196.02639641167167</ele>
				<time>2019-07-26T13:12:54Z</time>
			</trkpt>
			<trkpt lat="59.72458858514179" lon="9.025645907976688">
				<ele>196.2330803033266</ele>
				<time>2019-07-26T13:12:58Z</time>
			</trkpt>
			<trkpt lat="59.72449931787301" lon="9.025546414786042">
				<ele>196.68066290737184</ele>
				<time>2019-07-26T13:13:02Z</time>
			</trkpt>
			<trkpt lat="59.72442270727802" lon="9.025406604641141">
				<ele>196.80130370158324</ele>
				<time>2019-07-26T13:13:06Z</time>
			</trkpt>
			<trkpt lat="59.72448041668136" lon="9.025248019033135">
				<ele>197.01409594425675</ele>
				<time>2019-07-26T13:13:11Z</time>
			</trkpt>
			<trkpt lat="59.72456922294546" lon="9.025222035133304">
				<ele>196.8781087568374</ele>
				<time>2019-07-26T13:13:15Z</time>
			</trkpt>
		</trkseg>
	</trk>
</gpx>